Provisional Data: Baldwin Run near Wellsboro Junction, PA


Please select a monitoring station.
Please select start date.
Please select start date.

Toggle Unit: C/F Toggle Unit: C/F
Sample Time Temperature (C) Temperature (F) Specific Conductivity (mS/cm) pH   Turbidity (NTU+) DO (mg/L)
10/17/2022 12:00:00 AM 8.11 46.598 0.071 7.72 28.57 10.26
10/17/2022 12:15:00 AM 8.07 46.526 0.069 7.72 16.02 10.29
10/17/2022 12:30:00 AM 8.02 46.436 0.072 7.71 17.77 10.42
10/17/2022 12:45:00 AM 7.98 46.364 0.07 7.72 13.37 10.12
10/17/2022 1:00:00 AM 7.94 46.292 0.068 7.72 12.82 10.01
10/17/2022 1:15:00 AM 7.92 46.256 0.067 7.72 12.98 10.23
10/17/2022 1:30:00 AM 7.9 46.22 0.065 7.71 166.8 10.5
10/17/2022 1:45:00 AM 7.88 46.184 0.065 7.71 21.89 10.6
10/17/2022 2:00:00 AM 7.86 46.148 0.066 7.72 14.9 10.45
10/17/2022 2:15:00 AM 7.85 46.13 0.063 7.72 17.92 10.5
10/17/2022 2:30:00 AM 7.84 46.112 0.063 7.72 15.54 10.61
10/17/2022 2:45:00 AM 7.82 46.076 0.065 7.71 49.4 10.57
10/17/2022 3:00:00 AM 7.81 46.058 0.066 7.71 23.05 10.5
10/17/2022 3:15:00 AM 7.79 46.022 0.066 7.71 15.88 10.26
10/17/2022 3:30:00 AM 7.77 45.986 0.069 7.71 13.07 9.65
10/17/2022 3:45:00 AM 7.74 45.932 0.069 7.71 19.87 9.29
10/17/2022 4:00:00 AM 7.72 45.896 0.071 7.71 21 9.22
10/17/2022 4:15:00 AM 7.68 45.824 0.069 7.71 15.17 9.57
10/17/2022 4:30:00 AM 7.65 45.77 0.065 7.71 14.58 9.33
10/17/2022 4:45:00 AM 7.62 45.716 0.066 7.71 14.21 9.42
10/17/2022 5:00:00 AM 7.6 45.68 0.063 7.71 12.25 9.89
10/17/2022 5:15:00 AM 7.59 45.662 0.064 7.71 11.97 9.31
10/17/2022 5:30:00 AM 7.59 45.662 0.065 7.71 12.48 9.6
10/17/2022 5:45:00 AM 7.58 45.644 0.065 7.71 12.3 9.64
10/17/2022 6:00:00 AM 7.57 45.626 0.065 7.71 12 9.55
10/17/2022 6:15:00 AM 7.55 45.59 0.066 7.71 13.81 9.59
10/17/2022 6:30:00 AM 7.54 45.572 0.066 7.71 14.64 9.96
10/17/2022 6:45:00 AM 7.52 45.536 0.069 7.71 12.78 9.82
10/17/2022 7:00:00 AM 7.51 45.518 0.07 7.71 11.22 9.75
10/17/2022 7:15:00 AM 7.51 45.518 0.071 7.7 11.31 9.78
10/17/2022 7:30:00 AM 7.51 45.518 0.072 7.71 11.2 9.82
10/17/2022 7:45:00 AM 7.52 45.536 0.071 7.71 10.87 10.08
10/17/2022 8:00:00 AM 7.53 45.554 0.072 7.71 10.93 10
10/17/2022 8:15:00 AM 7.55 45.59 0.072 7.71 11.03 10.14
10/17/2022 8:30:00 AM 7.57 45.626 0.074 7.71 10.98 10.17
10/17/2022 8:45:00 AM 7.6 45.68 0.073 7.72 11.05 10.45
10/17/2022 9:00:00 AM 7.64 45.752 0.073 7.73 10.93 10.09
10/17/2022 9:15:00 AM 7.68 45.824 0.071 7.73 11.07 9.92
10/17/2022 9:30:00 AM 7.73 45.914 0.073 7.73 10.69 9.88
10/17/2022 9:45:00 AM 7.79 46.022 0.073 7.74 14.64 9.89
10/17/2022 10:00:00 AM 7.86 46.148 0.073 7.75 11.54 9.72
10/17/2022 10:15:00 AM 7.96 46.328 0.073 7.76 13.19 9.45
10/17/2022 10:30:00 AM 8.1 46.58 0.071 7.77 12.65 10.03
10/17/2022 10:45:00 AM 8.22 46.796 0.072 7.78 12.28 9.49
10/17/2022 11:00:00 AM 8.39 47.102 0.073 7.79 12.07 8.74
10/17/2022 11:15:00 AM 8.57 47.426 0.073 7.8 13.42 8.53
10/17/2022 11:30:00 AM 8.71 47.678 0.074 7.81 14.71 9.04
10/17/2022 11:45:00 AM 8.86 47.948 0.074 7.81 16.82 9.12
10/17/2022 12:00:00 PM 8.87 47.966 0.071 7.8 13.87 9.04
10/17/2022 12:15:00 PM 8.91 48.038 0.072 7.8 13.04 8.88
10/17/2022 12:30:00 PM 8.97 48.146 0.071 7.8 14.56 8.51
10/17/2022 12:45:00 PM 9.07 48.326 0.073 7.81 12.67 8.66
10/17/2022 1:00:00 PM 9.11 48.398 0.073 7.81 14.57 8.57
10/17/2022 1:15:00 PM 9.12 48.416 0.072 7.81 11.48 9.15
10/17/2022 1:30:00 PM 9.19 48.542 0.071 7.81 11.6 9.09
10/17/2022 1:45:00 PM 9.25 48.65 0.074 7.82 12.05 9.45
10/17/2022 2:00:00 PM 9.3 48.74 0.074 7.82 13.28 9.52
10/17/2022 2:15:00 PM 9.31 48.758 0.075 7.82 11.53 9.7
10/17/2022 2:30:00 PM 9.3 48.74 0.074 7.82 12.82 9.71
10/17/2022 2:45:00 PM 9.31 48.758 0.072 7.82 12.44 9.24
10/17/2022 3:00:00 PM 9.34 48.812 0.073 7.82 13.28 9.6
10/17/2022 3:15:00 PM 9.36 48.848 0.071 7.81 18.09 9.56
10/17/2022 3:30:00 PM 9.35 48.83 0.072 7.81 15.9 9.9
10/17/2022 3:45:00 PM 9.34 48.812 0.071 7.81 20.63 9.84
10/17/2022 4:00:00 PM 9.31 48.758 0.071 7.8 14.17 9.86
10/17/2022 4:15:00 PM 9.28 48.704 0.072 7.8 14.72 9.99
10/17/2022 4:30:00 PM 9.24 48.632 0.071 7.8 17.8 9.42
10/17/2022 4:45:00 PM 9.18 48.524 0.072 7.79 12.5 8.58
10/17/2022 5:00:00 PM 9.12 48.416 0.069 7.78 13.07 8.96
10/17/2022 5:15:00 PM 9.07 48.326 0.069 7.78 15 9.58
10/17/2022 5:30:00 PM 9.01 48.218 0.067 7.77 19.81 9.51
10/17/2022 5:45:00 PM 8.93 48.074 0.068 7.77 20.71 9.18
10/17/2022 6:00:00 PM 8.87 47.966 0.074 7.77 19.33 9.23
10/17/2022 6:15:00 PM 8.8 47.84 0.072 7.76 19.52 9.57
10/17/2022 6:30:00 PM 8.71 47.678 0.073 7.75 21.06 9.22
10/17/2022 6:45:00 PM 8.63 47.534 0.071 7.75 15.25 8.92
10/17/2022 7:00:00 PM 8.56 47.408 0.069 7.74 15.1 9.3
10/17/2022 7:15:00 PM 8.51 47.318 0.068 7.74 21.19 9.51
10/17/2022 7:30:00 PM 8.46 47.228 0.069 7.73 16.58 9.41
10/17/2022 7:45:00 PM 8.4 47.12 0.068 7.74 11.36 9.02
10/17/2022 8:00:00 PM 8.35 47.03 0.068 7.73 13.9 9.22
10/17/2022 8:15:00 PM 8.3 46.94 0.068 7.73 15.02 9.61
10/17/2022 8:30:00 PM 8.23 46.814 0.068 7.73 15.43 9.53
10/17/2022 8:45:00 PM 8.15 46.67 0.068 7.73 13.18 9.48
10/17/2022 9:00:00 PM 8.08 46.544 0.069 7.73 13.89 9.97
10/17/2022 9:15:00 PM 8.02 46.436 0.069 7.73 12.29 9.76
10/17/2022 9:30:00 PM 7.94 46.292 0.068 7.73 15.24 10.23
10/17/2022 9:45:00 PM 7.86 46.148 0.07 7.73 12.46 10.49
10/17/2022 10:00:00 PM 7.8 46.04 0.071 7.72 13.61 9.92
10/17/2022 10:15:00 PM 7.73 45.914 0.07 7.72 14.67 9.69
10/17/2022 10:30:00 PM 7.65 45.77 0.071 7.72 15.47 9.94
10/17/2022 10:45:00 PM 7.57 45.626 0.073 7.72 15.67 10.41
10/17/2022 11:00:00 PM 7.5 45.5 0.07 7.72 14.41 10.33
10/17/2022 11:15:00 PM 7.42 45.356 0.07 7.72 14.52 10.71
10/17/2022 11:30:00 PM 7.36 45.248 0.071 7.72 12.61 10.68
10/17/2022 11:45:00 PM 7.29 45.122 0.07 7.72 12.7 10.79
10/18/2022 12:00:00 AM 7.21 44.978 0.07 7.72 12.59 10.75
10/18/2022 12:15:00 AM 7.14 44.852 0.07 7.72 12.65 10.75
10/18/2022 12:30:00 AM 7.07 44.726 0.07 7.72 12.79 10.67
10/18/2022 12:45:00 AM 7 44.6 0.071 7.71 24.59 10.71
10/18/2022 1:00:00 AM 6.94 44.492 0.07 7.7 13.46 10.96
10/18/2022 1:15:00 AM 6.88 44.384 0.071 7.69 14 10.87
10/18/2022 1:30:00 AM 6.82 44.276 0.071 7.69 14.55 10.89
10/18/2022 1:45:00 AM 6.75 44.15 0.071 7.69 17.02 10.7
10/18/2022 2:00:00 AM 6.69 44.042 0.071 7.68 17.03 10.91
10/18/2022 2:15:00 AM 6.63 43.934 0.07 7.68 16.24 10.93
10/18/2022 2:30:00 AM 6.59 43.862 0.07 7.68 12.85 11.03
10/18/2022 2:45:00 AM 6.53 43.754 0.071 7.68 18.56 10.93
10/18/2022 3:00:00 AM 6.47 43.646 0.089 7.68 2767.45 10.94
10/18/2022 3:15:00 AM 6.44 43.592 0.084 7.7 2987.51 11.04
10/18/2022 3:30:00 AM 6.38 43.484 0.054 7.7 2018.55 10.18
10/18/2022 3:45:00 AM 6.33 43.394 0.052 7.68 1338.71 9.73
10/18/2022 4:00:00 AM 6.27 43.286 0.055 7.68 133.69 9.43
10/18/2022 4:15:00 AM 6.21 43.178 0.055 7.68 46.44 9.23
10/18/2022 4:30:00 AM 6.17 43.106 0.054 7.68 19.22 9.71
10/18/2022 4:45:00 AM 6.11 42.998 0.053 7.68 26.5 9.62
10/18/2022 5:00:00 AM 6.06 42.908 0.052 7.68 14.92 9.85
10/18/2022 5:15:00 AM 6.02 42.836 0.05 7.69 15.48 9.61
10/18/2022 5:30:00 AM 5.97 42.746 0.051 7.69 14.62 9.76
10/18/2022 5:45:00 AM 5.91 42.638 0.05 7.69 15.97 9.89
10/18/2022 6:00:00 AM 5.86 42.548 0.05 7.69 16.65 9.94
10/18/2022 6:15:00 AM 5.83 42.494 0.05 7.68 18.27 10
10/18/2022 6:30:00 AM 5.78 42.404 0.051 7.69 17.43 9.5
10/18/2022 6:45:00 AM 5.73 42.314 0.05 7.69 17.75 8.85
10/18/2022 7:00:00 AM 5.7 42.26 0.049 7.69 18.97 9.23
10/18/2022 7:15:00 AM 5.67 42.206 0.051 7.7 14.19 9.35
10/18/2022 7:30:00 AM 5.67 42.206 0.05 7.7 12.57 9.31
10/18/2022 7:45:00 AM 5.68 42.224 0.05 7.71 12.41 9.69
10/18/2022 8:00:00 AM 5.71 42.278 0.051 7.72 11.82 10.23
10/18/2022 8:15:00 AM 5.76 42.368 0.053 7.74 11.48 10.57
10/18/2022 8:30:00 AM 5.81 42.458 0.058 7.75 11.55 10.1
10/18/2022 8:45:00 AM 5.88 42.584 0.091 7.75 82.25 11.14
10/18/2022 9:00:00 AM 5.95 42.71 0.08 7.77 331.75 10.13
10/18/2022 9:15:00 AM 6.01 42.818 0.083 7.77 19.98 10.15
10/18/2022 9:30:00 AM 6.07 42.926 0.082 7.78 17.01 10.3
10/18/2022 9:45:00 AM 6.13 43.034 0.08 7.78 16.39 10.16
10/18/2022 10:00:00 AM 6.19 43.142 0.074 7.78 20.11 9.83
10/18/2022 10:15:00 AM 6.24 43.232 0.078 7.78 14.69 9.84
10/18/2022 10:30:00 AM 6.3 43.34 0.075 7.79 14.69 10.11
10/18/2022 10:45:00 AM 6.39 43.502 0.073 7.79 13.86 10.16
10/18/2022 11:00:00 AM 6.46 43.628 0.072 7.8 13.85 10.42
10/18/2022 11:15:00 AM 6.52 43.736 0.069 7.8 13.77 10.32
10/18/2022 11:30:00 AM 6.6 43.88 0.071 7.8 14.19 10.32
10/18/2022 11:45:00 AM 6.66 43.988 0.072 7.8 14.56 10.24
10/18/2022 12:00:00 PM 6.74 44.132 0.073 7.81 15.2 10.07
10/18/2022 12:15:00 PM 6.82 44.276 0.081 7.8 23.71 10.33
10/18/2022 12:30:00 PM 6.85 44.33 0.081 7.81 19.39 10.48
10/18/2022 12:45:00 PM 6.9 44.42 0.081 7.81 16.69 9.15
10/18/2022 1:00:00 PM 6.96 44.528 0.079 7.81 17.42 8.88
10/18/2022 1:15:00 PM 7.02 44.636 0.073 7.81 16.74 8.65
10/18/2022 1:30:00 PM 7.07 44.726 0.073 7.81 16.52 8.43
10/18/2022 1:45:00 PM 7.11 44.798 0.073 7.81 15.57 8.23
10/18/2022 2:00:00 PM 7.15 44.87 0.085 7.81 14.79 8.3
10/18/2022 2:15:00 PM 7.15 44.87 0.086 7.8 16.48 8.55
10/18/2022 2:30:00 PM 7.21 44.978 0.091 7.8 15.3 8.61
10/18/2022 2:45:00 PM 7.23 45.014 0.054 7.8 578.91 10.41
10/18/2022 3:00:00 PM 7.28 45.104 0.053 7.81 34 9.72
10/18/2022 3:15:00 PM 7.34 45.212 0.053 7.81 21.97 9.06
10/18/2022 3:30:00 PM 7.35 45.23 0.057 7.81 22.36 9.04
10/18/2022 3:45:00 PM 7.32 45.176 0.068 7.8 16.65 8.83
10/18/2022 4:00:00 PM 7.3 45.14 0.073 7.79 13.57 9.07
10/18/2022 4:15:00 PM 7.25 45.05 0.076 7.79 26.99 9.85
10/18/2022 4:30:00 PM 7.21 44.978 0.086 7.78 17.1 9.4
10/18/2022 4:45:00 PM 7.21 44.978 0.087 7.79 15.95 8.9
10/18/2022 5:00:00 PM 7.19 44.942 0.088 7.78 14.55 8.89
10/18/2022 5:15:00 PM 7.16 44.888 0.09 7.78 14.27 8.99
10/18/2022 5:30:00 PM 7.13 44.834 0.09 7.78 13.73 8.9
10/18/2022 5:45:00 PM 7.08 44.744 0.09 7.77 15.88 9.17
10/18/2022 6:00:00 PM 7.04 44.672 0.09 7.77 15.17 9.13
10/18/2022 6:15:00 PM 7.01 44.618 0.068 7.76 35.31 10.47
10/18/2022 6:30:00 PM 6.98 44.564 0.069 7.76 26.76 10.27
10/18/2022 6:45:00 PM 6.94 44.492 0.068 7.75 17.79 9.88
10/18/2022 7:00:00 PM 6.92 44.456 0.071 7.75 15.81 9.71
10/18/2022 7:15:00 PM 6.9 44.42 0.072 7.75 15.31 9.62
10/18/2022 7:30:00 PM 6.87 44.366 0.072 7.75 13.47 9.73
10/18/2022 7:45:00 PM 6.84 44.312 0.089 7.74 28.05 10.68
10/18/2022 8:00:00 PM 6.82 44.276 0.088 7.74 18.86 10.39
10/18/2022 8:15:00 PM 6.8 44.24 0.086 7.74 18.23 10.25
10/18/2022 8:30:00 PM 6.77 44.186 0.085 7.74 16.46 9.99
10/18/2022 8:45:00 PM 6.74 44.132 0.08 7.74 15.33 10.14
10/18/2022 9:00:00 PM 6.71 44.078 0.077 7.74 13.93 9.97
10/18/2022 9:15:00 PM 6.68 44.024 0.076 7.74 14.76 9.88
10/18/2022 9:30:00 PM 6.64 43.952 0.076 7.74 15.53 9.89
10/18/2022 9:45:00 PM 6.58 43.844 0.075 7.74 13.98 9.77
10/18/2022 10:00:00 PM 6.53 43.754 0.074 7.74 14.05 9.83
10/18/2022 10:15:00 PM 6.47 43.646 0.073 7.74 14.79 9.76
10/18/2022 10:30:00 PM 6.41 43.538 0.072 7.73 15.32 9.57
10/18/2022 10:45:00 PM 6.35 43.43 0.065 7.74 12.07 9.41
10/18/2022 11:00:00 PM 6.29 43.322 0.064 7.73 19.29 9.46
10/18/2022 11:15:00 PM 6.24 43.232 0.062 7.73 27.85 9.57
10/18/2022 11:30:00 PM 6.19 43.142 0.06 7.73 11.52 10.02
10/18/2022 11:45:00 PM 6.15 43.07 0.056 7.73 12.91 10
10/19/2022 12:00:00 AM 6.1 42.98 0.056 7.73 11.21 10.68
10/19/2022 12:15:00 AM 6.05 42.89 0.056 7.73 12.82 10.93
10/19/2022 12:30:00 AM 6.03 42.854 0.053 7.73 14.92 11.05
10/19/2022 12:45:00 AM 6.01 42.818 0.053 7.73 11.84 10.95
10/19/2022 1:00:00 AM 6 42.8 0.052 7.73 11.52 10.45
10/19/2022 1:15:00 AM 5.99 42.782 0.053 7.73 12.66 10.24
10/19/2022 1:30:00 AM 5.98 42.764 0.052 7.73 11.29 9.57
10/19/2022 1:45:00 AM 5.98 42.764 0.052 7.73 11.29 9.63
10/19/2022 2:00:00 AM 5.98 42.764 0.053 7.73 11.19 9.86
10/19/2022 2:15:00 AM 5.98 42.764 0.053 7.73 11.29 10.08
10/19/2022 2:30:00 AM 5.99 42.782 0.053 7.73 11.06 10.06
10/19/2022 2:45:00 AM 5.99 42.782 0.055 7.73 12.55 10.42
10/19/2022 3:00:00 AM 6 42.8 0.056 7.73 12.05 10.45
10/19/2022 3:15:00 AM 6.01 42.818 0.092 7.72 1913.4 10.76
10/19/2022 3:30:00 AM 6.01 42.818 0.089 7.73 27.03 10.22
10/19/2022 3:45:00 AM 6.02 42.836 0.089 7.73 42.3 9.95
10/19/2022 4:00:00 AM 6.02 42.836 0.089 7.73 260.3 9.49
10/19/2022 4:15:00 AM 6.03 42.854 0.089 7.73 57.41 8.79
10/19/2022 4:30:00 AM 6.03 42.854 0.089 7.73 178.7 8.77
10/19/2022 4:45:00 AM 6.03 42.854 0.089 7.73 19.82 8.82
10/19/2022 5:00:00 AM 6.03 42.854 0.086 7.73 18 9.02
10/19/2022 5:15:00 AM 6.03 42.854 0.084 7.74 18.69 9.2
10/19/2022 5:30:00 AM 6.01 42.818 0.083 7.74 19.37 9.03
10/19/2022 5:45:00 AM 6 42.8 0.084 7.74 18.44 8.86
10/19/2022 6:00:00 AM 5.99 42.782 0.084 7.74 18.25 8.94
10/19/2022 6:15:00 AM 5.97 42.746 0.084 7.74 18.8 9.16
10/19/2022 6:30:00 AM 5.95 42.71 0.083 7.74 18.27 8.94
10/19/2022 6:45:00 AM 5.93 42.674 0.084 7.74 18.03 9.13
10/19/2022 7:00:00 AM 5.91 42.638 0.084 7.74 18.14 8.92
10/19/2022 7:15:00 AM 5.89 42.602 0.083 7.74 17.97 8.69
10/19/2022 7:30:00 AM 5.89 42.602 0.082 7.74 17.96 8.99
10/19/2022 7:45:00 AM 5.88 42.584 0.083 7.74 17.76 9.35
10/19/2022 8:00:00 AM 5.88 42.584 0.083 7.74 17.81 9.67
10/19/2022 8:15:00 AM 5.87 42.566 0.083 7.75 17.92 9.62
10/19/2022 8:30:00 AM 5.9 42.62 0.082 7.76 18.65 9.65
10/19/2022 8:45:00 AM 5.96 42.728 0.082 7.76 18.26 9.83
10/19/2022 9:00:00 AM 5.99 42.782 0.082 7.77 17.85 9.88
10/19/2022 9:15:00 AM 6.02 42.836 0.082 7.77 17.8 10.06
10/19/2022 9:30:00 AM 6.06 42.908 0.081 7.78 17.74 10.03
10/19/2022 9:45:00 AM 6.12 43.016 0.081 7.78 17.93 10.03
10/19/2022 10:00:00 AM 6.19 43.142 0.081 7.78 17.73 10.07
10/19/2022 10:15:00 AM 6.26 43.268 0.081 7.79 17.54 10.01
10/19/2022 10:30:00 AM 6.29 43.322 0.081 7.79 17.38 10.05
10/19/2022 10:45:00 AM 6.29 43.322 0.08 7.78 17.38 9.95
10/19/2022 11:00:00 AM 6.36 43.448 0.08 7.79 17.54 10
10/19/2022 11:15:00 AM 6.42 43.556 0.08 7.79 17.54 10.02
10/19/2022 11:30:00 AM 6.48 43.664 0.08 7.79 17.43 9.99
10/19/2022 11:45:00 AM 6.53 43.754 0.08 7.79 17.35 9.95
10/19/2022 12:00:00 PM 6.62 43.916 0.079 7.8 17.5 9.95
10/19/2022 12:15:00 PM 6.65 43.97 0.079 7.8 17.57 9.91
10/19/2022 12:30:00 PM 6.72 44.096 0.079 7.8 17.6 9.8
10/19/2022 12:45:00 PM 6.76 44.168 0.079 7.8 17.53 9.68
10/19/2022 1:00:00 PM 6.81 44.258 0.078 7.8 17.74 9.64
10/19/2022 1:15:00 PM 6.85 44.33 0.078 7.8 17.96 9.95
10/19/2022 1:30:00 PM 6.87 44.366 0.078 7.8 17.99 10.23
10/19/2022 1:45:00 PM 6.92 44.456 0.078 7.8 17.81 10.19
10/19/2022 2:00:00 PM 6.96 44.528 0.078 7.8 18.03 10.2
10/19/2022 2:15:00 PM 6.98 44.564 0.077 7.8 16.99 10.28
10/19/2022 2:30:00 PM 7.01 44.618 0.076 7.8 16.9 10.37
10/19/2022 2:45:00 PM 7.02 44.636 0.078 7.8 16.93 10.36
10/19/2022 3:00:00 PM 7.05 44.69 0.078 7.8 17.07 10.34
10/19/2022 3:15:00 PM 7.05 44.69 0.077 7.8 17.18 10.32
10/19/2022 3:30:00 PM 7.06 44.708 0.076 7.8 17.02 10.2
10/19/2022 3:45:00 PM 7.08 44.744 0.076 7.8 17.21 10.14
10/19/2022 4:00:00 PM 7.1 44.78 0.079 7.8 17.35 10.07
10/19/2022 4:15:00 PM 7.08 44.744 0.074 7.8 17.97 10.02
10/19/2022 4:30:00 PM 7.08 44.744 0.072 7.8 19.26 9.86
10/19/2022 4:45:00 PM 7.06 44.708 0.069 7.79 18.38 9.88
10/19/2022 5:00:00 PM 7.04 44.672 0.07 7.79 17.97 9.76
10/19/2022 5:15:00 PM 6.99 44.582 0.071 7.79 19.51 9.69
10/19/2022 5:30:00 PM 6.95 44.51 0.072 7.78 18.82 9.55
10/19/2022 5:45:00 PM 6.91 44.438 0.074 7.78 19.6 9.74
10/19/2022 6:00:00 PM 6.87 44.366 0.072 7.77 18.02 9.79
10/19/2022 6:15:00 PM 6.83 44.294 0.072 7.76 15.55 9.54
10/19/2022 6:30:00 PM 6.8 44.24 0.073 7.76 15.68 9.25
10/19/2022 6:45:00 PM 6.76 44.168 0.072 7.75 14.83 9.57
10/19/2022 7:00:00 PM 6.72 44.096 0.074 7.75 13.81 9.45
10/19/2022 7:15:00 PM 6.69 44.042 0.074 7.75 13.53 9.18
10/19/2022 7:30:00 PM 6.66 43.988 0.074 7.75 13.74 8.93
10/19/2022 7:45:00 PM 6.63 43.934 0.073 7.75 13.49 8.84
10/19/2022 8:00:00 PM 6.6 43.88 0.071 7.75 13.55 8.78
10/19/2022 8:15:00 PM 6.58 43.844 0.072 7.75 13.29 9.03
10/19/2022 8:30:00 PM 6.56 43.808 0.072 7.74 13.4 9.28
10/19/2022 8:45:00 PM 6.53 43.754 0.072 7.74 14.64 9.18
10/19/2022 9:00:00 PM 6.49 43.682 0.072 7.74 14.33 9.5
10/19/2022 9:15:00 PM 6.46 43.628 0.072 7.74 13.09 9.67
10/19/2022 9:30:00 PM 6.44 43.592 0.072 7.74 17.06 9.73
10/19/2022 9:45:00 PM 6.41 43.538 0.073 7.74 12.84 9.58
10/19/2022 10:00:00 PM 6.38 43.484 0.073 7.74 12.76 9.59
10/19/2022 10:15:00 PM 6.35 43.43 0.074 7.74 14.46 9.41
10/19/2022 10:30:00 PM 6.34 43.412 0.075 7.74 17.88 9
10/19/2022 10:45:00 PM 6.31 43.358 0.072 7.74 19.13 9.08
10/19/2022 11:00:00 PM 6.3 43.34 0.074 7.74 15.19 9.53
10/19/2022 11:15:00 PM 6.29 43.322 0.072 7.73 196.77 10.82
10/19/2022 11:30:00 PM 6.29 43.322 0.072 7.74 140.54 10.76
10/19/2022 11:45:00 PM 6.28 43.304 0.069 7.74 65 10.89
10/20/2022 12:00:00 AM 6.27 43.286 0.069 7.74 17.35 10.23
10/20/2022 12:15:00 AM 6.27 43.286 0.068 7.74 14.93 10.05
10/20/2022 12:30:00 AM 6.26 43.268 0.066 7.73 15.69 10.08
10/20/2022 12:45:00 AM 6.26 43.268 0.066 7.73 15.81 10.87
10/20/2022 1:00:00 AM 6.27 43.286 0.067 7.73 18.54 11.07
10/20/2022 1:15:00 AM 6.27 43.286 0.067 7.73 15.32 11.01
10/20/2022 1:30:00 AM 6.27 43.286 0.067 7.73 13.37 11.07
10/20/2022 1:45:00 AM 6.27 43.286 0.064 7.73 12.74 11.1
10/20/2022 2:00:00 AM 6.28 43.304 0.065 7.73 11.92 10.13
10/20/2022 2:15:00 AM 6.27 43.286 0.064 7.73 11.81 10.26
10/20/2022 2:30:00 AM 6.27 43.286 0.065 7.73 12.17 10.29
10/20/2022 2:45:00 AM 6.26 43.268 0.065 7.73 11.67 10.46
10/20/2022 3:00:00 AM 6.25 43.25 0.068 7.73 11.6 10.25
10/20/2022 3:15:00 AM 6.22 43.196 0.069 7.74 11.12 9.97
10/20/2022 3:30:00 AM 6.2 43.16 0.071 7.74 12.26 9.88
10/20/2022 3:45:00 AM 6.16 43.088 0.074 7.73 11.37 9.91
10/20/2022 4:00:00 AM 6.11 42.998 0.073 7.73 11.65 9.24
10/20/2022 4:15:00 AM 6.05 42.89 0.074 7.73 11.42 9.39
10/20/2022 4:30:00 AM 6.04 42.872 0.075 7.72 11.77 9.74
10/20/2022 4:45:00 AM 5.98 42.764 0.075 7.72 11.45 9.85
10/20/2022 5:00:00 AM 5.92 42.656 0.073 7.72 11.52 9.19
10/20/2022 5:15:00 AM 5.87 42.566 0.071 7.72 11.65 9.29
10/20/2022 5:30:00 AM 5.82 42.476 0.07 7.72 11.65 9.1
10/20/2022 5:45:00 AM 5.79 42.422 0.07 7.72 11.26 9.29
10/20/2022 6:00:00 AM 5.77 42.386 0.07 7.72 14.66 9.26
10/20/2022 6:15:00 AM 5.74 42.332 0.072 7.72 13.19 8.98
10/20/2022 6:30:00 AM 5.71 42.278 0.069 7.72 12.84 8.73
10/20/2022 6:45:00 AM 5.68 42.224 0.068 7.72 12.08 9.19
10/20/2022 7:00:00 AM 5.64 42.152 0.074 7.71 45.31 10.93
10/20/2022 7:15:00 AM 5.6 42.08 0.072 7.71 14.21 10.62
10/20/2022 7:30:00 AM 5.57 42.026 0.071 7.71 14.03 10.43
10/20/2022 7:45:00 AM 5.55 41.99 0.069 7.7 12.92 10.25
10/20/2022 8:00:00 AM 5.53 41.954 0.067 7.7 12.96 10.17
10/20/2022 8:15:00 AM 5.53 41.954 0.07 7.71 16.57 10.07
10/20/2022 8:30:00 AM 5.53 41.954 0.075 7.71 16.32 9.85
10/20/2022 8:45:00 AM 5.52 41.936 0.075 7.72 20.98 10.13
10/20/2022 9:00:00 AM 5.51 41.918 0.085 7.72 10.8 10.92
10/20/2022 9:15:00 AM 5.54 41.972 0.082 7.72 10.72 11.28
10/20/2022 9:30:00 AM 5.6 42.08 0.083 7.74 12.62 11.4
10/20/2022 9:45:00 AM 5.62 42.116 0.081 7.74 11.69 11.38
10/20/2022 10:00:00 AM 5.66 42.188 0.083 7.74 25.84 11.32
10/20/2022 10:15:00 AM 5.75 42.35 0.077 7.75 10.33 11.01
10/20/2022 10:30:00 AM 5.82 42.476 0.078 7.74 11.69 10.83
10/20/2022 10:45:00 AM 5.88 42.584 0.067 7.76 11.27 10.8
10/20/2022 11:00:00 AM 5.95 42.71 0.066 7.77 15.61 10.83
10/20/2022 11:15:00 AM 6.04 42.872 0.066 7.77 17.2 10.75
10/20/2022 11:30:00 AM 6.11 42.998 0.067 7.78 16.71 10.68
10/20/2022 11:45:00 AM 6.13 43.034 0.065 7.78 12.48 10.47
10/20/2022 12:00:00 PM 6.18 43.124 0.065 7.78 14.3 10.66
10/20/2022 12:15:00 PM 6.24 43.232 0.065 7.78 10.76 10.67
10/20/2022 12:30:00 PM 6.3 43.34 0.063 7.79 11.23 10.79
10/20/2022 12:45:00 PM 6.33 43.394 0.063 7.79 10.96 10.93
10/20/2022 1:00:00 PM 6.37 43.466 0.061 7.79 10.9 10.71
10/20/2022 1:15:00 PM 6.4 43.52 0.062 7.79 11.12 10.41
10/20/2022 1:30:00 PM 6.44 43.592 0.066 7.79 11.5 10.2
10/20/2022 1:45:00 PM 6.49 43.682 0.068 7.79 11.4 10.06
10/20/2022 2:00:00 PM 6.53 43.754 0.065 7.79 11.65 10.43
10/20/2022 2:15:00 PM 6.57 43.826 0.066 7.79 10.81 10.51
10/20/2022 2:30:00 PM 6.61 43.898 0.08 7.79 11.99 10.63
10/20/2022 2:45:00 PM 6.64 43.952 0.077 7.79 11.38 10.91
10/20/2022 3:00:00 PM 6.67 44.006 0.076 7.79 10.52 10.93
10/20/2022 3:15:00 PM 6.68 44.024 0.075 7.79 13.06 10.79
10/20/2022 3:30:00 PM 6.71 44.078 0.074 7.79 11.39 10.85
10/20/2022 3:45:00 PM 6.73 44.114 0.074 7.79 10.46 10.76
10/20/2022 4:00:00 PM 6.74 44.132 0.075 7.78 11.35 10.61
10/20/2022 4:15:00 PM 6.73 44.114 0.073 7.79 10.83 10.44
10/20/2022 4:30:00 PM 6.73 44.114 0.075 7.78 14.37 10.2
10/20/2022 4:45:00 PM 6.74 44.132 0.065 7.78 209.96 10.88
10/20/2022 5:00:00 PM 6.75 44.15 0.066 7.78 15.36 11.04
10/20/2022 5:15:00 PM 6.75 44.15 0.074 7.78 13.51 10.01
10/20/2022 5:30:00 PM 6.74 44.132 0.066 7.77 12.78 11.05
10/20/2022 5:45:00 PM 6.71 44.078 0.065 7.77 11.22 10.12
10/20/2022 6:00:00 PM 6.69 44.042 0.065 7.76 11.35 10.58
10/20/2022 6:15:00 PM 6.66 43.988 0.066 7.75 12.46 10.77
10/20/2022 6:30:00 PM 6.64 43.952 0.065 7.75 11.79 10.83
10/20/2022 6:45:00 PM 6.61 43.898 0.063 7.75 12.56 10.73
10/20/2022 7:00:00 PM 6.59 43.862 0.062 7.74 11.84 10.72
10/20/2022 7:15:00 PM 6.56 43.808 0.079 7.73 15.26 11.06
10/20/2022 7:30:00 PM 6.53 43.754 0.079 7.73 15.44 10.39
10/20/2022 7:45:00 PM 6.49 43.682 0.08 7.73 14.96 9.62
10/20/2022 8:00:00 PM 6.46 43.628 0.08 7.73 15.16 10.18
10/20/2022 8:15:00 PM 6.43 43.574 0.08 7.73 14.91 10.22
10/20/2022 8:30:00 PM 6.41 43.538 0.08 7.72 16.11 10.58
10/20/2022 8:45:00 PM 6.4 43.52 0.081 7.73 16.62 10.93
10/20/2022 9:00:00 PM 6.38 43.484 0.082 7.72 15.75 9.86
10/20/2022 9:15:00 PM 6.37 43.466 0.082 7.72 14.41 9.63
10/20/2022 9:30:00 PM 6.35 43.43 0.08 7.73 14.06 10.37
10/20/2022 9:45:00 PM 6.33 43.394 0.08 7.73 13.99 9.38
10/20/2022 10:00:00 PM 6.33 43.394 0.074 7.73 13.13 10.5
10/20/2022 10:15:00 PM 6.32 43.376 0.075 7.73 12.61 9.74
10/20/2022 10:30:00 PM 6.32 43.376 0.078 7.73 12.45 9.69
10/20/2022 10:45:00 PM 6.31 43.358 0.078 7.73 12.53 9.55
10/20/2022 11:00:00 PM 6.29 43.322 0.079 7.73 15.71 9.95
10/20/2022 11:15:00 PM 6.27 43.286 0.08 7.73 14.35 10.3
10/20/2022 11:30:00 PM 6.25 43.25 0.08 7.73 14.81 10.61
10/20/2022 11:45:00 PM 6.23 43.214 0.078 7.72 15.24 10.95
10/21/2022 12:00:00 AM 6.2 43.16 0.078 7.73 15.86 10.98
10/21/2022 12:15:00 AM 6.15 43.07 0.079 7.73 15.44 11.1
10/21/2022 12:30:00 AM 6.09 42.962 0.079 7.73 15.49 10.98
10/21/2022 12:45:00 AM 6.02 42.836 0.079 7.73 16.44 11.11
10/21/2022 1:00:00 AM 5.96 42.728 0.076 7.73 71.94 11.35
10/21/2022 1:15:00 AM 5.89 42.602 0.072 7.73 2096.15 11.11
10/21/2022 1:30:00 AM 5.83 42.494 0.073 7.72 17.97 11.23
10/21/2022 1:45:00 AM 5.77 42.386 0.073 7.72 63.2 11.2
10/21/2022 2:00:00 AM 5.7 42.26 0.074 7.72 28.81 11.21
10/21/2022 2:15:00 AM 5.63 42.134 0.078 7.72 14.34 11.12
10/21/2022 2:30:00 AM 5.56 42.008 0.083 7.72 32.83 11.34
10/21/2022 2:45:00 AM 5.5 41.9 0.078 7.72 17.84 11.22
10/21/2022 3:00:00 AM 5.44 41.792 0.07 7.72 13.3 11.09
10/21/2022 3:15:00 AM 5.37 41.666 0.077 7.71 20.46 10.72
10/21/2022 3:30:00 AM 5.3 41.54 0.076 7.71 17.56 10.97
10/21/2022 3:45:00 AM 5.24 41.432 0.075 7.71 15.82 11.22
10/21/2022 4:00:00 AM 5.17 41.306 0.077 7.7 14.2 11.07
10/21/2022 4:15:00 AM 5.1 41.18 0.082 7.69 80.68 11.56
10/21/2022 4:30:00 AM 5.05 41.09 0.08 7.69 12.94 11.42
10/21/2022 4:45:00 AM 4.98 40.964 0.077 7.69 4024.77 11.19
10/21/2022 5:00:00 AM 4.92 40.856 0.078 7.68 11.3 11.29
10/21/2022 5:15:00 AM 4.86 40.748 0.076 7.68 12.95 11.12
10/21/2022 5:30:00 AM 4.81 40.658 0.068 7.68 20.17 11.61
10/21/2022 5:45:00 AM 4.77 40.586 0.066 7.67 5.18 11.88
10/21/2022 6:00:00 AM 4.7 40.46 0.066 7.67 93.74 11.18
10/21/2022 6:15:00 AM 4.64 40.352 0.066 7.67 113.22 11.13
10/21/2022 6:30:00 AM 4.59 40.262 0.07 7.66 20.17 11.03
10/21/2022 6:45:00 AM 4.53 40.154 0.071 7.66 58.47 11.4
10/21/2022 7:00:00 AM 4.48 40.064 0.073 7.66 90.78 11.53
10/21/2022 7:15:00 AM 4.44 39.992 0.075 7.67 151.28 11.43
10/21/2022 7:30:00 AM 4.4 39.92 0.076 7.67 114.94 11.32
10/21/2022 7:45:00 AM 4.36 39.848 0.075 7.67 32.2 11.28
10/21/2022 8:00:00 AM 4.32 39.776 0.076 7.69 1180.15 11.32
10/21/2022 8:15:00 AM 4.31 39.758 0.076 7.7 1794.71 11.2
10/21/2022 8:30:00 AM 4.31 39.758 0.073 7.7 20.57 11.37
10/21/2022 8:45:00 AM 4.35 39.83 0.075 7.71 15.62 11.32
10/21/2022 9:00:00 AM 4.39 39.902 0.073 7.72 15.04 11.25
10/21/2022 9:15:00 AM 4.45 40.01 0.073 7.73 14.68 11.34
10/21/2022 9:30:00 AM 4.52 40.136 0.072 7.73 14.34 11.52
10/21/2022 9:45:00 AM 4.61 40.298 0.071 7.74 14.51 11.51
10/21/2022 10:00:00 AM 4.71 40.478 0.071 7.75 15.04 11.53
10/21/2022 10:15:00 AM 4.81 40.658 0.07 7.76 15.17 11.62
10/21/2022 10:30:00 AM 4.95 40.91 0.072 7.76 14.59 11.46
10/21/2022 10:45:00 AM 5.09 41.162 0.072 7.77 14.32 11.55
10/21/2022 11:00:00 AM 5.21 41.378 0.073 7.77 14.06 11.45
10/21/2022 11:15:00 AM 5.32 41.576 0.073 7.77 13.96 11.32
10/21/2022 11:30:00 AM 5.43 41.774 0.073 7.77 13.54 11.15
10/21/2022 11:45:00 AM 5.54 41.972 0.073 7.77 13.75 11.18
10/21/2022 12:00:00 PM 5.64 42.152 0.073 7.77 13.25 11.09
10/21/2022 12:15:00 PM 5.73 42.314 0.074 7.77 13.35 10.86
10/21/2022 12:30:00 PM 5.83 42.494 0.075 7.77 13.53 10.66
10/21/2022 12:45:00 PM 5.91 42.638 0.075 7.77 13.57 10.58
10/21/2022 1:00:00 PM 5.99 42.782 0.074 7.77 13.28 10.31
10/21/2022 1:15:00 PM 6.08 42.944 0.074 7.77 13.23 10.46
10/21/2022 1:30:00 PM 6.16 43.088 0.074 7.77 13.84 10.36
10/21/2022 1:45:00 PM 6.25 43.25 0.074 7.77 12.97 10.27
10/21/2022 2:00:00 PM 6.34 43.412 0.074 7.77 13.09 10.41
10/21/2022 2:15:00 PM 6.42 43.556 0.076 7.77 13.01 10.38
10/21/2022 2:30:00 PM 6.49 43.682 0.075 7.77 13.37 10.27
10/21/2022 2:45:00 PM 6.54 43.772 0.075 7.77 13.05 10.26
10/21/2022 3:00:00 PM 6.59 43.862 0.075 7.77 13.1 10.14
10/21/2022 3:15:00 PM 6.63 43.934 0.076 7.77 14.06 9.89
10/21/2022 3:30:00 PM 6.67 44.006 0.075 7.77 13.24 10.03
10/21/2022 3:45:00 PM 6.72 44.096 0.075 7.76 13.37 10.15
10/21/2022 4:00:00 PM 6.75 44.15 0.075 7.76 13.45 10.26
10/21/2022 4:15:00 PM 6.77 44.186 0.074 7.76 13.76 10.19
10/21/2022 4:30:00 PM 6.79 44.222 0.074 7.76 13.71 10.22
10/21/2022 4:45:00 PM 6.8 44.24 0.074 7.76 13.68 10.03
10/21/2022 5:00:00 PM 6.81 44.258 0.074 7.75 13.64 10.12
10/21/2022 5:15:00 PM 6.81 44.258 0.073 7.75 13.96 10.04
10/21/2022 5:30:00 PM 6.8 44.24 0.074 7.75 14.1 10.14
10/21/2022 5:45:00 PM 6.78 44.204 0.074 7.74 14.01 10.12
10/21/2022 6:00:00 PM 6.75 44.15 0.074 7.74 14.43 10.15
10/21/2022 6:15:00 PM 6.72 44.096 0.074 7.74 14.43 10.1
10/21/2022 6:30:00 PM 6.69 44.042 0.074 7.73 14.31 10.03
10/21/2022 6:45:00 PM 6.65 43.97 0.074 7.73 14.53 10.07
10/21/2022 7:00:00 PM 6.61 43.898 0.073 7.73 14.13 10.25
10/21/2022 7:15:00 PM 6.57 43.826 0.074 7.72 14.68 10.41
10/21/2022 7:30:00 PM 6.53 43.754 0.075 7.72 14.11 10.49
10/21/2022 7:45:00 PM 6.49 43.682 0.075 7.72 14.76 10.69
10/21/2022 8:00:00 PM 6.45 43.61 0.074 7.72 14.49 10.84
10/21/2022 8:15:00 PM 6.42 43.556 0.074 7.72 14.13 10.77
10/21/2022 8:30:00 PM 6.38 43.484 0.073 7.72 14.77 10.79
10/21/2022 8:45:00 PM 6.34 43.412 0.074 7.72 14.77 10.82
10/21/2022 9:00:00 PM 6.29 43.322 0.073 7.72 14.67 10.87
10/21/2022 9:15:00 PM 6.25 43.25 0.073 7.72 14.61 10.87
10/21/2022 9:30:00 PM 6.22 43.196 0.072 7.72 13.91 10.98
10/21/2022 9:45:00 PM 6.18 43.124 0.073 7.72 13.91 11.03
10/21/2022 10:00:00 PM 6.14 43.052 0.072 7.71 13.93 11.03
10/21/2022 10:15:00 PM 6.1 42.98 0.072 7.71 13.7 11.08
10/21/2022 10:30:00 PM 6.07 42.926 0.072 7.71 13.37 11.13
10/21/2022 10:45:00 PM 6.03 42.854 0.073 7.71 13.93 11.22
10/21/2022 11:00:00 PM 6.01 42.818 0.073 7.71 13.88 11.17
10/21/2022 11:15:00 PM 5.98 42.764 0.074 7.71 14.09 11.35
10/21/2022 11:30:00 PM 5.95 42.71 0.073 7.71 13.63 11.32
10/21/2022 11:45:00 PM 5.9 42.62 0.073 7.7 13.89 11.44
10/22/2022 12:00:00 AM 5.86 42.548 0.073 7.7 13.74 11.45
10/22/2022 12:15:00 AM 5.82 42.476 0.073 7.7 14.26 11.45
10/22/2022 12:30:00 AM 5.79 42.422 0.071 7.7 13.88 11.5
10/22/2022 12:45:00 AM 5.76 42.368 0.071 7.7 14.05 11.5
10/22/2022 1:00:00 AM 5.73 42.314 0.071 7.7 13.95 11.46
10/22/2022 1:15:00 AM 5.72 42.296 0.071 7.7 13.89 11.44
10/22/2022 1:30:00 AM 5.69 42.242 0.072 7.7 13.75 11.42
10/22/2022 1:45:00 AM 5.66 42.188 0.071 7.7 13.84 11.41
10/22/2022 2:00:00 AM 5.62 42.116 0.072 7.7 13.76 11.4
10/22/2022 2:15:00 AM 5.58 42.044 0.072 7.7 13.49 11.48
10/22/2022 2:30:00 AM 5.54 41.972 0.072 7.7 13.2 11.55
10/22/2022 2:45:00 AM 5.51 41.918 0.072 7.7 13.62 11.43
10/22/2022 3:00:00 AM 5.46 41.828 0.086 7.68 13.49 11.5
10/22/2022 3:15:00 AM 5.42 41.756 0.092 7.68 13.32 11.52
10/22/2022 3:30:00 AM 5.39 41.702 0.085 7.69 13.25 11.58
10/22/2022 3:45:00 AM 5.35 41.63 0.097 7.67 12.75 11.67
10/22/2022 4:00:00 AM 5.31 41.558 0.151 7.64 12.74 11.71
10/22/2022 4:15:00 AM 5.28 41.504 0.148 7.66 12.93 11.7
10/22/2022 4:30:00 AM 5.24 41.432 0.122 7.68 12.83 11.63
10/22/2022 4:45:00 AM 5.21 41.378 0.1 7.7 13.11 11.63
10/22/2022 5:00:00 AM 5.17 41.306 0.088 7.7 13.18 11.61
10/22/2022 5:15:00 AM 5.14 41.252 0.081 7.7 13.1 11.78
10/22/2022 5:30:00 AM 5.11 41.198 0.08 7.7 13.19 11.76
10/22/2022 5:45:00 AM 5.08 41.144 0.077 7.7 13.34 11.82
10/22/2022 6:00:00 AM 5.04 41.072 0.075 7.7 13.36 11.79
10/22/2022 6:15:00 AM 5.01 41.018 0.073 7.7 15.09 11.78
10/22/2022 6:30:00 AM 4.98 40.964 0.072 7.7 12.16 11.82
10/22/2022 6:45:00 AM 4.94 40.892 0.072 7.7 12.66 11.83
10/22/2022 7:00:00 AM 4.91 40.838 0.07 7.7 13.04 11.81
10/22/2022 7:15:00 AM 4.88 40.784 0.07 7.69 16.18 11.76
10/22/2022 7:30:00 AM 4.84 40.712 0.069 7.7 16.07 11.8
10/22/2022 7:45:00 AM 4.81 40.658 0.069 7.69 16.13 11.79
10/22/2022 8:00:00 AM 4.79 40.622 0.068 7.7 16.57 11.92
10/22/2022 8:15:00 AM 4.79 40.622 0.068 7.7 16 11.86
10/22/2022 8:30:00 AM 4.79 40.622 0.068 7.7 16.04 11.91
10/22/2022 8:45:00 AM 4.82 40.676 0.07 7.71 15.78 11.93
10/22/2022 9:00:00 AM 4.87 40.766 0.067 7.71 15.95 11.94
10/22/2022 9:15:00 AM 4.94 40.892 0.067 7.71 15.72 11.96
10/22/2022 9:30:00 AM 5.02 41.036 0.066 7.72 15.73 11.94
10/22/2022 9:45:00 AM 5.13 41.234 0.066 7.73 15.7 11.91
10/22/2022 10:00:00 AM 5.24 41.432 0.066 7.73 15.83 11.88
10/22/2022 10:15:00 AM 5.37 41.666 0.066 7.73 16.08 11.86
10/22/2022 10:30:00 AM 5.52 41.936 0.063 7.74 17.61 11.77
10/22/2022 10:45:00 AM 5.68 42.224 0.064 7.74 16.62 11.76
10/22/2022 11:00:00 AM 5.79 42.422 0.067 7.75 16.81 11.71
10/22/2022 11:15:00 AM 5.92 42.656 0.064 7.75 17.35 11.71
10/22/2022 11:30:00 AM 6.05 42.89 0.065 7.75 17.9 11.65
10/22/2022 11:45:00 AM 6.17 43.106 0.062 7.75 16.35 11.59
10/22/2022 12:00:00 PM 6.3 43.34 0.062 7.76 15.94 11.46
10/22/2022 12:15:00 PM 6.42 43.556 0.063 7.76 17.04 11.47
10/22/2022 12:30:00 PM 6.53 43.754 0.065 7.76 23.09 11.12
10/22/2022 12:45:00 PM 6.63 43.934 0.066 7.76 23.37 10.76
10/22/2022 1:00:00 PM 6.73 44.114 0.066 7.76 15.13 10.94
10/22/2022 1:15:00 PM 6.85 44.33 0.065 7.76 12.46 11.08
10/22/2022 1:30:00 PM 6.96 44.528 0.063 7.76 12.07 10.97
10/22/2022 1:45:00 PM 7.07 44.726 0.064 7.76 11.66 10.87
10/22/2022 2:00:00 PM 7.19 44.942 0.065 7.76 12.5 10.53
10/22/2022 2:15:00 PM 7.3 45.14 0.064 7.76 17.48 10.63
10/22/2022 2:30:00 PM 7.39 45.302 0.065 7.76 12.56 10.6
10/22/2022 2:45:00 PM 7.48 45.464 0.065 7.76 13.1 10.33
10/22/2022 3:00:00 PM 7.55 45.59 0.072 7.76 13.35 10.48
10/22/2022 3:15:00 PM 7.62 45.716 0.074 7.76 11.95 10.6
10/22/2022 3:30:00 PM 7.68 45.824 0.072 7.76 11.98 10.16
10/22/2022 3:45:00 PM 7.72 45.896 0.072 7.75 12.34 10.11
10/22/2022 4:00:00 PM 7.76 45.968 0.075 7.75 12.54 9.63
10/22/2022 4:15:00 PM 7.79 46.022 0.073 7.75 12.65 9.77
10/22/2022 4:30:00 PM 7.8 46.04 0.07 7.74 13.02 9.95
10/22/2022 4:45:00 PM 7.81 46.058 0.075 7.75 12.76 10.01
10/22/2022 5:00:00 PM 7.81 46.058 0.08 7.74 13.46 9.8
10/22/2022 5:15:00 PM 7.8 46.04 0.078 7.74 12.66 10.12
10/22/2022 5:30:00 PM 7.8 46.04 0.092 7.74 4481.75 10.25
10/22/2022 5:45:00 PM 7.78 46.004 0.092 7.74 2788.78 10.38
10/22/2022 6:00:00 PM 7.76 45.968 0.093 7.73 254.45 10.39
10/22/2022 6:15:00 PM 7.73 45.914 0.088 7.73 344.4 10.4
10/22/2022 6:30:00 PM 7.7 45.86 0.093 7.72 14.93 10.58
10/22/2022 6:45:00 PM 7.67 45.806 0.092 7.72 13.3 10.33
10/22/2022 7:00:00 PM 7.63 45.734 0.094 7.71 13.13 10.16
10/22/2022 7:15:00 PM 7.6 45.68 0.093 7.71 13.6 9.99
10/22/2022 7:30:00 PM 7.56 45.608 0.092 7.71 13.06 10.09
10/22/2022 7:45:00 PM 7.52 45.536 0.093 7.71 12.88 10.15
10/22/2022 8:00:00 PM 7.49 45.482 0.089 7.71 13.68 10.36
10/22/2022 8:15:00 PM 7.45 45.41 0.086 7.71 13.47 10.4
10/22/2022 8:30:00 PM 7.41 45.338 0.087 7.71 13.07 10.41
10/22/2022 8:45:00 PM 7.38 45.284 0.085 7.71 13.28 10.3
10/22/2022 9:00:00 PM 7.34 45.212 0.087 7.71 13.53 9.89
10/22/2022 9:15:00 PM 7.3 45.14 0.087 7.71 12.8 9.99
10/22/2022 9:30:00 PM 7.26 45.068 0.084 7.71 12.98 9.78
10/22/2022 9:45:00 PM 7.22 44.996 0.085 7.71 12.98 9.96
10/22/2022 10:00:00 PM 7.18 44.924 0.085 7.71 12.63 10.26
10/22/2022 10:15:00 PM 7.14 44.852 0.084 7.71 12.72 10.43
10/22/2022 10:30:00 PM 7.1 44.78 0.081 7.7 12.99 10.36
10/22/2022 10:45:00 PM 7.06 44.708 0.08 7.7 13.11 10.21
10/22/2022 11:00:00 PM 7.02 44.636 0.08 7.7 13.05 10.27
10/22/2022 11:15:00 PM 6.98 44.564 0.079 7.7 14.16 10.2
10/22/2022 11:30:00 PM 6.93 44.474 0.08 7.7 13.72 10.17
10/22/2022 11:45:00 PM 6.89 44.402 0.079 7.7 13.48 10.4
10/23/2022 12:00:00 AM 6.85 44.33 0.077 7.7 13.86 10.39
10/23/2022 12:15:00 AM 6.81 44.258 0.077 7.7 13.41 10.24
10/23/2022 12:30:00 AM 6.77 44.186 0.076 7.69 13.15 10.49
10/23/2022 12:45:00 AM 6.73 44.114 0.077 7.7 13.4 10.71
10/23/2022 1:00:00 AM 6.69 44.042 0.078 7.7 12.48 11
10/23/2022 1:15:00 AM 6.65 43.97 0.075 7.7 12.58 11.07
10/23/2022 1:30:00 AM 6.6 43.88 0.079 7.69 13.35 11.16
10/23/2022 1:45:00 AM 6.55 43.79 0.08 7.69 12.63 11.14
10/23/2022 2:00:00 AM 6.51 43.718 0.081 7.69 12.35 11.06
10/23/2022 2:15:00 AM 6.47 43.646 0.08 7.69 12.25 11.19
10/23/2022 2:30:00 AM 6.43 43.574 0.08 7.69 12.61 11.25
10/23/2022 2:45:00 AM 6.39 43.502 0.081 7.69 12.22 11.27
10/23/2022 3:00:00 AM 6.34 43.412 0.08 7.69 12.27 11.33
10/23/2022 3:15:00 AM 6.3 43.34 0.08 7.69 12.54 11.38
10/23/2022 3:30:00 AM 6.25 43.25 0.079 7.69 12.35 11.41
10/23/2022 3:45:00 AM 6.22 43.196 0.073 7.69 12.31 11.44
10/23/2022 4:00:00 AM 6.18 43.124 0.076 7.69 12.41 11.44
10/23/2022 4:15:00 AM 6.13 43.034 0.077 7.69 12.89 11.43
10/23/2022 4:30:00 AM 6.09 42.962 0.079 7.69 13.14 11.44
10/23/2022 4:45:00 AM 6.04 42.872 0.079 7.68 12.84 11.46
10/23/2022 5:00:00 AM 6 42.8 0.078 7.68 12.62 11.55
10/23/2022 5:15:00 AM 5.94 42.692 0.076 7.68 12.53 11.57
10/23/2022 5:30:00 AM 5.91 42.638 0.078 7.68 12.33 11.59
10/23/2022 5:45:00 AM 5.87 42.566 0.075 7.68 12.13 11.53
10/23/2022 6:00:00 AM 5.84 42.512 0.076 7.68 12.27 11.53
10/23/2022 6:15:00 AM 5.8 42.44 0.079 7.68 12.15 11.53
10/23/2022 6:30:00 AM 5.76 42.368 0.079 7.68 12.53 11.55
10/23/2022 6:45:00 AM 5.72 42.296 0.082 7.68 12.32 11.58
10/23/2022 7:00:00 AM 5.66 42.188 0.083 7.68 12.49 11.67
10/23/2022 7:15:00 AM 5.63 42.134 0.082 7.68 12.63 11.7
10/23/2022 7:30:00 AM 5.59 42.062 0.081 7.68 12.76 11.7
10/23/2022 7:45:00 AM 5.55 41.99 0.082 7.68 12.44 11.72
10/23/2022 8:00:00 AM 5.52 41.936 0.081 7.68 12.73 11.74
10/23/2022 8:15:00 AM 5.5 41.9 0.081 7.68 12.35 11.76
10/23/2022 8:30:00 AM 5.5 41.9 0.08 7.69 12.63 11.8
10/23/2022 8:45:00 AM 5.52 41.936 0.08 7.69 12.34 11.82
10/23/2022 9:00:00 AM 5.56 42.008 0.082 7.7 12.6 11.83
10/23/2022 9:15:00 AM 5.59 42.062 0.082 7.7 12.22 11.83
10/23/2022 9:30:00 AM 5.63 42.134 0.082 7.7 12.51 11.83
10/23/2022 9:45:00 AM 5.7 42.26 0.082 7.71 12.72 11.84
10/23/2022 10:00:00 AM 5.81 42.458 0.082 7.72 12.7 11.81
10/23/2022 10:15:00 AM 5.93 42.674 0.081 7.72 12.49 11.79
10/23/2022 10:30:00 AM 6.07 42.926 0.08 7.73 12.24 11.75
10/23/2022 10:45:00 AM 6.21 43.178 0.079 7.73 12.47 11.7
10/23/2022 11:00:00 AM 6.31 43.358 0.078 7.73 12.33 11.67
10/23/2022 11:15:00 AM 6.39 43.502 0.077 7.74 12.37 11.62
10/23/2022 11:30:00 AM 6.53 43.754 0.074 7.74 12.36 11.59
10/23/2022 11:45:00 AM 6.67 44.006 0.074 7.74 12.44 11.53
10/23/2022 12:00:00 PM 6.77 44.186 0.074 7.74 12.29 11.48
10/23/2022 12:15:00 PM 6.83 44.294 0.076 7.74 12.42 11.45
10/23/2022 12:30:00 PM 6.97 44.546 0.077 7.74 12.76 11.39
10/23/2022 12:45:00 PM 7.09 44.762 0.079 7.75 12.37 11.36
10/23/2022 1:00:00 PM 7.18 44.924 0.079 7.75 12.65 11.31
10/23/2022 1:15:00 PM 7.27 45.086 0.078 7.75 13.19 11.24
10/23/2022 1:30:00 PM 7.4 45.32 0.081 7.75 12.79 11.19
10/23/2022 1:45:00 PM 7.56 45.608 0.084 7.75 12.94 11.19
10/23/2022 2:00:00 PM 7.68 45.824 0.082 7.75 12.57 11.16
10/23/2022 2:15:00 PM 7.79 46.022 0.086 7.75 12.57 11.12
10/23/2022 2:30:00 PM 7.88 46.184 0.087 7.75 12.93 11.09
10/23/2022 2:45:00 PM 7.96 46.328 0.087 7.75 13.69 11.06
10/23/2022 3:00:00 PM 8.04 46.472 0.09 7.76 13.23 11.05
10/23/2022 3:15:00 PM 8.09 46.562 0.09 7.76 13.39 11
10/23/2022 3:30:00 PM 8.13 46.634 0.089 7.76 13.29 10.95
10/23/2022 3:45:00 PM 8.18 46.724 0.089 7.75 13.35 10.94
10/23/2022 4:00:00 PM 8.23 46.814 0.089 7.75 13.58 10.91
10/23/2022 4:15:00 PM 8.26 46.868 0.089 7.75 13.02 10.88
10/23/2022 4:30:00 PM 8.29 46.922 0.088 7.75 13.59 10.84
10/23/2022 4:45:00 PM 8.35 47.03 0.089 7.75 13.21 10.86
10/23/2022 5:00:00 PM 8.41 47.138 0.089 7.75 13.5 10.85
10/23/2022 5:15:00 PM 8.45 47.21 0.087 7.75 13.46 10.84
10/23/2022 5:30:00 PM 8.47 47.246 0.088 7.74 13.96 10.84
10/23/2022 5:45:00 PM 8.48 47.264 0.087 7.74 13.64 10.81
10/23/2022 6:00:00 PM 8.47 47.246 0.086 7.73 14.12 10.76
10/23/2022 6:15:00 PM 8.46 47.228 0.086 7.72 14.04 10.75
10/23/2022 6:30:00 PM 8.45 47.21 0.081 7.71 14.17 10.72
10/23/2022 6:45:00 PM 8.47 47.246 0.079 7.71 14.2 10.69
10/23/2022 7:00:00 PM 8.46 47.228 0.078 7.7 14.13 10.63
10/23/2022 7:15:00 PM 8.44 47.192 0.079 7.7 13.8 10.7
10/23/2022 7:30:00 PM 8.44 47.192 0.078 7.7 14.32 10.66
10/23/2022 7:45:00 PM 8.43 47.174 0.078 7.7 14.4 10.59
10/23/2022 8:00:00 PM 8.44 47.192 0.078 7.69 13.85 10.63
10/23/2022 8:15:00 PM 8.44 47.192 0.077 7.69 14.1 10.65
10/23/2022 8:30:00 PM 8.44 47.192 0.077 7.69 13.72 10.61
10/23/2022 8:45:00 PM 8.43 47.174 0.077 7.69 14.47 10.67
10/23/2022 9:00:00 PM 8.43 47.174 0.078 7.69 14.59 10.64
10/23/2022 9:15:00 PM 8.42 47.156 0.08 7.68 13.97 10.44
10/23/2022 9:30:00 PM 8.41 47.138 0.078 7.68 14.19 10.5
10/23/2022 9:45:00 PM 8.4 47.12 0.08 7.68 17.93 10.84
10/23/2022 10:00:00 PM 8.38 47.084 0.072 7.68 15.73 10.87
10/23/2022 10:15:00 PM 8.38 47.084 0.066 7.68 14.84 10.85
10/23/2022 10:30:00 PM 8.37 47.066 0.07 7.68 14.13 10.76
10/23/2022 10:45:00 PM 8.36 47.048 0.072 7.68 14.31 10.77
10/23/2022 11:00:00 PM 8.36 47.048 0.075 7.68 14.03 10.78
10/23/2022 11:15:00 PM 8.36 47.048 0.075 7.68 14.21 10.82
10/23/2022 11:30:00 PM 8.35 47.03 0.075 7.68 14.19 10.81
10/23/2022 11:45:00 PM 8.36 47.048 0.075 7.67 13.99 10.82
10/24/2022 12:00:00 AM 8.36 47.048 0.077 7.67 14.1 10.76
10/24/2022 12:15:00 AM 8.36 47.048 0.077 7.67 14.21 10.74
10/24/2022 12:30:00 AM 8.36 47.048 0.077 7.66 14.31 10.77
10/24/2022 12:45:00 AM 8.36 47.048 0.076 7.66 13.8 10.75
10/24/2022 1:00:00 AM 8.36 47.048 0.073 7.66 14.1 10.8
10/24/2022 1:15:00 AM 8.36 47.048 0.069 7.66 13.9 10.76
10/24/2022 1:30:00 AM 8.36 47.048 0.068 7.66 13.93 10.72
10/24/2022 1:45:00 AM 8.37 47.066 0.068 7.66 13.81 10.76
10/24/2022 2:00:00 AM 8.37 47.066 0.068 7.65 13.67 10.78
10/24/2022 2:15:00 AM 8.36 47.048 0.068 7.65 13.82 10.84
10/24/2022 2:30:00 AM 8.35 47.03 0.067 7.65 14.87 10.79
10/24/2022 2:45:00 AM 8.34 47.012 0.067 7.65 14.11 10.77
10/24/2022 3:00:00 AM 8.33 46.994 0.066 7.66 13.54 10.76
10/24/2022 3:15:00 AM 8.32 46.976 0.066 7.66 13.83 10.72
10/24/2022 3:30:00 AM 8.3 46.94 0.066 7.66 13.75 10.77
10/24/2022 3:45:00 AM 8.29 46.922 0.067 7.66 13.78 10.79
10/24/2022 4:00:00 AM 8.29 46.922 0.067 7.66 13.81 10.8
10/24/2022 4:15:00 AM 8.29 46.922 0.066 7.66 13.69 10.82
10/24/2022 4:30:00 AM 8.27 46.886 0.067 7.66 14.32 10.8
10/24/2022 4:45:00 AM 8.25 46.85 0.066 7.67 13.82 10.8
10/24/2022 5:00:00 AM 8.26 46.868 0.067 7.67 14.4 10.75
10/24/2022 5:15:00 AM 8.27 46.886 0.067 7.67 13.86 10.75
10/24/2022 5:30:00 AM 8.28 46.904 0.066 7.68 13.87 10.75
10/24/2022 5:45:00 AM 8.29 46.922 0.067 7.68 13.95 10.71
10/24/2022 6:00:00 AM 8.3 46.94 0.068 7.68 13.93 10.71
10/24/2022 6:15:00 AM 8.31 46.958 0.068 7.69 13.97 10.69
10/24/2022 6:30:00 AM 8.32 46.976 0.068 7.68 13.98 10.7
10/24/2022 6:45:00 AM 8.33 46.994 0.068 7.68 14.2 10.68
10/24/2022 7:00:00 AM 8.34 47.012 0.068 7.68 14.27 10.71
10/24/2022 7:15:00 AM 8.35 47.03 0.067 7.68 14.27 10.77
10/24/2022 7:30:00 AM 8.36 47.048 0.068 7.68 14.48 10.72
10/24/2022 7:45:00 AM 8.37 47.066 0.068 7.68 14.41 10.71
10/24/2022 8:00:00 AM 8.38 47.084 0.068 7.68 14.7 10.68
10/24/2022 8:15:00 AM 8.4 47.12 0.067 7.69 14.33 10.69
10/24/2022 8:30:00 AM 8.42 47.156 0.067 7.69 14.46 10.73
10/24/2022 8:45:00 AM 8.45 47.21 0.067 7.71 14.46 10.75
10/24/2022 9:00:00 AM 8.48 47.264 0.066 7.7 14.41 10.72
10/24/2022 9:15:00 AM 8.5 47.3 0.067 7.7 14.25 10.61
10/24/2022 9:30:00 AM 8.53 47.354 0.067 7.7 14.54 10.64
10/24/2022 9:45:00 AM 8.58 47.444 0.066 7.71 14.4 10.62
10/24/2022 10:00:00 AM 8.64 47.552 0.066 7.72 14.89 10.58
10/24/2022 10:15:00 AM 8.71 47.678 0.066 7.72 15.03 10.62
10/24/2022 10:30:00 AM 8.81 47.858 0.066 7.73 14.45 10.69
10/24/2022 10:45:00 AM 8.92 48.056 0.069 7.74 14.59 10.64
10/24/2022 11:00:00 AM 9.02 48.236 0.07 7.74 14.55 10.61
10/24/2022 11:15:00 AM 9.14 48.452 0.07 7.74 14.42 10.6
10/24/2022 11:30:00 AM 9.29 48.722 0.068 7.75 14.79 10.62
10/24/2022 11:45:00 AM 9.41 48.938 0.07 7.75 14.58 10.5
10/24/2022 12:00:00 PM 9.54 49.172 0.073 7.76 14.62 10.35
10/24/2022 12:15:00 PM 9.62 49.316 0.069 7.76 15.08 10.24
10/24/2022 12:30:00 PM 9.68 49.424 0.069 7.75 15.33 10.17
10/24/2022 12:45:00 PM 9.76 49.568 0.07 7.76 15.63 10.26
10/24/2022 1:00:00 PM 9.79 49.622 0.071 7.76 16.48 10.05
10/24/2022 1:15:00 PM 9.84 49.712 0.071 7.75 16.22 10.22
10/24/2022 1:30:00 PM 9.91 49.838 0.071 7.75 19.59 10.5
10/24/2022 1:45:00 PM 10.11 50.198 0.074 7.76 15.76 10.49
10/24/2022 2:00:00 PM 10.26 50.468 0.073 7.76 14.79 10.43
10/24/2022 2:15:00 PM 10.42 50.756 0.071 7.77 16.16 10.31
10/24/2022 2:30:00 PM 10.59 51.062 0.07 7.76 15.6 10.19
10/24/2022 2:45:00 PM 10.71 51.278 0.072 7.73 15.99 10.21
10/24/2022 3:00:00 PM 10.8 51.44 0.077 7.75 15.63 10.14
10/24/2022 3:15:00 PM 10.78 51.404 0.077 7.76 15.29 10.07
10/24/2022 3:30:00 PM 10.74 51.332 0.077 7.75 15.14 9.99
10/24/2022 3:45:00 PM 10.72 51.296 0.079 7.74 15.24 9.95
10/24/2022 4:00:00 PM 10.75 51.35 0.079 7.74 15.42 9.93
10/24/2022 4:15:00 PM 10.81 51.458 0.079 7.75 26.49 9.86
10/24/2022 4:30:00 PM 10.85 51.53 0.079 7.75 18.32 9.97
10/24/2022 4:45:00 PM 10.87 51.566 0.079 7.75 17.21 10.07
10/24/2022 5:00:00 PM 10.88 51.584 0.079 7.74 17.15 10.12
10/24/2022 5:15:00 PM 10.87 51.566 0.079 7.74 17.45 10.04
10/24/2022 5:30:00 PM 10.86 51.548 0.08 7.74 16 10.07
10/24/2022 5:45:00 PM 10.85 51.53 0.075 7.73 16.18 10.06
10/24/2022 6:00:00 PM 10.82 51.476 0.075 7.72 15.71 10.01
10/24/2022 6:15:00 PM 10.79 51.422 0.075 7.72 16.5 9.96
10/24/2022 6:30:00 PM 10.74 51.332 0.075 7.66 16.54 9.92
10/24/2022 6:45:00 PM 10.7 51.26 0.076 7.7 16.19 10
10/24/2022 7:00:00 PM 10.67 51.206 0.075 7.69 16.53 10.03
10/24/2022 7:15:00 PM 10.63 51.134 0.074 7.68 17.51 9.96
10/24/2022 7:30:00 PM 10.57 51.026 0.077 7.68 16.98 9.98
10/24/2022 7:45:00 PM 10.53 50.954 0.072 7.68 17.08 10.07
10/24/2022 8:00:00 PM 10.48 50.864 0.067 7.68 16.7 10.13
10/24/2022 8:15:00 PM 10.43 50.774 0.071 7.68 16.46 10.1
10/24/2022 8:30:00 PM 10.38 50.684 0.069 7.68 16.53 10.1
10/24/2022 8:45:00 PM 10.34 50.612 0.071 7.66 16.44 10.14
10/24/2022 9:00:00 PM 10.31 50.558 0.074 7.67 15.67 10.19
10/24/2022 9:15:00 PM 10.29 50.522 0.073 7.67 15.82 10.21
10/24/2022 9:30:00 PM 10.25 50.45 0.076 7.66 16.58 10.22
10/24/2022 9:45:00 PM 10.21 50.378 0.076 7.65 16.56 10.21
10/24/2022 10:00:00 PM 10.17 50.306 0.077 7.65 18.2 10.22
10/24/2022 10:15:00 PM 10.14 50.252 0.073 7.66 13.25 10.23
10/24/2022 10:30:00 PM 10.1 50.18 0.073 7.65 17.26 10.22
10/24/2022 10:45:00 PM 10.06 50.108 0.071 7.65 17.03 10.25
10/24/2022 11:00:00 PM 10.02 50.036 0.072 7.66 17.07 10.27
10/24/2022 11:15:00 PM 9.99 49.982 0.074 7.65 18.06 10.28
10/24/2022 11:30:00 PM 9.98 49.964 0.074 7.66 17.13 10.28
10/24/2022 11:45:00 PM 9.99 49.982 0.073 7.66 16.99 10.27
10/25/2022 12:00:00 AM 9.99 49.982 0.069 7.66 16.94 10.27
10/25/2022 12:15:00 AM 9.99 49.982 0.069 7.65 18.11 10.28
10/25/2022 12:30:00 AM 10 50 0.071 7.65 17.36 10.28
10/25/2022 12:45:00 AM 10 50 0.07 7.65 21.4 10.13
10/25/2022 1:00:00 AM 10 50 0.068 7.64 15.43 10.3
10/25/2022 1:15:00 AM 10.01 50.018 0.066 7.64 15.38 10.24
10/25/2022 1:30:00 AM 10.01 50.018 0.067 7.63 14.81 10.23
10/25/2022 1:45:00 AM 10.01 50.018 0.065 7.63 15.87 10.15
10/25/2022 2:00:00 AM 10.02 50.036 0.066 7.63 14.73 10.01
10/25/2022 2:15:00 AM 10.02 50.036 0.067 7.63 14.21 9.83
10/25/2022 2:30:00 AM 10.03 50.054 0.066 7.62 14.53 9.76
10/25/2022 2:45:00 AM 10.03 50.054 0.067 7.63 14.44 9.57
10/25/2022 3:00:00 AM 10.04 50.072 0.067 7.63 14.19 9.63
10/25/2022 3:15:00 AM 10.04 50.072 0.069 7.63 14.86 9.64
10/25/2022 3:30:00 AM 10.04 50.072 0.072 7.61 15.04 9.66
10/25/2022 3:45:00 AM 10.05 50.09 0.075 7.61 14.8 9.77
10/25/2022 4:00:00 AM 10.05 50.09 0.077 7.61 15.22 9.82
10/25/2022 4:15:00 AM 10.05 50.09 0.075 7.61 15.21 9.75
10/25/2022 4:30:00 AM 10.05 50.09 0.076 7.62 15.04 9.71
10/25/2022 4:45:00 AM 10.06 50.108 0.076 7.61 15.11 9.47
10/25/2022 5:00:00 AM 10.06 50.108 0.077 7.6 14.99 9.34
10/25/2022 5:15:00 AM 10.06 50.108 0.074 7.6 14.9 9.69
10/25/2022 5:30:00 AM 10.07 50.126 0.072 7.6 14.49 9.72
10/25/2022 5:45:00 AM 10.07 50.126 0.073 7.6 14.58 9.85
10/25/2022 6:00:00 AM 10.07 50.126 0.074 7.6 14.43 9.99
10/25/2022 6:15:00 AM 10.07 50.126 0.077 7.6 14.78 9.98
10/25/2022 6:30:00 AM 10.08 50.144 0.078 7.59 15.29 9.67
10/25/2022 6:45:00 AM 10.08 50.144 0.076 7.6 16.05 8.83
10/25/2022 7:00:00 AM 10.08 50.144 0.076 7.6 17.42 8.51
10/25/2022 7:15:00 AM 10.08 50.144 0.075 7.59 16.75 7.97
10/25/2022 7:30:00 AM 10.08 50.144 0.075 7.6 16.29 7.96
10/25/2022 7:45:00 AM 10.08 50.144 0.075 7.58 16.75 7.94
10/25/2022 8:00:00 AM 10.09 50.162 0.075 7.61 16.31 7.64
10/25/2022 8:15:00 AM 10.12 50.216 0.074 7.61 14.87 9.98
10/25/2022 8:30:00 AM 10.15 50.27 0.068 7.64 13.75 9.94
10/25/2022 8:45:00 AM 10.18 50.324 0.066 7.64 13.85 9.87
10/25/2022 9:00:00 AM 10.22 50.396 0.065 7.65 18.96 9.9
10/25/2022 9:15:00 AM 10.27 50.486 0.068 7.66 20.6 9.87
10/25/2022 9:30:00 AM 10.32 50.576 0.068 7.67 21.64 9.89
10/25/2022 9:45:00 AM 10.38 50.684 0.065 7.7 16.93 9.86
10/25/2022 10:00:00 AM 10.43 50.774 0.062 7.7 13.67 10.01
10/25/2022 10:15:00 AM 10.5 50.9 0.059 7.71 25.14 10
10/25/2022 10:30:00 AM 10.61 51.098 0.061 7.72 13.88 9.98
10/25/2022 10:45:00 AM 10.72 51.296 0.064 7.73 13.14 9.71
10/25/2022 11:00:00 AM 10.8 51.44 0.068 7.73 12.57 9.89
10/25/2022 11:15:00 AM 10.93 51.674 0.07 7.74 12.58 9.74
10/25/2022 11:30:00 AM 11.08 51.944 0.067 7.74 13.64 9.8
10/25/2022 11:45:00 AM 11.16 52.088 0.068 7.74 13.3 9.6
10/25/2022 12:00:00 PM 11.3 52.34 0.07 7.74 12.76 9.32
10/25/2022 12:15:00 PM 11.41 52.538 0.07 7.74 13.03 8.98
10/25/2022 12:30:00 PM 11.57 52.826 0.07 7.75 11.91 8.77
10/25/2022 12:45:00 PM 11.75 53.15 0.072 7.75 12.78 9.59
10/25/2022 1:00:00 PM 11.87 53.366 0.069 7.76 13.43 9.66
10/25/2022 1:15:00 PM 11.97 53.546 0.072 7.76 13.24 9.67
10/25/2022 1:30:00 PM 12.05 53.69 0.073 7.75 16.16 9.55
10/25/2022 1:45:00 PM 12.09 53.762 0.074 7.75 14.52 9.07
10/25/2022 2:00:00 PM 12.13 53.834 0.076 7.75 13.81 9.01
10/25/2022 2:15:00 PM 12.15 53.87 0.077 7.75 14.27 9
10/25/2022 2:30:00 PM 12.2 53.96 0.076 7.75 14.16 9.02
10/25/2022 2:45:00 PM 12.26 54.068 0.078 7.76 14.81 8.96
10/25/2022 3:00:00 PM 12.28 54.104 0.063 7.75 21.76 9.34
10/25/2022 3:15:00 PM 12.29 54.122 0.054 7.75 16.61 9.1
10/25/2022 3:30:00 PM 12.31 54.158 0.054 7.75 15.28 9.11
10/25/2022 3:45:00 PM 12.34 54.212 0.05 7.75 15.42 9.33
10/25/2022 4:00:00 PM 12.32 54.176 0.049 7.74 14.8 9.31
10/25/2022 4:15:00 PM 12.32 54.176 0.048 7.74 15.55 9.39
10/25/2022 4:30:00 PM 12.3 54.14 0.049 7.74 14.85 9.24
10/25/2022 4:45:00 PM 12.28 54.104 0.05 7.74 15.8 9.43
10/25/2022 5:00:00 PM 12.24 54.032 0.049 7.73 14.52 9.55
10/25/2022 5:15:00 PM 12.2 53.96 0.052 7.73 14.51 9.49
10/25/2022 5:30:00 PM 12.16 53.888 0.053 7.72 14.55 9.48
10/25/2022 5:45:00 PM 12.12 53.816 0.052 7.72 14.74 9.44
10/25/2022 6:00:00 PM 12.08 53.744 0.05 7.71 13.84 9.47
10/25/2022 6:15:00 PM 12.04 53.672 0.048 7.71 14.3 9.45
10/25/2022 6:30:00 PM 12 53.6 0.049 7.71 14.41 9.4
10/25/2022 6:45:00 PM 11.96 53.528 0.048 7.71 14.76 9.28
10/25/2022 7:00:00 PM 11.93 53.474 0.051 7.71 14.69 9.33
10/25/2022 7:15:00 PM 11.9 53.42 0.051 7.7 14.62 9.08
10/25/2022 7:30:00 PM 11.86 53.348 0.051 7.7 13.8 8.75
10/25/2022 7:45:00 PM 11.83 53.294 0.052 7.7 14.03 8.65
10/25/2022 8:00:00 PM 11.81 53.258 0.053 7.7 13.85 8.72
10/25/2022 8:15:00 PM 11.78 53.204 0.053 7.69 13.97 8.66
10/25/2022 8:30:00 PM 11.75 53.15 0.054 7.69 13.82 8.4
10/25/2022 8:45:00 PM 11.72 53.096 0.053 7.68 14.03 8.73
10/25/2022 9:00:00 PM 11.69 53.042 0.053 7.67 14.06 8.83
10/25/2022 9:15:00 PM 11.68 53.024 0.053 7.68 13.59 8.79
10/25/2022 9:30:00 PM 11.67 53.006 0.052 7.68 14.18 8.15
10/25/2022 9:45:00 PM 11.66 52.988 0.052 7.68 14.28 8.96
10/25/2022 10:00:00 PM 11.64 52.952 0.055 7.69 14.39 9.55
10/25/2022 10:15:00 PM 11.63 52.934 0.054 7.67 59.25 9.65
10/25/2022 10:30:00 PM 11.62 52.916 0.054 7.68 16.73 8.81
10/25/2022 10:45:00 PM 11.62 52.916 0.055 7.69 16.19 8.34
10/25/2022 11:00:00 PM 11.58 52.844 0.054 7.69 15.75 9.48
10/25/2022 11:15:00 PM 11.54 52.772 0.054 7.7 15.81 9.58
10/25/2022 11:30:00 PM 11.48 52.664 0.054 7.69 16.24 9.42
10/25/2022 11:45:00 PM 11.42 52.556 0.054 7.69 15.83 9.54
10/26/2022 12:00:00 AM 11.36 52.448 0.053 7.69 15.35 9.6
10/26/2022 12:15:00 AM 11.32 52.376 0.052 7.69 15.11 9.6
10/26/2022 12:30:00 AM 11.28 52.304 0.051 7.69 15.5 9.5
10/26/2022 12:45:00 AM 11.24 52.232 0.051 7.69 15.33 9.54
10/26/2022 1:00:00 AM 11.22 52.196 0.051 7.69 16.4 9.5
10/26/2022 1:15:00 AM 11.22 52.196 0.051 7.69 16.39 9.51
10/26/2022 1:30:00 AM 11.21 52.178 0.051 7.69 15.72 9.52
10/26/2022 1:45:00 AM 11.17 52.106 0.053 7.69 15.26 9.48
10/26/2022 2:00:00 AM 11.13 52.034 0.054 7.69 16.21 8.85
10/26/2022 2:15:00 AM 11.09 51.962 0.054 7.68 16.57 9.42
10/26/2022 2:30:00 AM 11.06 51.908 0.052 7.69 15.88 9.55
10/26/2022 2:45:00 AM 11.01 51.818 0.053 7.69 16.26 9.22
10/26/2022 3:00:00 AM 10.97 51.746 0.054 7.69 16.49 9.51
10/26/2022 3:15:00 AM 10.91 51.638 0.054 7.69 15.52 9.23
10/26/2022 3:30:00 AM 10.86 51.548 0.057 7.69 16.28 9.62
10/26/2022 3:45:00 AM 10.81 51.458 0.057 7.69 16.19 9.77
10/26/2022 4:00:00 AM 10.77 51.386 0.058 7.69 15.59 9.7
10/26/2022 4:15:00 AM 10.73 51.314 0.06 7.69 16.31 8.89
10/26/2022 4:30:00 AM 10.68 51.224 0.055 7.69 16.37 8.39
10/26/2022 4:45:00 AM 10.63 51.134 0.055 7.69 16.22 8.88
10/26/2022 5:00:00 AM 10.59 51.062 0.055 7.69 15.7 8.81
10/26/2022 5:15:00 AM 10.53 50.954 0.056 7.68 15.99 8.67
10/26/2022 5:30:00 AM 10.47 50.846 0.057 7.68 16.23 9.23
10/26/2022 5:45:00 AM 10.43 50.774 0.056 7.68 16.52 9.49
10/26/2022 6:00:00 AM 10.37 50.666 0.056 7.68 15.99 9.59
10/26/2022 6:15:00 AM 10.33 50.594 0.055 7.68 16.26 9.71
10/26/2022 6:30:00 AM 10.31 50.558 0.059 7.68 15.92 9.71
10/26/2022 6:45:00 AM 10.3 50.54 0.059 7.68 15.98 9.69
10/26/2022 7:00:00 AM 10.3 50.54 0.058 7.68 16.02 9.43
10/26/2022 7:15:00 AM 10.3 50.54 0.057 7.68 16.3 9.37
10/26/2022 7:30:00 AM 10.32 50.576 0.056 7.68 16.36 8.68
10/26/2022 7:45:00 AM 10.34 50.612 0.057 7.68 16.98 8.05
10/26/2022 8:00:00 AM 10.34 50.612 0.057 7.68 16.14 7.65
10/26/2022 8:15:00 AM 10.35 50.63 0.056 7.69 15.9 7.4
10/26/2022 8:30:00 AM 10.39 50.702 0.055 7.69 16.17 7.34
10/26/2022 8:45:00 AM 10.4 50.72 0.055 7.69 16.54 7.3
10/26/2022 9:00:00 AM 10.42 50.756 0.055 7.69 16.99 8.02
10/26/2022 9:15:00 AM 10.46 50.828 0.054 7.7 16.34 8.16
10/26/2022 9:30:00 AM 10.52 50.936 0.053 7.71 16.23 8.23
10/26/2022 9:45:00 AM 10.59 51.062 0.054 7.72 16.38 7.99
10/26/2022 10:00:00 AM 10.73 51.314 0.054 7.73 16.14 7.68
10/26/2022 10:15:00 AM 10.88 51.584 0.056 7.74 16.74 8.36
10/26/2022 10:30:00 AM 11.03 51.854 0.056 7.74 17 8.76
10/26/2022 10:45:00 AM 11.08 51.944 0.056 7.74 16.6 8.86
10/26/2022 11:00:00 AM 11.11 51.998 0.057 7.74 16.71 8.95
10/26/2022 11:15:00 AM 11.17 52.106 0.056 7.74 17.15 8.87
10/26/2022 11:30:00 AM 11.26 52.268 0.056 7.74 16.98 8.92
10/26/2022 11:45:00 AM 11.41 52.538 0.056 7.75 16.74 9.04
10/26/2022 12:00:00 PM 11.49 52.682 0.056 7.75 16.7 8.94
10/26/2022 12:15:00 PM 11.56 52.808 0.056 7.75 15.93 8.93
10/26/2022 12:30:00 PM 11.63 52.934 0.056 7.75 16.88 8.3
10/26/2022 12:45:00 PM 11.72 53.096 0.055 7.75 16.59 8.3
10/26/2022 1:00:00 PM 11.8 53.24 0.057 7.75 16.74 8.2
10/26/2022 1:15:00 PM 11.86 53.348 0.056 7.75 16.64 8.15
10/26/2022 1:30:00 PM 11.94 53.492 0.057 7.75 16.68 8.87
10/26/2022 1:45:00 PM 12.02 53.636 0.058 7.76 17.06 9.25
10/26/2022 2:00:00 PM 12.07 53.726 0.058 7.76 16.85 9.12
10/26/2022 2:15:00 PM 12.12 53.816 0.06 7.76 16.88 8.72
10/26/2022 2:30:00 PM 12.17 53.906 0.058 7.76 18.64 8.79
10/26/2022 2:45:00 PM 12.14 53.852 0.059 7.75 16.14 8.53
10/26/2022 3:00:00 PM 12.12 53.816 0.059 7.74 15.77 7.83
10/26/2022 3:15:00 PM 12.1 53.78 0.058 7.73 16.44 7.76
10/26/2022 3:30:00 PM 12.1 53.78 0.057 7.74 17.21 7.62
10/26/2022 3:45:00 PM 12.07 53.726 0.055 7.73 16.3 7.41
10/26/2022 4:00:00 PM 12.04 53.672 0.056 7.73 16.4 7.29
10/26/2022 4:15:00 PM 12.01 53.618 0.055 7.72 16.39 7.29
10/26/2022 4:30:00 PM 11.98 53.564 0.055 7.72 16.02 6.96
10/26/2022 4:45:00 PM 11.94 53.492 0.055 7.73 16.65 6.52
10/26/2022 5:00:00 PM 11.91 53.438 0.056 7.72 16.93 6.18
10/26/2022 5:15:00 PM 11.87 53.366 0.056 7.72 16.11 7.25
10/26/2022 5:30:00 PM 11.84 53.312 0.058 7.71 17.09 6.68
10/26/2022 5:45:00 PM 11.81 53.258 0.058 7.7 17.34 6.77
10/26/2022 6:00:00 PM 11.76 53.168 0.059 7.69 19.03 8.04
10/26/2022 6:15:00 PM 11.72 53.096 0.058 7.68 16.76 8.37
10/26/2022 6:30:00 PM 11.68 53.024 0.058 7.68 16.96 8.17
10/26/2022 6:45:00 PM 11.65 52.97 0.058 7.67 17.94 7.9
10/26/2022 7:00:00 PM 11.61 52.898 0.059 7.66 97.4 8.22
10/26/2022 7:15:00 PM 11.57 52.826 0.06 7.66 20.55 9.11
10/26/2022 7:30:00 PM 11.52 52.736 0.062 7.66 67.83 9.48
10/26/2022 7:45:00 PM 11.46 52.628 0.062 7.66 30.8 9.51
10/26/2022 8:00:00 PM 11.43 52.574 0.063 7.67 30.69 9.59
10/26/2022 8:15:00 PM 11.38 52.484 0.06 7.67 27.78 9.63
10/26/2022 8:30:00 PM 11.36 52.448 0.06 7.67 21.14 9.6
10/26/2022 8:45:00 PM 11.31 52.358 0.056 7.67 19.22 9.61
10/26/2022 9:00:00 PM 11.26 52.268 0.056 7.67 19.27 9.66
10/26/2022 9:15:00 PM 11.23 52.214 0.057 7.67 19.92 9.63
10/26/2022 9:30:00 PM 11.22 52.196 0.061 7.67 21.39 9.55
10/26/2022 9:45:00 PM 11.2 52.16 0.057 7.67 19.46 9.13
10/26/2022 10:00:00 PM 11.19 52.142 0.061 7.67 21.1 9.03
10/26/2022 10:15:00 PM 11.18 52.124 0.058 7.66 18.56 9.08
10/26/2022 10:30:00 PM 11.17 52.106 0.06 7.65 18.59 9.07
10/26/2022 10:45:00 PM 11.16 52.088 0.061 7.64 18.27 9.1
10/26/2022 11:00:00 PM 11.15 52.07 0.062 7.68 19.77 8.97
10/26/2022 11:15:00 PM 11.13 52.034 0.058 7.69 19.8 8.41
10/26/2022 11:30:00 PM 11.12 52.016 0.062 7.69 21.18 7.78
10/26/2022 11:45:00 PM 11.1 51.98 0.066 7.68 22.57 7.19
10/27/2022 12:00:00 AM 11.09 51.962 0.066 7.68 30.95 6.86
10/27/2022 12:15:00 AM 11.07 51.926 0.066 7.69 21.71 6.76
10/27/2022 12:30:00 AM 11.06 51.908 0.066 7.69 20.21 6.8
10/27/2022 12:45:00 AM 11.03 51.854 0.059 7.69 17.25 6.66
10/27/2022 1:00:00 AM 11 51.8 0.056 7.7 17.12 6.04
10/27/2022 1:15:00 AM 10.97 51.746 0.06 7.7 14.07 5.73
10/27/2022 1:30:00 AM 10.93 51.674 0.058 7.7 15.91 6.03
10/27/2022 1:45:00 AM 10.9 51.62 0.058 7.7 97.99 5.76
10/27/2022 2:00:00 AM 10.87 51.566 0.058 7.66 91.59 6.1
10/27/2022 2:15:00 AM 10.84 51.512 0.059 7.68 89.69 6.42
10/27/2022 2:30:00 AM 10.81 51.458 0.062 7.68 53.03 6.63
10/27/2022 2:45:00 AM 10.77 51.386 0.059 7.68 118.38 6.93
10/27/2022 3:00:00 AM 10.74 51.332 0.06 7.65 13.77 7.07
10/27/2022 3:15:00 AM 10.69 51.242 0.058 7.66 13.07 7.2
10/27/2022 3:30:00 AM 10.64 51.152 0.059 7.68 14.94 7.16
10/27/2022 3:45:00 AM 10.6 51.08 0.057 7.69 22.22 7.25
10/27/2022 4:00:00 AM 10.56 51.008 0.056 7.7 13.37 7.18
10/27/2022 4:15:00 AM 10.51 50.918 0.057 7.69 13.44 7.02
10/27/2022 4:30:00 AM 10.47 50.846 0.056 7.7 14.18 7
10/27/2022 4:45:00 AM 10.42 50.756 0.057 7.69 12.78 6.73
10/27/2022 5:00:00 AM 10.36 50.648 0.056 7.69 13 6.43
10/27/2022 5:15:00 AM 10.3 50.54 0.052 7.69 13.65 6.31
10/27/2022 5:30:00 AM 10.25 50.45 0.047 7.7 21.48 6.2
10/27/2022 5:45:00 AM 10.2 50.36 0.045 7.69 13.7 6.24
10/27/2022 6:00:00 AM 10.15 50.27 0.043 7.68 14.22 6.03
10/27/2022 6:15:00 AM 10.11 50.198 0.047 7.69 13.06 6.05
10/27/2022 6:30:00 AM 10.06 50.108 0.049 7.69 12.56 6.11
10/27/2022 6:45:00 AM 10.02 50.036 0.047 7.69 13.14 6.08
10/27/2022 7:00:00 AM 9.96 49.928 0.049 7.7 13.4 6.2
10/27/2022 7:15:00 AM 9.88 49.784 0.049 7.69 13.61 6.4
10/27/2022 7:30:00 AM 9.81 49.658 0.05 7.69 18.03 6.7
10/27/2022 7:45:00 AM 9.76 49.568 0.05 7.7 16.03 6.73
10/27/2022 8:00:00 AM 9.72 49.496 0.05 7.69 15.28 6.61
10/27/2022 8:15:00 AM 9.69 49.442 0.053 7.69 20.42 6.49
10/27/2022 8:30:00 AM 9.67 49.406 0.052 7.69 19.29 6.1
10/27/2022 8:45:00 AM 9.65 49.37 0.051 7.69 20.33 6.06
10/27/2022 9:00:00 AM 9.64 49.352 0.052 7.7 19.86 6.16
10/27/2022 9:15:00 AM 9.62 49.316 0.051 7.71 19.71 6.44
10/27/2022 9:30:00 AM 9.59 49.262 0.051 7.71 17.34 6.58
10/27/2022 9:45:00 AM 9.63 49.334 0.051 7.71 16.46 6.4
10/27/2022 10:00:00 AM 9.71 49.478 0.051 7.72 16.52 6.41
10/27/2022 10:15:00 AM 9.74 49.532 0.052 7.72 16.36 6.58
10/27/2022 10:30:00 AM 9.76 49.568 0.051 7.72 17.49 6.93
10/27/2022 10:45:00 AM 9.76 49.568 0.051 7.72 16.3 7.03
10/27/2022 11:00:00 AM 9.73 49.514 0.051 7.72 15.71 7.01
10/27/2022 11:15:00 AM 9.72 49.496 0.051 7.71 15.43 7.08
10/27/2022 11:30:00 AM 9.7 49.46 0.051 7.73 15.14 7.23
10/27/2022 11:45:00 AM 9.68 49.424 0.051 7.72 15.63 7.62
10/27/2022 12:00:00 PM 9.67 49.406 0.051 7.72 14.88 7.98
10/27/2022 12:15:00 PM 9.66 49.388 0.05 7.72 15.05 7.98
10/27/2022 12:30:00 PM 9.63 49.334 0.05 7.72 16.03 8.05
10/27/2022 12:45:00 PM 9.59 49.262 0.05 7.73 14.43 7.99
10/27/2022 1:00:00 PM 9.56 49.208 0.05 7.72 15.59 7.71
10/27/2022 1:15:00 PM 9.55 49.19 0.051 7.72 14.7 7.64
10/27/2022 1:30:00 PM 9.55 49.19 0.05 7.71 16.56 7.37
10/27/2022 1:45:00 PM 9.56 49.208 0.049 7.72 15.4 7.07
10/27/2022 2:00:00 PM 9.58 49.244 0.046 7.72 15.22 6.79
10/27/2022 2:15:00 PM 9.57 49.226 0.043 7.72 20.3 7
10/27/2022 2:30:00 PM 9.55 49.19 0.044 7.72 19.38 7.6
10/27/2022 2:45:00 PM 9.54 49.172 0.055 7.72 167.17 9.6
10/27/2022 3:00:00 PM 9.53 49.154 0.054 7.71 165.13 10.29
10/27/2022 3:15:00 PM 9.52 49.136 0.055 7.72 183.76 10.33
10/27/2022 3:30:00 PM 9.5 49.1 0.055 7.72 110.47 10.32
10/27/2022 3:45:00 PM 9.48 49.064 0.056 7.72 44.2 10.29
10/27/2022 4:00:00 PM 9.45 49.01 0.055 7.72 20.06 10.14
10/27/2022 4:15:00 PM 9.41 48.938 0.055 7.72 29.47 10.04
10/27/2022 4:30:00 PM 9.38 48.884 0.054 7.7 19.48 10.14
10/27/2022 4:45:00 PM 9.33 48.794 0.054 7.72 14.96 10.19
10/27/2022 5:00:00 PM 9.27 48.686 0.055 7.71 16.51 10.25
10/27/2022 5:15:00 PM 9.23 48.614 0.059 7.71 94.51 10.15
10/27/2022 5:30:00 PM 9.19 48.542 0.058 7.71 39.13 10.25
10/27/2022 5:45:00 PM 9.15 48.47 0.057 7.71 45.44 10.18
10/27/2022 6:00:00 PM 9.1 48.38 0.058 7.7 111.49 10.14
10/27/2022 6:15:00 PM 9.03 48.254 0.058 7.7 45.51 10.24
10/27/2022 6:30:00 PM 8.96 48.128 0.058 7.68 21.42 10.14
10/27/2022 6:45:00 PM 8.87 47.966 0.059 7.67 16.67 10.06
10/27/2022 7:00:00 PM 8.79 47.822 0.059 7.67 19.56 9.93
10/27/2022 7:15:00 PM 8.71 47.678 0.059 7.67 15.77 9.89
10/27/2022 7:30:00 PM 8.63 47.534 0.061 7.66 15.78 9.64
10/27/2022 7:45:00 PM 8.55 47.39 0.061 7.66 15.67 9.75
10/27/2022 8:00:00 PM 8.47 47.246 0.068 7.63 24.3 9.58
10/27/2022 8:15:00 PM 8.4 47.12 0.063 7.65 23.44 10.06
10/27/2022 8:30:00 PM 8.33 46.994 0.062 7.64 20.44 10.24
10/27/2022 8:45:00 PM 8.26 46.868 0.061 7.63 18.38 10.26
10/27/2022 9:00:00 PM 8.19 46.742 0.061 7.64 18.47 10.33
10/27/2022 9:15:00 PM 8.11 46.598 0.061 7.64 17.51 10.38
10/27/2022 9:30:00 PM 8.04 46.472 0.06 7.64 18.75 10.27
10/27/2022 9:45:00 PM 7.98 46.364 0.06 7.64 16.99 10.22
10/27/2022 10:00:00 PM 7.91 46.238 0.059 7.64 17.45 10.4
10/27/2022 10:15:00 PM 7.84 46.112 0.06 7.64 17.45 10.4
10/27/2022 10:30:00 PM 7.77 45.986 0.06 7.64 15.49 10.42
10/27/2022 10:45:00 PM 7.7 45.86 0.059 7.64 15.54 10.45
10/27/2022 11:00:00 PM 7.63 45.734 0.06 7.65 15.3 10.47
10/27/2022 11:15:00 PM 7.56 45.608 0.059 7.65 14.51 10.44
10/27/2022 11:30:00 PM 7.5 45.5 0.059 7.65 14.22 10.45
10/27/2022 11:45:00 PM 7.45 45.41 0.056 7.65 12.9 10.48
10/28/2022 12:00:00 AM 7.39 45.302 0.055 7.65 13.09 10.61
10/28/2022 12:15:00 AM 7.33 45.194 0.055 7.66 12.68 10.71
10/28/2022 12:30:00 AM 7.27 45.086 0.055 7.66 15.18 10.73
10/28/2022 12:45:00 AM 7.21 44.978 0.053 7.68 14.08 10.77
10/28/2022 1:00:00 AM 7.15 44.87 0.051 7.67 13.97 10.67
10/28/2022 1:15:00 AM 7.1 44.78 0.051 7.65 13.95 10.71
10/28/2022 1:30:00 AM 7.03 44.654 0.051 7.66 13.92 10.73
10/28/2022 1:45:00 AM 6.97 44.546 0.051 7.66 14.09 10.74
10/28/2022 2:00:00 AM 6.91 44.438 0.051 7.65 14.11 10.71
10/28/2022 2:15:00 AM 6.85 44.33 0.051 7.65 13.76 10.75
10/28/2022 2:30:00 AM 6.79 44.222 0.055 7.65 14.07 10.67
10/28/2022 2:45:00 AM 6.73 44.114 0.055 7.66 16.09 11
10/28/2022 3:00:00 AM 6.68 44.024 0.055 7.66 18.3 11.05
10/28/2022 3:15:00 AM 6.62 43.916 0.056 7.66 16.46 11.05
10/28/2022 3:30:00 AM 6.56 43.808 0.062 7.67 16.66 10.97
10/28/2022 3:45:00 AM 6.51 43.718 0.064 7.67 20.32 11.02
10/28/2022 4:00:00 AM 6.45 43.61 0.067 7.67 14.61 11.06
10/28/2022 4:15:00 AM 6.4 43.52 0.066 7.67 14.42 11.1
10/28/2022 4:30:00 AM 6.34 43.412 0.067 7.67 14.3 11.01
10/28/2022 4:45:00 AM 6.28 43.304 0.065 7.67 14.27 11
10/28/2022 5:00:00 AM 6.23 43.214 0.064 7.67 13.9 10.97
10/28/2022 5:15:00 AM 6.17 43.106 0.064 7.67 15.38 10.99
10/28/2022 5:30:00 AM 6.12 43.016 0.063 7.67 15.53 11.07
10/28/2022 5:45:00 AM 6.07 42.926 0.064 7.68 14.83 11.02
10/28/2022 6:00:00 AM 6.02 42.836 0.062 7.68 14.36 11
10/28/2022 6:15:00 AM 5.97 42.746 0.064 7.67 14.35 11.02
10/28/2022 6:30:00 AM 5.91 42.638 0.063 7.68 14.15 10.99
10/28/2022 6:45:00 AM 5.86 42.548 0.063 7.67 14.28 10.94
10/28/2022 7:00:00 AM 5.8 42.44 0.063 7.67 14.35 10.93
10/28/2022 7:15:00 AM 5.75 42.35 0.062 7.67 15.19 11.06
10/28/2022 7:30:00 AM 5.69 42.242 0.062 7.67 16.23 10.92
10/28/2022 7:45:00 AM 5.64 42.152 0.062 7.67 14.9 10.91
10/28/2022 8:00:00 AM 5.58 42.044 0.061 7.67 14.41 10.78
10/28/2022 8:15:00 AM 5.54 41.972 0.06 7.67 14 10.84
10/28/2022 8:30:00 AM 5.52 41.936 0.06 7.68 13.91 10.89
10/28/2022 8:45:00 AM 5.52 41.936 0.06 7.68 13.53 10.9
10/28/2022 9:00:00 AM 5.52 41.936 0.06 7.7 13.69 10.89
10/28/2022 9:15:00 AM 5.52 41.936 0.06 7.7 13.34 10.84
10/28/2022 9:30:00 AM 5.53 41.954 0.059 7.71 13.51 10.83
10/28/2022 9:45:00 AM 5.57 42.026 0.058 7.72 13.65 10.91
10/28/2022 10:00:00 AM 5.62 42.116 0.058 7.73 13.31 10.82
10/28/2022 10:15:00 AM 5.68 42.224 0.057 7.74 13.14 10.98
10/28/2022 10:30:00 AM 5.74 42.332 0.056 7.74 13.22 11.1
10/28/2022 10:45:00 AM 5.81 42.458 0.056 7.75 13.39 11.05
10/28/2022 11:00:00 AM 5.91 42.638 0.055 7.75 13.83 11.04
10/28/2022 11:15:00 AM 6.01 42.818 0.055 7.75 13.34 11.04
10/28/2022 11:30:00 AM 6.13 43.034 0.054 7.76 13.45 10.99
10/28/2022 11:45:00 AM 6.23 43.214 0.052 7.76 13.26 10.9
10/28/2022 12:00:00 PM 6.33 43.394 0.052 7.76 13.16 10.83
10/28/2022 12:15:00 PM 6.41 43.538 0.052 7.77 13.19 10.83
10/28/2022 12:30:00 PM 6.48 43.664 0.051 7.77 13.05 10.82
10/28/2022 12:45:00 PM 6.52 43.736 0.05 7.76 13.03 10.66
10/28/2022 1:00:00 PM 6.56 43.808 0.051 7.76 13.1 10.66
10/28/2022 1:15:00 PM 6.62 43.916 0.05 7.76 13.39 10.61
10/28/2022 1:30:00 PM 6.69 44.042 0.05 7.76 13.42 10.61
10/28/2022 1:45:00 PM 6.77 44.186 0.05 7.75 12.86 10.55
10/28/2022 2:00:00 PM 6.86 44.348 0.05 7.75 13.2 10.54
10/28/2022 2:15:00 PM 6.94 44.492 0.05 7.76 12.84 10.46
10/28/2022 2:30:00 PM 7.04 44.672 0.049 7.75 13.26 10.48
10/28/2022 2:45:00 PM 7.15 44.87 0.049 7.76 13.24 10.4
10/28/2022 3:00:00 PM 7.24 45.032 0.05 7.75 13.28 10.31
10/28/2022 3:15:00 PM 7.33 45.194 0.05 7.76 13.42 10.17
10/28/2022 3:30:00 PM 7.43 45.374 0.05 7.76 13.57 10.08
10/28/2022 3:45:00 PM 7.53 45.554 0.05 7.76 13.37 10.05
10/28/2022 4:00:00 PM 7.62 45.716 0.049 7.76 13.98 9.96
10/28/2022 4:15:00 PM 7.7 45.86 0.048 7.76 13.96 9.98
10/28/2022 4:30:00 PM 7.77 45.986 0.05 7.75 13.88 10.04
10/28/2022 4:45:00 PM 7.82 46.076 0.049 7.76 14.15 9.86
10/28/2022 5:00:00 PM 7.85 46.13 0.05 7.75 14.39 9.84
10/28/2022 5:15:00 PM 7.87 46.166 0.05 7.75 14.69 10
10/28/2022 5:30:00 PM 7.88 46.184 0.053 7.74 14.76 10.02
10/28/2022 5:45:00 PM 7.87 46.166 0.052 7.74 14.58 10.12
10/28/2022 6:00:00 PM 7.85 46.13 0.053 7.74 14.91 10.02
10/28/2022 6:15:00 PM 7.82 46.076 0.051 7.74 14.67 9.83
10/28/2022 6:30:00 PM 7.78 46.004 0.05 7.74 15.29 9.7
10/28/2022 6:45:00 PM 7.72 45.896 0.052 7.73 15.29 9.57
10/28/2022 7:00:00 PM 7.65 45.77 0.051 7.73 14.95 9.67
10/28/2022 7:15:00 PM 7.57 45.626 0.053 7.73 14.72 9.64
10/28/2022 7:30:00 PM 7.5 45.5 0.051 7.73 15.86 9.96
10/28/2022 7:45:00 PM 7.42 45.356 0.052 7.73 15.66 10.01
10/28/2022 8:00:00 PM 7.34 45.212 0.05 7.72 14.75 9.86
10/28/2022 8:15:00 PM 7.26 45.068 0.049 7.73 14.81 10.14
10/28/2022 8:30:00 PM 7.18 44.924 0.05 7.73 14.43 9.95
10/28/2022 8:45:00 PM 7.11 44.798 0.049 7.73 14.74 9.8
10/28/2022 9:00:00 PM 7.03 44.654 0.055 7.72 14.32 10.17
10/28/2022 9:15:00 PM 6.96 44.528 0.055 7.72 15.4 10.61
10/28/2022 9:30:00 PM 6.9 44.42 0.055 7.72 15.31 10.41
10/28/2022 9:45:00 PM 6.85 44.33 0.052 7.72 15.12 10.71
10/28/2022 10:00:00 PM 6.8 44.24 0.054 7.72 14.88 10.63
10/28/2022 10:15:00 PM 6.75 44.15 0.053 7.72 15.19 10.64
10/28/2022 10:30:00 PM 6.68 44.024 0.058 7.71 15.17 10.55
10/28/2022 10:45:00 PM 6.62 43.916 0.057 7.71 15.57 10.59
10/28/2022 11:00:00 PM 6.56 43.808 0.056 7.71 16.06 10.67
10/28/2022 11:15:00 PM 6.5 43.7 0.056 7.71 14.94 10.69
10/28/2022 11:30:00 PM 6.43 43.574 0.056 7.71 14.28 10.91
10/28/2022 11:45:00 PM 6.37 43.466 0.058 7.71 14.56 11
10/29/2022 12:00:00 AM 6.3 43.34 0.055 7.71 14.74 11.02
10/29/2022 12:15:00 AM 6.23 43.214 0.054 7.71 14.8 11.1
10/29/2022 12:30:00 AM 6.17 43.106 0.055 7.7 14.73 11.13
10/29/2022 12:45:00 AM 6.1 42.98 0.055 7.7 14.22 11.21
10/29/2022 1:00:00 AM 6.03 42.854 0.056 7.7 14.18 11.27
10/29/2022 1:15:00 AM 5.97 42.746 0.054 7.7 14.2 11.31
10/29/2022 1:30:00 AM 5.91 42.638 0.054 7.7 14.27 11.32
10/29/2022 1:45:00 AM 5.85 42.53 0.054 7.69 14.21 11.32
10/29/2022 2:00:00 AM 5.79 42.422 0.056 7.7 14.31 11.31
10/29/2022 2:15:00 AM 5.73 42.314 0.06 7.69 14.27 11.32
10/29/2022 2:30:00 AM 5.66 42.188 0.062 7.68 14.35 11.37
10/29/2022 2:45:00 AM 5.61 42.098 0.061 7.68 14.12 11.37
10/29/2022 3:00:00 AM 5.55 41.99 0.06 7.68 14.35 11.4
10/29/2022 3:15:00 AM 5.49 41.882 0.058 7.67 14.18 11.39
10/29/2022 3:30:00 AM 5.44 41.792 0.057 7.67 14.03 11.41
10/29/2022 3:45:00 AM 5.38 41.684 0.055 7.66 14.23 11.5
10/29/2022 4:00:00 AM 5.32 41.576 0.054 7.66 14.18 11.49
10/29/2022 4:15:00 AM 5.26 41.468 0.057 7.66 14.22 11.5
10/29/2022 4:30:00 AM 5.2 41.36 0.052 7.65 14.14 11.38
10/29/2022 4:45:00 AM 5.14 41.252 0.053 7.65 14.09 11.5
10/29/2022 5:00:00 AM 5.09 41.162 0.053 7.65 14.11 11.57
10/29/2022 5:15:00 AM 5.03 41.054 0.055 7.66 14.25 11.57
10/29/2022 5:30:00 AM 4.98 40.964 0.055 7.66 14.2 11.62
10/29/2022 5:45:00 AM 4.92 40.856 0.056 7.65 14.19 11.65
10/29/2022 6:00:00 AM 4.87 40.766 0.055 7.65 14.33 11.66
10/29/2022 6:15:00 AM 4.81 40.658 0.057 7.65 14.33 11.63
10/29/2022 6:30:00 AM 4.76 40.568 0.057 7.66 14.1 11.74
10/29/2022 6:45:00 AM 4.71 40.478 0.057 7.65 14.09 11.77
10/29/2022 7:00:00 AM 4.67 40.406 0.053 7.66 14.13 11.77
10/29/2022 7:15:00 AM -99999.99 -179968 -99999.99 -99999.99 -99999.99 -99999.99
10/29/2022 7:30:00 AM -99999.99 -179968 -99999.99 -99999.99 -99999.99 -99999.99
10/29/2022 7:45:00 AM -99999.99 -179968 -99999.99 -99999.99 -99999.99 -99999.99
10/29/2022 8:00:00 AM -99999.99 -179968 -99999.99 -99999.99 -99999.99 -99999.99
10/29/2022 8:15:00 AM 4.49 40.082 0.056 7.69 14.02 11.86
10/29/2022 8:30:00 AM 4.46 40.028 0.053 7.68 14.31 11.93
10/29/2022 8:45:00 AM 4.45 40.01 0.055 7.68 14.19 12
10/29/2022 9:00:00 AM 4.47 40.046 0.054 7.69 14.25 12.04
10/29/2022 9:15:00 AM 4.5 40.1 0.054 7.7 14.28 12.05
10/29/2022 9:30:00 AM 4.54 40.172 0.052 7.71 14.07 12.08
10/29/2022 9:45:00 AM 4.6 40.28 0.052 7.72 14.13 11.94
10/29/2022 10:00:00 AM 4.66 40.388 0.054 7.72 14.33 11.9
10/29/2022 10:15:00 AM 4.73 40.514 0.053 7.73 14.39 11.86
10/29/2022 10:30:00 AM 4.83 40.694 0.053 7.73 14.37 11.77
10/29/2022 10:45:00 AM 4.93 40.874 0.054 7.73 14.21 11.68
10/29/2022 11:00:00 AM 5.02 41.036 0.055 7.74 14.41 11.74
10/29/2022 11:15:00 AM 5.1 41.18 0.056 7.74 14.31 11.61
10/29/2022 11:30:00 AM 5.2 41.36 0.058 7.74 14.31 11.55
10/29/2022 11:45:00 AM 5.31 41.558 0.059 7.74 14.09 11.52
10/29/2022 12:00:00 PM 5.44 41.792 0.059 7.75 14.02 11.46
10/29/2022 12:15:00 PM 5.55 41.99 0.059 7.75 14.17 11.49
10/29/2022 12:30:00 PM 5.65 42.17 0.06 7.75 14.06 11.41
10/29/2022 12:45:00 PM 5.73 42.314 0.06 7.75 14.32 11.36
10/29/2022 1:00:00 PM 5.83 42.494 0.061 7.75 14.24 11.34
10/29/2022 1:15:00 PM 5.91 42.638 0.06 7.75 14.29 11.29
10/29/2022 1:30:00 PM 6.01 42.818 0.06 7.75 14.21 11.27
10/29/2022 1:45:00 PM 6.13 43.034 0.061 7.76 14.21 11.23
10/29/2022 2:00:00 PM 6.23 43.214 0.06 7.76 14.45 11.15
10/29/2022 2:15:00 PM 6.31 43.358 0.061 7.76 14.49 11.1
10/29/2022 2:30:00 PM 6.38 43.484 0.059 7.76 14.52 11.03
10/29/2022 2:45:00 PM 6.43 43.574 0.059 7.76 14.56 11.02
10/29/2022 3:00:00 PM 6.48 43.664 0.059 7.75 14.6 11.02
10/29/2022 3:15:00 PM 6.54 43.772 0.06 7.75 14.84 10.97
10/29/2022 3:30:00 PM 6.58 43.844 0.059 7.75 14.99 10.95
10/29/2022 3:45:00 PM 6.63 43.934 0.059 7.75 14.99 10.85
10/29/2022 4:00:00 PM 6.66 43.988 0.06 7.75 14.86 10.75
10/29/2022 4:15:00 PM 6.69 44.042 0.059 7.74 14.98 10.75
10/29/2022 4:30:00 PM 6.72 44.096 0.06 7.75 14.91 10.64
10/29/2022 4:45:00 PM 6.73 44.114 0.061 7.75 15.06 10.64
10/29/2022 5:00:00 PM -99999.99 -179968 -99999.99 -99999.99 -99999.99 -99999.99
10/29/2022 5:15:00 PM 6.73 44.114 0.061 7.75 15.42 10.48
10/29/2022 5:30:00 PM 6.72 44.096 0.062 7.74 15.65 10.46
10/29/2022 5:45:00 PM 6.7 44.06 0.062 7.74 15.55 10.34
10/29/2022 6:00:00 PM 6.67 44.006 0.061 7.75 15.18 10.41
10/29/2022 6:15:00 PM 6.63 43.934 0.061 7.74 16.04 10.49
10/29/2022 6:30:00 PM 6.59 43.862 0.062 7.74 15.85 10.72
10/29/2022 6:45:00 PM 6.55 43.79 0.061 7.74 16.43 10.63
10/29/2022 7:00:00 PM 6.5 43.7 0.061 7.73 15.87 10.73
10/29/2022 7:15:00 PM 6.45 43.61 0.059 7.73 16.06 10.75
10/29/2022 7:30:00 PM 6.4 43.52 0.058 7.73 16.09 10.68
10/29/2022 7:45:00 PM 6.36 43.448 0.055 7.73 15.96 10.79
10/29/2022 8:00:00 PM 6.3 43.34 0.055 7.72 15.78 10.91
10/29/2022 8:15:00 PM 6.25 43.25 0.056 7.73 16.56 10.95
10/29/2022 8:30:00 PM 6.2 43.16 0.056 7.72 16.14 10.97
10/29/2022 8:45:00 PM 6.15 43.07 0.056 7.73 16.05 10.97
10/29/2022 9:00:00 PM 6.09 42.962 0.056 7.73 16.19 10.96
10/29/2022 9:15:00 PM 6.04 42.872 0.056 7.72 15.86 10.82
10/29/2022 9:30:00 PM 5.99 42.782 0.056 7.72 15.7 10.85
10/29/2022 9:45:00 PM 5.94 42.692 0.056 7.72 15.82 10.86
10/29/2022 10:00:00 PM 5.88 42.584 0.056 7.72 15.83 10.9
10/29/2022 10:15:00 PM -99999.99 -179968 -99999.99 -99999.99 -99999.99 -99999.99
10/29/2022 10:30:00 PM -99999.99 -179968 -99999.99 -99999.99 -99999.99 -99999.99
10/29/2022 10:45:00 PM -99999.99 -179968 -99999.99 -99999.99 -99999.99 -99999.99
10/29/2022 11:00:00 PM -99999.99 -179968 -99999.99 -99999.99 -99999.99 -99999.99
10/29/2022 11:15:00 PM -99999.99 -179968 -99999.99 -99999.99 -99999.99 -99999.99
10/29/2022 11:30:00 PM -99999.99 -179968 -99999.99 -99999.99 -99999.99 -99999.99
10/29/2022 11:45:00 PM -99999.99 -179968 -99999.99 -99999.99 -99999.99 -99999.99
10/30/2022 12:00:00 AM -99999.99 -179968 -99999.99 -99999.99 -99999.99 -99999.99
10/30/2022 12:15:00 AM -99999.99 -179968 -99999.99 -99999.99 -99999.99 -99999.99
10/30/2022 12:30:00 AM -99999.99 -179968 -99999.99 -99999.99 -99999.99 -99999.99
10/30/2022 12:45:00 AM -99999.99 -179968 -99999.99 -99999.99 -99999.99 -99999.99
10/30/2022 1:00:00 AM -99999.99 -179968 -99999.99 -99999.99 -99999.99 -99999.99
10/30/2022 1:15:00 AM -99999.99 -179968 -99999.99 -99999.99 -99999.99 -99999.99
10/30/2022 1:30:00 AM -99999.99 -179968 -99999.99 -99999.99 -99999.99 -99999.99
10/30/2022 1:45:00 AM -99999.99 -179968 -99999.99 -99999.99 -99999.99 -99999.99
10/30/2022 2:00:00 AM -99999.99 -179968 -99999.99 -99999.99 -99999.99 -99999.99
10/30/2022 2:15:00 AM -99999.99 -179968 -99999.99 -99999.99 -99999.99 -99999.99
10/30/2022 2:30:00 AM -99999.99 -179968 -99999.99 -99999.99 -99999.99 -99999.99
10/30/2022 2:45:00 AM -99999.99 -179968 -99999.99 -99999.99 -99999.99 -99999.99
10/30/2022 3:00:00 AM -99999.99 -179968 -99999.99 -99999.99 -99999.99 -99999.99
10/30/2022 3:15:00 AM -99999.99 -179968 -99999.99 -99999.99 -99999.99 -99999.99
10/30/2022 3:30:00 AM -99999.99 -179968 -99999.99 -99999.99 -99999.99 -99999.99
10/30/2022 3:45:00 AM -99999.99 -179968 -99999.99 -99999.99 -99999.99 -99999.99
10/30/2022 4:00:00 AM -99999.99 -179968 -99999.99 -99999.99 -99999.99 -99999.99
10/30/2022 4:15:00 AM -99999.99 -179968 -99999.99 -99999.99 -99999.99 -99999.99
10/30/2022 4:30:00 AM -99999.99 -179968 -99999.99 -99999.99 -99999.99 -99999.99
10/30/2022 4:45:00 AM -99999.99 -179968 -99999.99 -99999.99 -99999.99 -99999.99
10/30/2022 5:00:00 AM -99999.99 -179968 -99999.99 -99999.99 -99999.99 -99999.99
10/30/2022 5:15:00 AM -99999.99 -179968 -99999.99 -99999.99 -99999.99 -99999.99
10/30/2022 5:30:00 AM -99999.99 -179968 -99999.99 -99999.99 -99999.99 -99999.99
10/30/2022 5:45:00 AM -99999.99 -179968 -99999.99 -99999.99 -99999.99 -99999.99
10/30/2022 6:00:00 AM -99999.99 -179968 -99999.99 -99999.99 -99999.99 -99999.99
10/30/2022 6:15:00 AM -99999.99 -179968 -99999.99 -99999.99 -99999.99 -99999.99
10/30/2022 6:30:00 AM -99999.99 -179968 -99999.99 -99999.99 -99999.99 -99999.99
10/30/2022 6:45:00 AM -99999.99 -179968 -99999.99 -99999.99 -99999.99 -99999.99
10/30/2022 7:00:00 AM -99999.99 -179968 -99999.99 -99999.99 -99999.99 -99999.99
10/30/2022 7:15:00 AM -99999.99 -179968 -99999.99 -99999.99 -99999.99 -99999.99
10/30/2022 7:30:00 AM -99999.99 -179968 -99999.99 -99999.99 -99999.99 -99999.99
10/30/2022 7:45:00 AM -99999.99 -179968 -99999.99 -99999.99 -99999.99 -99999.99
10/30/2022 8:00:00 AM -99999.99 -179968 -99999.99 -99999.99 -99999.99 -99999.99
10/30/2022 8:15:00 AM 3.84 38.912 0.061 7.68 14.89 11.33
10/30/2022 8:30:00 AM 3.82 38.876 0.062 7.68 14.89 11.61
10/30/2022 8:45:00 AM 3.84 38.912 0.062 7.69 14.93 11.52
10/30/2022 9:00:00 AM 3.87 38.966 0.061 7.7 15.19 11.64
10/30/2022 9:15:00 AM 3.91 39.038 0.062 7.71 15.39 11.64
10/30/2022 9:30:00 AM 3.97 39.146 0.064 7.71 15.19 11.74
10/30/2022 9:45:00 AM 4.04 39.272 0.065 7.72 14.82 11.73
10/30/2022 10:00:00 AM 4.13 39.434 0.063 7.72 14.82 11.74
10/30/2022 10:15:00 AM 4.24 39.632 0.062 7.73 14.94 11.71
10/30/2022 10:30:00 AM 4.36 39.848 0.062 7.73 15.01 11.77
10/30/2022 10:45:00 AM 4.47 40.046 0.061 7.74 14.81 11.68
10/30/2022 11:00:00 AM 4.55 40.19 0.062 7.74 14.66 11.63
10/30/2022 11:15:00 AM 4.64 40.352 0.062 7.74 14.99 11.5
10/30/2022 11:30:00 AM 4.74 40.532 0.064 7.74 15.02 11.48
10/30/2022 11:45:00 AM 4.85 40.73 0.066 7.74 15.06 11.47
10/30/2022 12:00:00 PM 4.98 40.964 0.066 7.75 15.1 11.37
10/30/2022 12:15:00 PM 5.11 41.198 0.067 7.75 15.2 11.37
10/30/2022 12:30:00 PM 5.22 41.396 0.067 7.75 15.33 11.34
10/30/2022 12:45:00 PM 5.32 41.576 0.067 7.76 14.92 11.26
10/30/2022 1:00:00 PM 5.4 41.72 0.066 7.75 14.94 11.29
10/30/2022 1:15:00 PM 5.52 41.936 0.067 7.76 15.66 11.24
10/30/2022 1:30:00 PM 5.65 42.17 0.066 7.76 15.22 11.17
10/30/2022 1:45:00 PM 5.77 42.386 0.066 7.76 15.47 11.16
10/30/2022 2:00:00 PM 5.89 42.602 0.063 7.76 15.44 11.12
10/30/2022 2:15:00 PM 6 42.8 0.064 7.76 15.29 10.98
10/30/2022 2:30:00 PM 6.08 42.944 0.065 7.76 15.37 10.94
10/30/2022 2:45:00 PM 6.17 43.106 0.063 7.76 15.42 10.97
10/30/2022 3:00:00 PM 6.25 43.25 0.063 7.76 15.5 10.85
10/30/2022 3:15:00 PM 6.32 43.376 0.061 7.76 15.7 10.84
10/30/2022 3:30:00 PM 6.39 43.502 0.063 7.76 16.07 10.7
10/30/2022 3:45:00 PM 6.48 43.664 0.061 7.77 15.63 10.81
10/30/2022 4:00:00 PM 6.55 43.79 0.062 7.77 15.93 10.78
10/30/2022 4:15:00 PM 6.59 43.862 0.062 7.77 15.82 10.77
10/30/2022 4:30:00 PM 6.62 43.916 0.062 7.77 15.84 10.79
10/30/2022 4:45:00 PM 6.65 43.97 0.064 7.76 16.01 10.71
10/30/2022 5:00:00 PM 6.68 44.024 0.066 7.77 16 10.71
10/30/2022 5:15:00 PM 6.67 44.006 0.067 7.75 16.1 10.34
10/30/2022 5:30:00 PM 6.65 43.97 0.067 7.75 16.41 10.59
10/30/2022 5:45:00 PM 6.62 43.916 0.066 7.75 16.22 10.53
10/30/2022 6:00:00 PM 6.59 43.862 0.069 7.74 16.26 10.5
10/30/2022 6:15:00 PM 6.55 43.79 0.068 7.73 16.59 10.57
10/30/2022 6:30:00 PM 6.51 43.718 0.067 7.73 16.41 10.57
10/30/2022 6:45:00 PM 6.47 43.646 0.067 7.74 16.48 10.62
10/30/2022 7:00:00 PM 6.43 43.574 0.066 7.73 16.42 10.69
10/30/2022 7:15:00 PM 6.41 43.538 0.066 7.73 16.39 10.73
10/30/2022 7:30:00 PM 6.38 43.484 0.067 7.73 16.8 10.68
10/30/2022 7:45:00 PM 6.37 43.466 0.067 7.73 16.67 10.67
10/30/2022 8:00:00 PM 6.36 43.448 0.066 7.73 16.68 10.72
10/30/2022 8:15:00 PM 6.35 43.43 0.064 7.72 16.59 10.72
10/30/2022 8:30:00 PM 6.35 43.43 0.068 7.72 16.67 10.7
10/30/2022 8:45:00 PM 6.35 43.43 0.066 7.72 17.3 10.65
10/30/2022 9:00:00 PM 6.36 43.448 0.063 7.73 16.94 10.66
10/30/2022 9:15:00 PM 6.36 43.448 0.062 7.72 16.65 10.61
10/30/2022 9:30:00 PM 6.33 43.394 0.063 7.72 16.64 10.73
10/30/2022 9:45:00 PM 6.31 43.358 0.063 7.72 16.74 10.92
10/30/2022 10:00:00 PM 6.28 43.304 0.062 7.72 16.58 10.9
10/30/2022 10:15:00 PM 6.27 43.286 0.063 7.72 16.66 10.88
10/30/2022 10:30:00 PM 6.26 43.268 0.063 7.72 16.74 10.9
10/30/2022 10:45:00 PM 6.25 43.25 0.062 7.72 17.06 10.72
10/30/2022 11:00:00 PM 6.24 43.232 0.063 7.72 16.52 10.72
10/30/2022 11:15:00 PM 6.24 43.232 0.064 7.71 16.47 10.75
10/30/2022 11:30:00 PM 6.22 43.196 0.064 7.72 16.56 10.71
10/30/2022 11:45:00 PM 6.2 43.16 0.064 7.72 16.39 10.73
10/31/2022 12:00:00 AM 6.17 43.106 0.063 7.72 16.41 10.73
10/31/2022 12:15:00 AM 6.15 43.07 0.064 7.72 16.42 10.62
10/31/2022 12:30:00 AM 6.11 42.998 0.062 7.71 16.56 10.63
10/31/2022 12:45:00 AM 6.07 42.926 0.063 7.71 16.47 10.67
10/31/2022 1:00:00 AM 6.04 42.872 0.062 7.71 16.41 10.66
10/31/2022 1:15:00 AM 6 42.8 0.062 7.71 17.04 10.69
10/31/2022 1:30:00 AM 5.97 42.746 0.064 7.71 16.7 10.73
10/31/2022 1:45:00 AM 5.94 42.692 0.061 7.71 16.34 10.72
10/31/2022 2:00:00 AM 5.9 42.62 0.062 7.71 16.51 10.76
10/31/2022 2:15:00 AM 5.87 42.566 0.064 7.71 16.42 10.77
10/31/2022 2:30:00 AM 5.84 42.512 0.065 7.71 16.68 10.71
10/31/2022 2:45:00 AM 5.8 42.44 0.064 7.71 16.4 10.61
10/31/2022 3:00:00 AM 5.76 42.368 0.065 7.71 16.61 10.8
10/31/2022 3:15:00 AM 5.72 42.296 0.067 7.71 16.41 10.86
10/31/2022 3:30:00 AM 5.68 42.224 0.068 7.71 16.42 10.9
10/31/2022 3:45:00 AM 5.65 42.17 0.065 7.7 16.38 10.96
10/31/2022 4:00:00 AM 5.61 42.098 0.066 7.7 16.81 10.93
10/31/2022 4:15:00 AM 5.59 42.062 0.066 7.7 16.52 10.94
10/31/2022 4:30:00 AM 5.58 42.044 0.068 7.71 16.36 10.96
10/31/2022 4:45:00 AM 5.58 42.044 0.065 7.71 16.31 10.99
10/31/2022 5:00:00 AM 5.58 42.044 0.064 7.71 16.23 10.98
10/31/2022 5:15:00 AM 5.57 42.026 0.061 7.71 16.35 10.99
10/31/2022 5:30:00 AM 5.55 41.99 0.06 7.7 16.24 11.04
10/31/2022 5:45:00 AM 5.53 41.954 0.06 7.71 16.39 11.06
10/31/2022 6:00:00 AM 5.51 41.918 0.059 7.71 16.22 11.09
10/31/2022 6:15:00 AM 5.48 41.864 0.058 7.71 16.28 11.07
10/31/2022 6:30:00 AM 5.45 41.81 0.057 7.71 16.19 11.08
10/31/2022 6:45:00 AM 5.42 41.756 0.057 7.71 16.4 11.07
10/31/2022 7:00:00 AM 5.39 41.702 0.057 7.71 16.19 11.09
10/31/2022 7:15:00 AM 5.36 41.648 0.056 7.71 16.14 10.96
10/31/2022 7:30:00 AM 5.34 41.612 0.057 7.7 16.17 11.08
10/31/2022 7:45:00 AM 5.32 41.576 0.057 7.7 15.99 11.16
10/31/2022 8:00:00 AM 5.31 41.558 0.056 7.71 16 11.2
10/31/2022 8:15:00 AM 5.31 41.558 0.057 7.71 16.1 11.16
10/31/2022 8:30:00 AM 5.34 41.612 0.057 7.72 16.23 11.07
10/31/2022 8:45:00 AM 5.41 41.738 0.058 7.72 16.21 11.13
10/31/2022 9:00:00 AM 5.49 41.882 0.06 7.72 16.36 11.04
10/31/2022 9:15:00 AM 5.58 42.044 0.059 7.73 16.19 11.08
10/31/2022 9:30:00 AM 5.66 42.188 0.058 7.73 17.18 11.08
10/31/2022 9:45:00 AM 5.76 42.368 0.059 7.73 16.59 11.08
10/31/2022 10:00:00 AM 5.88 42.584 0.058 7.74 16.16 11.03
10/31/2022 10:15:00 AM 5.99 42.782 0.058 7.74 16.62 11.03
10/31/2022 10:30:00 AM 6.12 43.016 0.056 7.74 16.44 11.03
10/31/2022 10:45:00 AM 6.22 43.196 0.055 7.74 16.59 10.98
10/31/2022 11:00:00 AM 6.31 43.358 0.056 7.74 16.49 10.95
10/31/2022 11:15:00 AM 6.42 43.556 0.054 7.75 16.31 10.91
10/31/2022 11:30:00 AM 6.57 43.826 0.05 7.76 16.34 10.97
10/31/2022 11:45:00 AM 6.7 44.06 0.048 7.76 16.33 10.95
10/31/2022 12:00:00 PM 6.83 44.294 0.047 7.76 16.44 10.95
10/31/2022 12:15:00 PM 6.96 44.528 0.048 7.76 16.26 10.88
10/31/2022 12:30:00 PM 7.09 44.762 0.048 7.76 16.36 10.84
10/31/2022 12:45:00 PM 7.21 44.978 0.046 7.76 17.61 10.77
10/31/2022 1:00:00 PM 7.36 45.248 0.048 7.76 16.51 10.75
10/31/2022 1:15:00 PM 7.48 45.464 0.048 7.77 16.62 10.7
10/31/2022 1:30:00 PM 7.59 45.662 0.049 7.77 17.22 10.71
10/31/2022 1:45:00 PM 7.71 45.878 0.046 7.77 16.72 10.61
10/31/2022 2:00:00 PM 7.84 46.112 0.046 7.77 16.74 10.44
10/31/2022 2:15:00 PM 7.94 46.292 0.046 7.77 16.7 10.44
10/31/2022 2:30:00 PM 8.05 46.49 0.046 7.77 16.99 10.42
10/31/2022 2:45:00 PM 8.12 46.616 0.046 7.77 16.98 10.36
10/31/2022 3:00:00 PM 8.15 46.67 0.046 7.77 16.95 10.48
10/31/2022 3:15:00 PM 8.2 46.76 0.046 7.77 17.42 10.31
10/31/2022 3:30:00 PM 8.29 46.922 0.047 7.77 17.1 10.38
10/31/2022 3:45:00 PM 8.34 47.012 0.048 7.77 17.24 10.4
10/31/2022 4:00:00 PM 8.35 47.03 0.047 7.77 17.29 10.48
10/31/2022 4:15:00 PM 8.35 47.03 0.047 7.77 17.71 10.37
10/31/2022 4:30:00 PM 8.37 47.066 0.047 7.77 17.65 10.31
10/31/2022 4:45:00 PM 8.4 47.12 0.046 7.77 17.59 10.33
10/31/2022 5:00:00 PM 8.41 47.138 0.047 7.76 17.78 10.3
10/31/2022 5:15:00 PM 8.42 47.156 0.047 7.75 18.55 10.26
10/31/2022 5:30:00 PM 8.42 47.156 0.047 7.75 17.65 10.23
10/31/2022 5:45:00 PM 8.41 47.138 0.047 7.75 18.57 10.17
10/31/2022 6:00:00 PM 8.39 47.102 0.049 7.74 18.02 10.19
10/31/2022 6:15:00 PM 8.38 47.084 0.049 7.74 18.47 10.15
10/31/2022 6:30:00 PM 8.36 47.048 0.047 7.73 18.73 10.11
10/31/2022 6:45:00 PM 8.35 47.03 0.047 7.73 18.81 10.07
10/31/2022 7:00:00 PM 8.34 47.012 0.047 7.73 18.45 9.94
10/31/2022 7:15:00 PM 8.34 47.012 0.046 7.72 18.55 9.85
10/31/2022 7:30:00 PM 8.33 46.994 0.045 7.72 19.34 9.99
10/31/2022 7:45:00 PM 8.32 46.976 0.045 7.72 18.52 10.07
10/31/2022 8:00:00 PM 8.31 46.958 0.046 7.71 19.48 10.16
10/31/2022 8:15:00 PM 8.31 46.958 0.046 7.72 19.07 10.09
10/31/2022 8:30:00 PM 8.31 46.958 0.046 7.71 19.03 9.79
10/31/2022 8:45:00 PM 8.31 46.958 0.046 7.66 27.84 9.98
10/31/2022 9:00:00 PM 8.31 46.958 0.05 7.71 25.39 9.75
10/31/2022 9:15:00 PM 8.31 46.958 0.049 7.71 22.18 9.76
10/31/2022 9:30:00 PM 8.32 46.976 0.049 7.71 21.16 9.62
10/31/2022 9:45:00 PM 8.32 46.976 0.049 7.71 21.67 9.68
10/31/2022 10:00:00 PM 8.34 47.012 0.049 7.7 21.63 9.76
10/31/2022 10:15:00 PM 8.34 47.012 0.048 7.69 21.44 9.5
10/31/2022 10:30:00 PM 8.33 46.994 0.047 7.7 24.48 9.33
10/31/2022 10:45:00 PM 8.32 46.976 0.047 7.69 21.93 9.55
10/31/2022 11:00:00 PM 8.33 46.994 0.047 7.68 21.43 9.63
10/31/2022 11:15:00 PM 8.34 47.012 0.046 7.68 21.79 9.69
10/31/2022 11:30:00 PM 8.34 47.012 0.046 7.69 21.54 9.85
10/31/2022 11:45:00 PM 8.34 47.012 0.046 7.69 21.41 10.07
11/1/2022 12:00:00 AM 8.35 47.03 0.046 7.69 21.13 10
11/1/2022 12:15:00 AM 8.36 47.048 0.046 7.69 21.3 10.09
11/1/2022 12:30:00 AM 8.37 47.066 0.046 7.68 20.92 10.16
11/1/2022 12:45:00 AM 8.38 47.084 0.046 7.69 22.37 10.1
11/1/2022 1:00:00 AM 8.38 47.084 0.046 7.68 22.11 10.23
11/1/2022 1:15:00 AM 8.39 47.102 0.046 7.68 23.74 10.2
11/1/2022 1:30:00 AM 8.4 47.12 0.046 7.68 22.91 10.03
11/1/2022 1:45:00 AM 8.41 47.138 0.046 7.67 22.06 9.98
11/1/2022 2:00:00 AM 8.41 47.138 0.046 7.67 22.54 9.77
11/1/2022 2:15:00 AM 8.42 47.156 0.047 7.67 39.36 10.12
11/1/2022 2:30:00 AM 8.43 47.174 0.049 7.67 26.92 10.15
11/1/2022 2:45:00 AM 8.44 47.192 0.05 7.67 21.88 10.14
11/1/2022 3:00:00 AM 8.45 47.21 0.05 7.67 20.18 10.24
11/1/2022 3:15:00 AM 8.46 47.228 0.05 7.67 19.87 10.23
11/1/2022 3:30:00 AM 8.46 47.228 0.049 7.67 20.91 10.46
11/1/2022 3:45:00 AM 8.47 47.246 0.049 7.67 19.53 10.4
11/1/2022 4:00:00 AM 8.48 47.264 0.05 7.66 18.61 10.08
11/1/2022 4:15:00 AM 8.49 47.282 0.05 7.66 18.93 9.55
11/1/2022 4:30:00 AM 8.5 47.3 0.05 7.66 18.98 9.21
11/1/2022 4:45:00 AM 8.51 47.318 0.05 7.66 19.04 9.37
11/1/2022 5:00:00 AM 8.52 47.336 0.049 7.67 18.05 9.34
11/1/2022 5:15:00 AM 8.53 47.354 0.048 7.66 16.93 9.49
11/1/2022 5:30:00 AM 8.53 47.354 0.048 7.66 16.54 9.58
11/1/2022 5:45:00 AM 8.54 47.372 0.048 7.65 17.44 9.78
11/1/2022 6:00:00 AM 8.55 47.39 0.048 7.66 17.65 10.02
11/1/2022 6:15:00 AM 8.56 47.408 0.048 7.65 16.54 9.98
11/1/2022 6:30:00 AM 8.57 47.426 0.048 7.66 18.34 10.16
11/1/2022 6:45:00 AM 8.58 47.444 0.048 7.66 18.13 10.4
11/1/2022 7:00:00 AM 8.59 47.462 0.048 7.65 18.02 10.46
11/1/2022 7:15:00 AM 8.59 47.462 0.048 7.65 17.45 10.48
11/1/2022 7:30:00 AM 8.6 47.48 0.048 7.65 18.04 10.52
11/1/2022 7:45:00 AM 8.61 47.498 0.047 7.65 18.06 10.37
11/1/2022 8:00:00 AM 8.62 47.516 0.047 7.65 17.84 10.13
11/1/2022 8:15:00 AM 8.63 47.534 0.048 7.65 37.44 10.06
11/1/2022 8:30:00 AM 8.65 47.57 0.048 7.65 132.53 9.96
11/1/2022 8:45:00 AM 8.66 47.588 0.048 7.65 87.74 9.63
11/1/2022 9:00:00 AM 8.67 47.606 0.048 7.65 151.75 9.61
11/1/2022 9:15:00 AM 8.69 47.642 0.049 7.65 219.55 9.63
11/1/2022 9:30:00 AM 8.72 47.696 0.05 7.66 83.24 9.73
11/1/2022 9:45:00 AM 8.75 47.75 0.049 7.67 517.85 9.94
11/1/2022 10:00:00 AM 8.79 47.822 0.05 7.68 1306.63 9.71
11/1/2022 10:15:00 AM 8.84 47.912 0.05 7.68 1817.55 9.66
11/1/2022 10:30:00 AM 8.89 48.002 0.05 7.67 1521.84 9.56
11/1/2022 10:45:00 AM 8.95 48.11 0.05 7.69 1469 9.26
11/1/2022 11:00:00 AM 9.05 48.29 0.05 7.71 1089.02 9.4
11/1/2022 11:15:00 AM 9.15 48.47 0.05 7.68 1023.74 9.77
11/1/2022 11:30:00 AM 9.23 48.614 0.051 7.7 1112.92 9.04
11/1/2022 11:45:00 AM 9.35 48.83 0.051 7.72 965.41 9.9
11/1/2022 12:00:00 PM 9.5 49.1 0.051 7.73 800.82 9.96
11/1/2022 12:15:00 PM 9.61 49.298 0.051 7.74 760.61 9.37
11/1/2022 12:30:00 PM 9.72 49.496 0.051 7.72 881.66 9.43
11/1/2022 12:45:00 PM 9.8 49.64 0.051 7.73 833.67 9.38
11/1/2022 1:00:00 PM 9.93 49.874 0.051 7.73 783.65 9.45
11/1/2022 1:15:00 PM 10.05 50.09 0.051 7.73 988.41 8.94
11/1/2022 1:30:00 PM 10.12 50.216 0.051 7.72 1191.18 9.04
11/1/2022 1:45:00 PM 10.19 50.342 0.051 7.72 1084.06 8.98
11/1/2022 2:00:00 PM 10.22 50.396 0.051 7.74 1069.1 8.96
11/1/2022 2:15:00 PM 10.22 50.396 0.051 7.73 976.32 8.62
11/1/2022 2:30:00 PM 10.29 50.522 0.051 7.74 827.15 8.06
11/1/2022 2:45:00 PM 10.31 50.558 0.051 7.74 764.06 8.09
11/1/2022 3:00:00 PM 10.38 50.684 0.051 7.73 990.65 8.36
11/1/2022 3:15:00 PM 10.47 50.846 0.051 7.73 798.48 8.43
11/1/2022 3:30:00 PM 10.53 50.954 0.051 7.74 728.34 8.34
11/1/2022 3:45:00 PM 10.6 51.08 0.051 7.74 955.1 8.98
11/1/2022 4:00:00 PM 10.63 51.134 0.051 7.74 1169.67 9.15
11/1/2022 4:15:00 PM 10.67 51.206 0.05 7.74 1165.91 8.28
11/1/2022 4:30:00 PM 10.7 51.26 0.05 7.74 985.24 8.85
11/1/2022 4:45:00 PM 10.73 51.314 0.05 7.73 841.76 7.93
11/1/2022 5:00:00 PM 10.72 51.296 0.05 7.73 801.21 8.6
11/1/2022 5:15:00 PM 10.69 51.242 0.05 7.73 1025.87 6.88
11/1/2022 5:30:00 PM 10.64 51.152 0.05 7.72 944.64 6.4
11/1/2022 5:45:00 PM 10.57 51.026 0.05 7.71 947.34 7.34
11/1/2022 6:00:00 PM 10.5 50.9 0.05 7.71 1037.07 5.92
11/1/2022 6:15:00 PM 10.42 50.756 0.05 7.7 1117.83 5.57
11/1/2022 6:30:00 PM 10.34 50.612 0.05 7.7 1122.97 5.55
11/1/2022 6:45:00 PM 10.26 50.468 0.05 7.7 1143.5 5.66
11/1/2022 7:00:00 PM 10.19 50.342 0.05 7.7 1099.79 5.55
11/1/2022 7:15:00 PM 10.11 50.198 0.05 7.7 1871.16 5.49
11/1/2022 7:30:00 PM 10.04 50.072 0.05 7.7 1456.53 5.5
11/1/2022 7:45:00 PM 9.98 49.964 0.05 7.69 1944.71 6.7
11/1/2022 8:00:00 PM 9.94 49.892 0.05 7.69 1037.9 7.25
11/1/2022 8:15:00 PM 9.92 49.856 0.05 7.69 6631.82 8
11/1/2022 8:30:00 PM 9.91 49.838 0.05 7.68 2002.41 8.09
11/1/2022 8:45:00 PM 9.9 49.82 0.05 7.68 1195.98 8.36
11/1/2022 9:00:00 PM 9.88 49.784 0.051 7.67 2140.2 8.44
11/1/2022 9:15:00 PM 9.86 49.748 0.051 7.67 1481.13 8.32
11/1/2022 9:30:00 PM 9.83 49.694 0.051 7.67 12728.46 8.39
11/1/2022 9:45:00 PM 9.79 49.622 0.051 7.67 6856.67 8.35
11/1/2022 10:00:00 PM 9.75 49.55 0.05 7.67 6720.65 8.6
11/1/2022 10:15:00 PM 9.71 49.478 0.05 7.67 5515.6 8.48
11/1/2022 10:30:00 PM 9.66 49.388 0.05 7.68 1999.55 8.52
11/1/2022 10:45:00 PM 9.6 49.28 0.05 7.68 3674.25 8.01
11/1/2022 11:00:00 PM 9.54 49.172 0.05 7.68 4059.23 7.73
11/1/2022 11:15:00 PM 9.49 49.082 0.05 7.68 232.99 8.76
11/1/2022 11:30:00 PM 9.44 48.992 0.049 7.69 153.87 8.97
11/1/2022 11:45:00 PM 9.38 48.884 0.05 7.69 225.46 8.79
11/2/2022 12:00:00 AM 9.33 48.794 0.049 7.7 248.46 8.14
11/2/2022 12:15:00 AM 9.27 48.686 0.049 7.69 189.21 7.99
11/2/2022 12:30:00 AM 9.22 48.596 0.049 7.69 478.68 7.79
11/2/2022 12:45:00 AM 9.16 48.488 0.05 7.69 251.81 8.91
11/2/2022 1:00:00 AM 9.1 48.38 0.049 7.69 177.58 7.79
11/2/2022 1:15:00 AM 9.04 48.272 0.049 7.69 164.2 8.23
11/2/2022 1:30:00 AM 8.98 48.164 0.049 7.69 152.7 8.6
11/2/2022 1:45:00 AM 8.93 48.074 0.049 7.69 159.32 8.67
11/2/2022 2:00:00 AM 8.89 48.002 0.049 7.69 139.24 8.73
11/2/2022 2:15:00 AM 8.85 47.93 0.049 7.69 158.49 8.87
11/2/2022 2:30:00 AM 8.81 47.858 0.049 7.69 145.16 8.86
11/2/2022 2:45:00 AM 8.76 47.768 0.049 7.69 157.09 8.78
11/2/2022 3:00:00 AM 8.71 47.678 0.05 7.69 156.87 8.8
11/2/2022 3:15:00 AM 8.69 47.642 0.05 7.69 294.09 8.86
11/2/2022 3:30:00 AM 8.67 47.606 0.05 7.69 233.03 8.82
11/2/2022 3:45:00 AM 8.67 47.606 0.05 7.69 216.46 8.84
11/2/2022 4:00:00 AM 8.67 47.606 0.05 7.69 489.66 8.83
11/2/2022 4:15:00 AM 8.67 47.606 0.05 7.69 691.01 8.61
11/2/2022 4:30:00 AM 8.68 47.624 0.05 7.69 630.21 8.66
11/2/2022 4:45:00 AM 8.68 47.624 0.05 7.7 644.15 8.38
11/2/2022 5:00:00 AM 8.68 47.624 0.05 7.7 894.59 8.45
11/2/2022 5:15:00 AM 8.68 47.624 0.049 7.7 1055.15 8.08
11/2/2022 5:30:00 AM 8.68 47.624 0.049 7.7 985.74 8.19
11/2/2022 5:45:00 AM 8.67 47.606 0.049 7.7 836.82 8.58
11/2/2022 6:00:00 AM 8.67 47.606 0.049 7.7 1006.84 8.53
11/2/2022 6:15:00 AM 8.66 47.588 0.049 7.71 773.69 8.59
11/2/2022 6:30:00 AM 8.64 47.552 0.049 7.71 897.66 8.77
11/2/2022 6:45:00 AM 8.63 47.534 0.049 7.71 880.17 8.69
11/2/2022 7:00:00 AM 8.62 47.516 0.049 7.71 751.99 8.63
11/2/2022 7:15:00 AM 8.6 47.48 0.049 7.7 334.31 8.75
11/2/2022 7:30:00 AM 8.59 47.462 0.049 7.7 144.53 8.91
11/2/2022 7:45:00 AM 8.57 47.426 0.049 7.7 152.34 8.9
11/2/2022 8:00:00 AM 8.56 47.408 0.049 7.71 208.6 9.03
11/2/2022 8:15:00 AM 8.55 47.39 0.049 7.71 190.55 8.84
11/2/2022 8:30:00 AM 8.55 47.39 0.049 7.71 170.1 8.94
11/2/2022 8:45:00 AM 8.55 47.39 0.049 7.71 157.58 8.92
11/2/2022 9:00:00 AM 8.56 47.408 0.049 7.72 169.57 8.82
11/2/2022 9:15:00 AM 8.57 47.426 0.049 7.72 215.67 8.87
11/2/2022 9:30:00 AM 8.58 47.444 0.049 7.72 190.26 9.24
11/2/2022 9:45:00 AM 8.61 47.498 0.049 7.73 202.63 9.09
11/2/2022 10:00:00 AM 8.65 47.57 0.049 7.73 212.35 8.92
11/2/2022 10:15:00 AM 8.69 47.642 0.049 7.73 232.68 9.12
11/2/2022 10:30:00 AM 8.75 47.75 0.049 7.74 199.17 9.09
11/2/2022 10:45:00 AM 8.81 47.858 0.049 7.74 185.67 9.19
11/2/2022 11:00:00 AM 8.9 48.02 0.049 7.74 171.19 9.23
11/2/2022 11:15:00 AM 8.99 48.182 0.049 7.74 164.19 9.33
11/2/2022 11:30:00 AM 9.01 48.218 0.049 7.74 157.52 9.3
11/2/2022 11:45:00 AM 9.03 48.254 0.049 7.74 153.25 9.29
11/2/2022 12:00:00 PM 9.06 48.308 0.049 7.74 215.15 9.23
11/2/2022 12:15:00 PM 9.08 48.344 0.049 7.74 242.32 9.28
11/2/2022 12:30:00 PM 9.11 48.398 0.049 7.74 263.31 9.36
11/2/2022 12:45:00 PM 9.13 48.434 0.049 7.73 242.95 9.4
11/2/2022 1:00:00 PM 9.16 48.488 0.049 7.73 269.83 9.44
11/2/2022 1:15:00 PM 9.2 48.56 0.05 7.73 287.46 9.28
11/2/2022 1:30:00 PM 9.26 48.668 0.05 7.73 379.84 9.26
11/2/2022 1:45:00 PM 9.31 48.758 0.05 7.73 380.28 9.36
11/2/2022 2:00:00 PM 9.37 48.866 0.05 7.74 348.85 9.37
11/2/2022 2:15:00 PM 9.39 48.902 0.05 7.73 369.6 9.34
11/2/2022 2:30:00 PM 9.42 48.956 0.05 7.73 391.99 9.38
11/2/2022 2:45:00 PM 9.43 48.974 0.05 7.73 409.51 9.14
11/2/2022 3:00:00 PM 9.45 49.01 0.05 7.74 403.76 9.08
11/2/2022 3:15:00 PM 9.47 49.046 0.05 7.73 401.1 9.21
11/2/2022 3:30:00 PM 9.49 49.082 0.05 7.73 383.66 9.2
11/2/2022 3:45:00 PM 9.51 49.118 0.05 7.73 392.01 9.19
11/2/2022 4:00:00 PM 9.53 49.154 0.05 7.73 398.3 9.24
11/2/2022 4:15:00 PM 9.54 49.172 0.05 7.73 393.88 9.23
11/2/2022 4:30:00 PM 9.55 49.19 0.05 7.73 386.73 9.27
11/2/2022 4:45:00 PM 9.55 49.19 0.05 7.73 405.5 9.14
11/2/2022 5:00:00 PM 9.55 49.19 0.05 7.72 397.36 9.01
11/2/2022 5:15:00 PM 9.53 49.154 0.05 7.72 386.05 8.72
11/2/2022 5:30:00 PM 9.5 49.1 0.05 7.72 393.98 8.6
11/2/2022 5:45:00 PM 9.47 49.046 0.05 7.71 390.14 8.53
11/2/2022 6:00:00 PM 9.42 48.956 0.05 7.71 391.11 8.52
11/2/2022 6:15:00 PM 9.37 48.866 0.049 7.71 389.4 8.39
11/2/2022 6:30:00 PM 9.31 48.758 0.05 7.71 381.95 8.55
11/2/2022 6:45:00 PM 9.25 48.65 0.05 7.71 389.18 8.56
11/2/2022 7:00:00 PM 9.19 48.542 0.05 7.71 385.32 8.73
11/2/2022 7:15:00 PM 9.13 48.434 0.05 7.71 378.84 8.74
11/2/2022 7:30:00 PM 9.07 48.326 0.05 7.71 372.19 8.41
11/2/2022 7:45:00 PM 9.01 48.218 0.05 7.7 410 7.93
11/2/2022 8:00:00 PM 8.95 48.11 0.05 7.71 398.43 7.86
11/2/2022 8:15:00 PM 8.89 48.002 0.05 7.7 385.78 7.76
11/2/2022 8:30:00 PM 8.83 47.894 0.05 7.7 389.55 8.11
11/2/2022 8:45:00 PM 8.78 47.804 0.05 7.7 550.87 8.26
11/2/2022 9:00:00 PM 8.73 47.714 0.051 7.7 1003.66 8.28
11/2/2022 9:15:00 PM 8.67 47.606 0.051 7.7 675.12 8.13
11/2/2022 9:30:00 PM 8.6 47.48 0.051 7.7 499.41 7.67
11/2/2022 9:45:00 PM 8.54 47.372 0.051 7.7 602.84 7.82
11/2/2022 10:00:00 PM 8.48 47.264 0.051 7.7 505.64 8.05
11/2/2022 10:15:00 PM 8.42 47.156 0.051 7.69 618.44 8.21
11/2/2022 10:30:00 PM 8.37 47.066 0.051 7.69 628.73 8.34
11/2/2022 10:45:00 PM 8.31 46.958 0.051 7.69 805.86 8.49
11/2/2022 11:00:00 PM 8.26 46.868 0.051 7.69 706.69 8.65
11/2/2022 11:15:00 PM 8.2 46.76 0.051 7.69 674.65 8.82
11/2/2022 11:30:00 PM 8.15 46.67 0.051 7.69 675.35 8.91
11/2/2022 11:45:00 PM 8.1 46.58 0.051 7.69 624.87 8.89
11/3/2022 12:00:00 AM 8.05 46.49 0.051 7.69 719.1 8.59
11/3/2022 12:15:00 AM 7.98 46.364 0.051 7.68 738.86 8.67
11/3/2022 12:30:00 AM 7.93 46.274 0.051 7.69 754.82 9.95
11/3/2022 12:45:00 AM 7.88 46.184 0.051 7.69 750.07 10.14
11/3/2022 1:00:00 AM 7.83 46.094 0.051 7.69 725.6 9.2
11/3/2022 1:15:00 AM 7.77 45.986 0.051 7.69 670.06 10.69
11/3/2022 1:30:00 AM 7.72 45.896 0.051 7.69 680.9 10.63
11/3/2022 1:45:00 AM 7.67 45.806 0.051 7.69 708.18 10.54
11/3/2022 2:00:00 AM 7.62 45.716 0.051 7.69 717.35 9.37
11/3/2022 2:15:00 AM 7.56 45.608 0.051 7.68 720.46 10.25
11/3/2022 2:30:00 AM 7.5 45.5 0.051 7.68 758.31 10.4
11/3/2022 2:45:00 AM 7.45 45.41 0.051 7.68 716.25 10.46
11/3/2022 3:00:00 AM 7.4 45.32 0.052 7.68 644.95 10.77
11/3/2022 3:15:00 AM 7.35 45.23 0.052 7.68 670.8 10.81
11/3/2022 3:30:00 AM 7.3 45.14 0.051 7.68 687.23 10.85
11/3/2022 3:45:00 AM 7.25 45.05 0.051 7.69 744.49 10.63
11/3/2022 4:00:00 AM 7.2 44.96 0.051 7.68 791.4 10.75
11/3/2022 4:15:00 AM 7.15 44.87 0.052 7.68 798.47 10.93
11/3/2022 4:30:00 AM 7.09 44.762 0.052 7.69 810.1 11.07
11/3/2022 4:45:00 AM 7.04 44.672 0.052 7.69 879.8 11.11
11/3/2022 5:00:00 AM 6.99 44.582 0.052 7.69 855.27 11.13
11/3/2022 5:15:00 AM 6.94 44.492 0.052 7.69 826.53 11.16
11/3/2022 5:30:00 AM 6.91 44.438 0.052 7.69 799.17 11.14
11/3/2022 5:45:00 AM 6.86 44.348 0.051 7.69 774.77 11.15
11/3/2022 6:00:00 AM -99999.99 -179968 -99999.99 -99999.99 -99999.99 -99999.99
11/3/2022 6:15:00 AM -99999.99 -179968 -99999.99 -99999.99 -99999.99 -99999.99
11/3/2022 6:30:00 AM -99999.99 -179968 -99999.99 -99999.99 -99999.99 -99999.99
11/3/2022 6:45:00 AM -99999.99 -179968 -99999.99 -99999.99 -99999.99 -99999.99
11/3/2022 7:00:00 AM -99999.99 -179968 -99999.99 -99999.99 -99999.99 -99999.99
11/3/2022 7:15:00 AM -99999.99 -179968 -99999.99 -99999.99 -99999.99 -99999.99
11/3/2022 7:30:00 AM -99999.99 -179968 -99999.99 -99999.99 -99999.99 -99999.99
11/3/2022 7:45:00 AM -99999.99 -179968 -99999.99 -99999.99 -99999.99 -99999.99
11/3/2022 8:00:00 AM -99999.99 -179968 -99999.99 -99999.99 -99999.99 -99999.99
11/3/2022 8:15:00 AM -99999.99 -179968 -99999.99 -99999.99 -99999.99 -99999.99
11/3/2022 8:30:00 AM -99999.99 -179968 -99999.99 -99999.99 -99999.99 -99999.99
11/3/2022 8:45:00 AM 6.41 43.538 0.051 7.71 853.61 11.43
11/3/2022 9:00:00 AM 6.43 43.574 0.052 7.71 834.72 11.44
11/3/2022 9:15:00 AM 6.45 43.61 0.052 7.72 845.85 11.42
11/3/2022 9:30:00 AM 6.48 43.664 0.051 7.72 860.41 11.42
11/3/2022 9:45:00 AM 6.53 43.754 0.051 7.72 817.76 11.37
11/3/2022 10:00:00 AM 6.59 43.862 0.052 7.72 819.75 11.38
11/3/2022 10:15:00 AM 6.66 43.988 0.052 7.72 830.82 11.31
11/3/2022 10:30:00 AM 6.76 44.168 0.052 7.72 797.99 11.34
11/3/2022 10:45:00 AM 6.86 44.348 0.051 7.72 710.95 11.35
11/3/2022 11:00:00 AM 6.94 44.492 0.051 7.73 684.74 11.35
11/3/2022 11:15:00 AM 7.02 44.636 0.052 7.73 691.95 11.32
11/3/2022 11:30:00 AM 7.11 44.798 0.051 7.73 646.43 11.3
11/3/2022 11:45:00 AM 7.23 45.014 0.052 7.73 660.08 11.29
11/3/2022 12:00:00 PM 7.35 45.23 0.051 7.73 640.61 11.25
11/3/2022 12:15:00 PM 7.49 45.482 0.051 7.74 658.48 11.19
11/3/2022 12:30:00 PM 7.62 45.716 0.052 7.75 643.31 11.13
11/3/2022 12:45:00 PM 7.74 45.932 0.051 7.75 670.85 11.08
11/3/2022 1:00:00 PM 7.85 46.13 0.052 7.75 638.47 11.04
11/3/2022 1:15:00 PM 7.98 46.364 0.051 7.75 569.34 11
11/3/2022 1:30:00 PM 8.08 46.544 0.051 7.75 647.95 10.97
11/3/2022 1:45:00 PM 8.19 46.742 0.051 7.75 723.88 10.93
11/3/2022 2:00:00 PM 8.27 46.886 0.051 7.75 488.32 10.9
11/3/2022 2:15:00 PM 8.35 47.03 0.052 7.75 550.9 10.88
11/3/2022 2:30:00 PM 8.42 47.156 0.052 7.76 452.21 10.85
11/3/2022 2:45:00 PM 8.47 47.246 0.052 7.75 495.64 10.84
11/3/2022 3:00:00 PM 8.53 47.354 0.052 7.76 480.06 10.81
11/3/2022 3:15:00 PM 8.57 47.426 0.052 7.75 387.47 10.8
11/3/2022 3:30:00 PM 8.62 47.516 0.052 7.75 444.06 10.78
11/3/2022 3:45:00 PM 8.66 47.588 0.052 7.75 420.93 10.76
11/3/2022 4:00:00 PM 8.69 47.642 0.052 7.75 457.67 10.76
11/3/2022 4:15:00 PM 8.71 47.678 0.052 7.75 439.94 10.75
11/3/2022 4:30:00 PM 8.72 47.696 0.051 7.74 488.3 10.73
11/3/2022 4:45:00 PM 8.72 47.696 0.051 7.74 435.54 10.73
11/3/2022 5:00:00 PM 8.72 47.696 0.051 7.74 491.8 10.71
11/3/2022 5:15:00 PM 8.71 47.678 0.051 7.74 486.86 10.7
11/3/2022 5:30:00 PM 8.68 47.624 0.052 7.73 565.87 10.72
11/3/2022 5:45:00 PM 8.66 47.588 0.051 7.73 570.54 10.58
11/3/2022 6:00:00 PM 8.62 47.516 0.051 7.73 483.57 10.56
11/3/2022 6:15:00 PM 8.58 47.444 0.051 7.73 446.67 10.01
11/3/2022 6:30:00 PM 8.54 47.372 0.051 7.72 441.92 10.3
11/3/2022 6:45:00 PM 8.5 47.3 0.051 7.73 428.81 10.3
11/3/2022 7:00:00 PM 8.45 47.21 0.051 7.72 433.17 10.31
11/3/2022 7:15:00 PM 8.4 47.12 0.051 7.72 473.27 10.32
11/3/2022 7:30:00 PM 8.35 47.03 0.051 7.72 418.28 10.31
11/3/2022 7:45:00 PM 8.31 46.958 0.05 7.72 427.68 10.26
11/3/2022 8:00:00 PM 8.26 46.868 0.05 7.72 431.31 10.31
11/3/2022 8:15:00 PM 8.22 46.796 0.05 7.72 410.51 10.14
11/3/2022 8:30:00 PM 8.17 46.706 0.05 7.72 418.33 10.11
11/3/2022 8:45:00 PM 8.13 46.634 0.05 7.72 411.69 10.05
11/3/2022 9:00:00 PM 8.08 46.544 0.05 7.71 407.06 10.08
11/3/2022 9:15:00 PM 8.04 46.472 0.05 7.71 412.28 10.08
11/3/2022 9:30:00 PM 7.99 46.382 0.05 7.71 378.77 10.14
11/3/2022 9:45:00 PM 7.94 46.292 0.05 7.71 416.02 10.14
11/3/2022 10:00:00 PM 7.9 46.22 0.05 7.71 374.74 9.88
11/3/2022 10:15:00 PM 7.85 46.13 0.05 7.71 400.26 9.53
11/3/2022 10:30:00 PM 7.8 46.04 0.05 7.71 393.88 9.38
11/3/2022 10:45:00 PM 7.76 45.968 0.05 7.7 407.89 9.57
11/3/2022 11:00:00 PM 7.71 45.878 0.05 7.7 412.27 9.71
11/3/2022 11:15:00 PM 7.67 45.806 0.049 7.7 375.67 9.73
11/3/2022 11:30:00 PM 7.62 45.716 0.05 7.7 389.4 9.63
11/3/2022 11:45:00 PM 7.58 45.644 0.05 7.7 399.81 9.66
11/4/2022 12:00:00 AM 7.53 45.554 0.05 7.7 406.05 9.59
11/4/2022 12:15:00 AM 7.49 45.482 0.05 7.7 394.31 9.69
11/4/2022 12:30:00 AM 7.45 45.41 0.049 7.7 410.76 9.66
11/4/2022 12:45:00 AM 7.4 45.32 0.049 7.69 419.19 9.56
11/4/2022 1:00:00 AM 7.36 45.248 0.049 7.69 412.67 9.77
11/4/2022 1:15:00 AM 7.32 45.176 0.049 7.69 421.64 9.81
11/4/2022 1:30:00 AM 7.28 45.104 0.05 7.69 427.16 9.79
11/4/2022 1:45:00 AM 7.24 45.032 0.05 7.69 436.44 9.84
11/4/2022 2:00:00 AM 7.2 44.96 0.05 7.69 452.6 9.89
11/4/2022 2:15:00 AM 7.16 44.888 0.049 7.69 461.31 10.13
11/4/2022 2:30:00 AM 7.13 44.834 0.049 7.69 466.45 10.31
11/4/2022 2:45:00 AM 7.09 44.762 0.05 7.69 456.62 10.4
11/4/2022 3:00:00 AM 7.06 44.708 0.049 7.69 450.06 10.22
11/4/2022 3:15:00 AM 7.02 44.636 0.05 7.69 454.47 9.68
11/4/2022 3:30:00 AM 6.99 44.582 0.049 7.69 436.49 9.3
11/4/2022 3:45:00 AM 6.95 44.51 0.049 7.69 431.15 8.79
11/4/2022 4:00:00 AM 6.92 44.456 0.049 7.69 411.9 8.47
11/4/2022 4:15:00 AM 6.89 44.402 0.049 7.69 401.54 7.74
11/4/2022 4:30:00 AM 6.86 44.348 0.049 7.69 379.01 7.53
11/4/2022 4:45:00 AM 6.83 44.294 0.049 7.69 391.48 7.44
11/4/2022 5:00:00 AM 6.8 44.24 0.049 7.69 378.46 7.27
11/4/2022 5:15:00 AM 6.77 44.186 0.049 7.69 362.28 7.35
11/4/2022 5:30:00 AM 6.74 44.132 0.049 7.69 381.25 7.49
11/4/2022 5:45:00 AM 6.72 44.096 0.049 7.69 383.51 7.55
11/4/2022 6:00:00 AM 6.69 44.042 0.049 7.69 404.55 7.61
11/4/2022 6:15:00 AM 6.67 44.006 0.049 7.69 397.61 7.65
11/4/2022 6:30:00 AM 6.64 43.952 0.05 7.69 387.99 7.62
11/4/2022 6:45:00 AM 6.62 43.916 0.05 7.69 384.3 7.6
11/4/2022 7:00:00 AM 6.6 43.88 0.049 7.69 398.51 7.65
11/4/2022 7:15:00 AM -99999.99 -179968 -99999.99 -99999.99 -99999.99 -99999.99
11/4/2022 7:30:00 AM -99999.99 -179968 -99999.99 -99999.99 -99999.99 -99999.99
11/4/2022 7:45:00 AM -99999.99 -179968 -99999.99 -99999.99 -99999.99 -99999.99
11/4/2022 8:00:00 AM -99999.99 -179968 -99999.99 -99999.99 -99999.99 -99999.99
11/4/2022 8:15:00 AM -99999.99 -179968 -99999.99 -99999.99 -99999.99 -99999.99
11/4/2022 8:30:00 AM 6.49 43.682 0.05 7.7 380.17 8.35
11/4/2022 8:45:00 AM 6.49 43.682 0.049 7.7 385.95 8.08
11/4/2022 9:00:00 AM 6.52 43.736 0.049 7.7 375.55 8.09
11/4/2022 9:15:00 AM 6.55 43.79 0.049 7.7 374.81 8.19
11/4/2022 9:30:00 AM 6.6 43.88 0.049 7.7 378.29 8.2
11/4/2022 9:45:00 AM 6.67 44.006 0.049 7.71 401.89 8.22
11/4/2022 10:00:00 AM 6.74 44.132 0.049 7.71 415.72 8.13
11/4/2022 10:15:00 AM 6.84 44.312 0.049 7.71 439.63 8.12
11/4/2022 10:30:00 AM 6.95 44.51 0.049 7.72 367.38 8.11
11/4/2022 10:45:00 AM 7.07 44.726 0.049 7.72 325.98 8.06
11/4/2022 11:00:00 AM 7.18 44.924 0.049 7.73 396.6 7.95
11/4/2022 11:15:00 AM 7.31 45.158 0.049 7.74 378.99 7.97
11/4/2022 11:30:00 AM 7.44 45.392 0.049 7.74 349.34 8.07
11/4/2022 11:45:00 AM 7.58 45.644 0.049 7.75 371.74 8.1
11/4/2022 12:00:00 PM 7.73 45.914 0.049 7.75 368.36 8.05
11/4/2022 12:15:00 PM 7.87 46.166 0.049 7.75 365.5 8.02
11/4/2022 12:30:00 PM 8.01 46.418 0.049 7.75 367.93 7.89
11/4/2022 12:45:00 PM 8.12 46.616 0.049 7.75 332.79 7.9
11/4/2022 1:00:00 PM 8.23 46.814 0.049 7.75 334.36 7.67
11/4/2022 1:15:00 PM 8.32 46.976 0.049 7.76 346.99 8.08
11/4/2022 1:30:00 PM 8.42 47.156 0.049 7.75 329.44 7.73
11/4/2022 1:45:00 PM 8.52 47.336 0.049 7.75 346.92 7.45
11/4/2022 2:00:00 PM 8.61 47.498 0.049 7.75 346.91 7.34
11/4/2022 2:15:00 PM 8.69 47.642 0.049 7.75 328.78 7.3
11/4/2022 2:30:00 PM 8.78 47.804 0.049 7.75 331.09 7.24
11/4/2022 2:45:00 PM 8.85 47.93 0.049 7.75 335.31 7.31
11/4/2022 3:00:00 PM 8.92 48.056 0.05 7.75 319.08 7.44
11/4/2022 3:15:00 PM 9.01 48.218 0.049 7.76 309.44 7.63
11/4/2022 3:30:00 PM 9.1 48.38 0.05 7.76 318.7 7.26
11/4/2022 3:45:00 PM 9.17 48.506 0.05 7.76 343.1 7.02
11/4/2022 4:00:00 PM 9.23 48.614 0.05 7.75 331.77 6.89
11/4/2022 4:15:00 PM 9.26 48.668 0.05 7.75 326.3 6.7
11/4/2022 4:30:00 PM 9.29 48.722 0.05 7.75 325.99 7.14
11/4/2022 4:45:00 PM 9.32 48.776 0.05 7.75 339.53 7.08
11/4/2022 5:00:00 PM 9.33 48.794 0.05 7.74 310.89 7.15
11/4/2022 5:15:00 PM 9.35 48.83 0.05 7.75 294.1 7.44
11/4/2022 5:30:00 PM 9.35 48.83 0.05 7.74 388.35 7.1
11/4/2022 5:45:00 PM 9.34 48.812 0.05 7.74 4400.02 7.09
11/4/2022 6:00:00 PM 9.32 48.776 0.05 7.73 210.1 7.25
11/4/2022 6:15:00 PM 9.29 48.722 0.05 7.72 106.82 6.88
11/4/2022 6:30:00 PM 9.25 48.65 0.049 7.72 126.44 6.97
11/4/2022 6:45:00 PM 9.22 48.596 0.049 7.72 118.57 7.02
11/4/2022 7:00:00 PM 9.19 48.542 0.049 7.72 120.29 7.27
11/4/2022 7:15:00 PM 9.16 48.488 0.048 7.71 279.22 7.78
11/4/2022 7:30:00 PM 9.13 48.434 0.048 7.71 204.45 7.58
11/4/2022 7:45:00 PM 9.1 48.38 0.048 7.71 176.18 7.5
11/4/2022 8:00:00 PM 9.08 48.344 0.048 7.71 359.29 7.57
11/4/2022 8:15:00 PM 9.05 48.29 0.047 7.71 629.45 7.78
11/4/2022 8:30:00 PM 9.03 48.254 0.047 7.71 831.52 7.73
11/4/2022 8:45:00 PM 9.01 48.218 0.047 7.71 525.25 7.57
11/4/2022 9:00:00 PM 9 48.2 0.047 7.71 417.5 7.55
11/4/2022 9:15:00 PM 8.98 48.164 0.047 7.72 231.6 7.52
11/4/2022 9:30:00 PM 8.97 48.146 0.047 7.72 280.16 7.45
11/4/2022 9:45:00 PM 8.96 48.128 0.047 7.72 460.15 7.36
11/4/2022 10:00:00 PM 8.95 48.11 0.047 7.72 178.68 7.34
11/4/2022 10:15:00 PM 8.95 48.11 0.047 7.72 204.77 7.28
11/4/2022 10:30:00 PM 8.94 48.092 0.047 7.72 210.13 7.28
11/4/2022 10:45:00 PM 8.93 48.074 0.047 7.72 242.26 7.15
11/4/2022 11:00:00 PM 8.93 48.074 0.047 7.72 223.22 7.06
11/4/2022 11:15:00 PM 8.92 48.056 0.047 7.72 247.29 6.92
11/4/2022 11:30:00 PM 8.92 48.056 0.047 7.71 252.85 6.87
11/4/2022 11:45:00 PM 8.92 48.056 0.047 7.71 260.99 6.99
11/5/2022 12:00:00 AM 8.92 48.056 0.046 7.71 303.72 7.12
11/5/2022 12:15:00 AM 8.91 48.038 0.047 7.71 256.97 7.24
11/5/2022 12:30:00 AM 8.91 48.038 0.047 7.71 190.16 7.28
11/5/2022 12:45:00 AM 8.9 48.02 0.047 7.71 189.33 7.16
11/5/2022 1:00:00 AM 8.9 48.02 0.047 7.71 185.02 7.19
11/5/2022 1:15:00 AM 8.91 48.038 0.048 7.71 204.84 7.08
11/5/2022 1:30:00 AM 8.92 48.056 0.048 7.71 239.38 7.01
11/5/2022 1:45:00 AM 8.93 48.074 0.047 7.71 200.8 6.84
11/5/2022 2:00:00 AM 8.93 48.074 0.047 7.71 281.66 6.76
11/5/2022 2:15:00 AM 8.94 48.092 0.048 7.71 271.1 6.63
11/5/2022 2:30:00 AM 8.94 48.092 0.048 7.71 243.57 6.53
11/5/2022 2:45:00 AM 8.94 48.092 0.048 7.71 224.8 6.34
11/5/2022 3:00:00 AM 8.94 48.092 0.048 7.71 252 6.28
11/5/2022 3:15:00 AM 8.97 48.146 0.048 7.71 277.51 6.24
11/5/2022 3:30:00 AM 9.02 48.236 0.048 7.71 298.25 6.2
11/5/2022 3:45:00 AM 9.07 48.326 0.048 7.71 224.47 6.13
11/5/2022 4:00:00 AM 9.09 48.362 0.048 7.71 342.75 5.87
11/5/2022 4:15:00 AM 9.11 48.398 0.048 7.7 261.67 5.55
11/5/2022 4:30:00 AM 9.13 48.434 0.048 7.71 229.14 5.3
11/5/2022 4:45:00 AM 9.16 48.488 0.048 7.7 253.89 4.92
11/5/2022 5:00:00 AM 9.19 48.542 0.048 7.71 313.86 4.54
11/5/2022 5:15:00 AM 9.21 48.578 0.048 7.71 186.21 4.2
11/5/2022 5:30:00 AM 9.26 48.668 0.048 7.71 214.21 4
11/5/2022 5:45:00 AM 9.31 48.758 0.049 7.71 191.91 3.83
11/5/2022 6:00:00 AM 9.35 48.83 0.049 7.71 185.84 3.93
11/5/2022 6:15:00 AM 9.4 48.92 0.049 7.71 186.44 4.56
11/5/2022 6:30:00 AM 9.44 48.992 0.049 7.7 194.32 5.21
11/5/2022 6:45:00 AM 9.48 49.064 0.05 7.71 258.43 6.19
11/5/2022 7:00:00 AM 9.51 49.118 0.05 7.7 171.87 6.29
11/5/2022 7:15:00 AM 9.55 49.19 0.05 7.7 155.04 6.57
11/5/2022 7:30:00 AM 9.6 49.28 0.05 7.7 174.29 6.49
11/5/2022 7:45:00 AM 9.64 49.352 0.05 7.7 169.4 6.66
11/5/2022 8:00:00 AM 9.69 49.442 0.05 7.7 165.06 6.44
11/5/2022 8:15:00 AM 9.73 49.514 0.05 7.7 216.3 6.59
11/5/2022 8:30:00 AM 9.78 49.604 0.05 7.71 238.6 6.59
11/5/2022 8:45:00 AM 9.86 49.748 0.05 7.72 393.01 6.54
11/5/2022 9:00:00 AM 9.94 49.892 0.05 7.73 494.64 6.34
11/5/2022 9:15:00 AM 10.02 50.036 0.05 7.73 638.44 6.31
11/5/2022 9:30:00 AM 10.11 50.198 0.05 7.74 783.22 6.09
11/5/2022 9:45:00 AM 10.21 50.378 0.05 7.74 385.7 6.09
11/5/2022 10:00:00 AM 10.33 50.594 0.05 7.75 445.98 6.2
11/5/2022 10:15:00 AM 10.49 50.882 0.05 7.76 530.43 6.09
11/5/2022 10:30:00 AM 10.7 51.26 0.05 7.76 1226.86 5.96
11/5/2022 10:45:00 AM 10.87 51.566 0.049 7.76 1247.39 5.67
11/5/2022 11:00:00 AM 11.03 51.854 0.049 7.77 1260.24 4.94
11/5/2022 11:15:00 AM 11.16 52.088 0.049 7.77 1015.81 4.65
11/5/2022 11:30:00 AM 11.28 52.304 0.05 7.77 1995.93 4.46
11/5/2022 11:45:00 AM 11.42 52.556 0.049 7.77 1886.66 4.41
11/5/2022 12:00:00 PM 11.57 52.826 0.049 7.77 1412.67 4.69
11/5/2022 12:15:00 PM 11.72 53.096 0.049 7.78 1375.79 5.42
11/5/2022 12:30:00 PM 11.86 53.348 0.05 7.78 1307.69 5.87
11/5/2022 12:45:00 PM 12 53.6 0.05 7.78 1665.84 6.08
11/5/2022 1:00:00 PM 12.14 53.852 0.05 7.78 1754.98 6.09
11/5/2022 1:15:00 PM 12.24 54.032 0.05 7.78 1928.42 6.16
11/5/2022 1:30:00 PM 12.34 54.212 0.05 7.78 908.82 5.94
11/5/2022 1:45:00 PM 12.45 54.41 0.05 7.78 559.74 5.96
11/5/2022 2:00:00 PM 12.57 54.626 0.05 7.78 733.3 5.66
11/5/2022 2:15:00 PM 12.65 54.77 0.051 7.77 964.26 5.74
11/5/2022 2:30:00 PM 12.72 54.896 0.051 7.77 687.53 5.7
11/5/2022 2:45:00 PM 12.77 54.986 0.051 7.77 2751.12 5.49
11/5/2022 3:00:00 PM 12.85 55.13 0.051 7.78 1411.63 5.13
11/5/2022 3:15:00 PM 12.88 55.184 0.05 7.77 1204.67 4.91
11/5/2022 3:30:00 PM 12.89 55.202 0.05 7.73 1128.9 4.73
11/5/2022 3:45:00 PM 12.92 55.256 0.051 7.76 2952.54 4.76
11/5/2022 4:00:00 PM 12.92 55.256 0.051 7.76 4004.89 4.84
11/5/2022 4:15:00 PM 12.91 55.238 0.051 7.76 2855.26 3.99
11/5/2022 4:30:00 PM 12.9 55.22 0.051 7.75 3392.71 3.8
11/5/2022 4:45:00 PM 12.91 55.238 0.051 7.75 2231.2 3.8
11/5/2022 5:00:00 PM 12.93 55.274 0.051 7.74 3658.52 3.73
11/5/2022 5:15:00 PM 12.93 55.274 0.051 7.76 3116.42 3.58
11/5/2022 5:30:00 PM 12.89 55.202 0.051 7.76 5490.52 3.31
11/5/2022 5:45:00 PM 12.84 55.112 0.051 7.74 16035.41 3.07
11/5/2022 6:00:00 PM 12.79 55.022 0.051 7.74 22587.01 2.84
11/5/2022 6:15:00 PM 12.75 54.95 0.051 7.73 13134.8 2.74
11/5/2022 6:30:00 PM 12.7 54.86 0.05 7.73 10768.1 2.46
11/5/2022 6:45:00 PM 12.66 54.788 0.051 7.73 9682.18 2.03
11/5/2022 7:00:00 PM 12.64 54.752 0.051 7.73 5031.53 2.04
11/5/2022 7:15:00 PM 12.61 54.698 0.052 7.73 4246.21 2.42
11/5/2022 7:30:00 PM 12.57 54.626 0.051 7.73 1735.91 2.49
11/5/2022 7:45:00 PM 12.53 54.554 0.051 7.73 714.87 2.44
11/5/2022 8:00:00 PM 12.51 54.518 0.051 7.73 1016.14 2.5
11/5/2022 8:15:00 PM 12.47 54.446 0.051 7.72 910.49 2.63
11/5/2022 8:30:00 PM 12.45 54.41 0.052 7.72 1184.59 2.62
11/5/2022 8:45:00 PM 12.44 54.392 0.051 7.72 1068.77 2.6
11/5/2022 9:00:00 PM 12.44 54.392 0.052 7.73 4433.48 2.49
11/5/2022 9:15:00 PM 12.44 54.392 0.052 7.73 4356.66 2.43
11/5/2022 9:30:00 PM 12.44 54.392 0.052 7.73 4009.22 2.45
11/5/2022 9:45:00 PM 12.43 54.374 0.052 7.73 1954.91 2.67
11/5/2022 10:00:00 PM 12.41 54.338 0.052 7.73 2579.76 2.69
11/5/2022 10:15:00 PM 12.4 54.32 0.052 7.72 4097.97 2.89
11/5/2022 10:30:00 PM 12.39 54.302 0.053 7.73 4970.15 3.03
11/5/2022 10:45:00 PM 12.37 54.266 0.053 7.73 1588.08 3.25
11/5/2022 11:00:00 PM 12.38 54.284 0.053 7.73 1714.78 3.27
11/5/2022 11:15:00 PM 12.37 54.266 0.053 7.73 2358.33 3.5
11/5/2022 11:30:00 PM 12.36 54.248 0.053 7.72 4595.54 3.78
11/5/2022 11:45:00 PM 12.37 54.266 0.054 7.73 3881.92 4.06
11/6/2022 12:00:00 AM 12.37 54.266 0.053 7.73 1023.24 4.46
11/6/2022 12:15:00 AM 12.38 54.284 0.053 7.72 1460.62 4.34
11/6/2022 12:30:00 AM 12.39 54.302 0.053 7.68 3336.98 3.95
11/6/2022 12:45:00 AM 12.41 54.338 0.053 7.73 2741.44 3.61
11/6/2022 1:00:00 AM 12.45 54.41 0.054 7.73 686.08 3.33
11/6/2022 1:15:00 AM 12.48 54.464 0.054 7.73 1790.65 3.05
11/6/2022 1:30:00 AM 12.5 54.5 0.054 7.73 939.46 3.12
11/6/2022 1:45:00 AM 12.51 54.518 0.054 7.72 929.28 3.13
11/6/2022 2:00:00 AM 12.53 54.554 0.054 7.72 971.84 3.13
11/6/2022 2:15:00 AM 12.55 54.59 0.055 7.72 955.55 2.86
11/6/2022 2:30:00 AM 12.57 54.626 0.055 7.69 984.32 2.62
11/6/2022 2:45:00 AM 12.57 54.626 0.054 7.71 730.79 2.3
11/6/2022 3:00:00 AM 12.58 54.644 0.054 7.72 637.13 2.1
11/6/2022 3:15:00 AM 12.61 54.698 0.054 7.72 837.59 2.12
11/6/2022 3:30:00 AM 12.64 54.752 0.053 7.72 1429.19 1.98
11/6/2022 3:45:00 AM 12.66 54.788 0.053 7.7 3690.37 1.17
11/6/2022 4:00:00 AM 12.69 54.842 0.052 7.72 4928.07 0.97
11/6/2022 4:15:00 AM 12.72 54.896 0.052 7.71 1908.58 1.66
11/6/2022 4:30:00 AM 12.75 54.95 0.052 7.71 1009.24 2.28
11/6/2022 4:45:00 AM 12.77 54.986 0.052 7.73 944.64 2.77
11/6/2022 5:00:00 AM 12.79 55.022 0.052 7.72 856.59 3.21
11/6/2022 5:15:00 AM 12.8 55.04 0.052 7.72 646.97 2.93
11/6/2022 5:30:00 AM 12.83 55.094 0.052 7.73 613.94 3.14
11/6/2022 5:45:00 AM 12.86 55.148 0.052 7.73 1014.12 3.12
11/6/2022 6:00:00 AM 12.88 55.184 0.052 7.72 1268.41 3.02
11/6/2022 6:15:00 AM 12.89 55.202 0.052 7.72 1242.06 3.19
11/6/2022 6:30:00 AM 12.89 55.202 0.052 7.72 1207.85 3.7
11/6/2022 6:45:00 AM 12.9 55.22 0.052 7.71 1146.24 3.93
11/6/2022 7:00:00 AM 12.9 55.22 0.052 7.72 1236.8 3.84
11/6/2022 7:15:00 AM 12.9 55.22 0.052 7.72 1368.57 3.96
11/6/2022 7:30:00 AM 12.89 55.202 0.052 7.71 1216.88 3.98
11/6/2022 7:45:00 AM 12.89 55.202 0.052 7.72 1281.82 3.91
11/6/2022 8:00:00 AM 12.89 55.202 0.052 7.71 987.15 3.76
11/6/2022 8:15:00 AM 12.91 55.238 0.053 7.72 1268.43 3.13
11/6/2022 8:30:00 AM 12.91 55.238 0.052 7.72 941.9 2.69
11/6/2022 8:45:00 AM 12.93 55.274 0.053 7.71 792.38 2.5
11/6/2022 9:00:00 AM 12.96 55.328 0.053 7.73 1306.01 2.2
11/6/2022 9:15:00 AM 13.01 55.418 0.053 7.73 1962.96 1.78
11/6/2022 9:30:00 AM 13.07 55.526 0.053 7.74 2763.57 1.71
11/6/2022 9:45:00 AM 13.15 55.67 0.053 7.74 2013.8 1.6
11/6/2022 10:00:00 AM 13.22 55.796 0.052 7.74 830.93 1.61
11/6/2022 10:15:00 AM 13.31 55.958 0.053 7.75 751.11 1.39
11/6/2022 10:30:00 AM 13.42 56.156 0.052 7.73 386.77 2.19
11/6/2022 10:45:00 AM 13.49 56.282 0.052 7.71 381.84 2.97
11/6/2022 11:00:00 AM 13.55 56.39 0.053 7.72 636.8 4.53
11/6/2022 11:15:00 AM 13.6 56.48 0.052 7.74 880.06 3.33
11/6/2022 11:30:00 AM 13.73 56.714 0.052 7.72 751.28 3.14
11/6/2022 11:45:00 AM 13.87 56.966 0.052 7.76 577.69 2.68
11/6/2022 12:00:00 PM 14 57.2 0.052 7.76 445.63 2.4
11/6/2022 12:15:00 PM 14.11 57.398 0.052 7.76 164.54 2.63
11/6/2022 12:30:00 PM 14.21 57.578 0.052 7.72 148.67 2.04
11/6/2022 12:45:00 PM 14.28 57.704 0.052 7.75 161.09 2.13
11/6/2022 1:00:00 PM 14.32 57.776 0.052 7.75 210.9 2.11
11/6/2022 1:15:00 PM 14.38 57.884 0.052 7.75 207.65 2.39
11/6/2022 1:30:00 PM 14.42 57.956 0.052 7.75 192.02 2.82
11/6/2022 1:45:00 PM 14.51 58.118 0.052 7.76 173.95 2.24
11/6/2022 2:00:00 PM 14.57 58.226 0.052 7.75 214.7 2.35
11/6/2022 2:15:00 PM 14.6 58.28 0.052 7.76 214.17 3.02
11/6/2022 2:30:00 PM 14.67 58.406 0.052 7.76 132.93 2.78
11/6/2022 2:45:00 PM 14.7 58.46 0.052 7.76 122.05 2.99
11/6/2022 3:00:00 PM 14.72 58.496 0.052 7.73 184.25 3.31
11/6/2022 3:15:00 PM 14.74 58.532 0.052 7.72 148.07 3.85
11/6/2022 3:30:00 PM 14.77 58.586 0.052 7.73 211.04 3.98
11/6/2022 3:45:00 PM 14.79 58.622 0.053 7.75 215.85 4.78
11/6/2022 4:00:00 PM 14.78 58.604 0.053 7.73 53.64 4.38
11/6/2022 4:15:00 PM 14.79 58.622 0.053 7.74 106.37 4.08
11/6/2022 4:30:00 PM 14.8 58.64 0.053 7.75 126.5 3.19
11/6/2022 4:45:00 PM 14.79 58.622 0.053 7.75 55.34 2.33
11/6/2022 5:00:00 PM 14.77 58.586 0.053 7.74 80.46 2.58
11/6/2022 5:15:00 PM 14.75 58.55 0.053 7.74 72.25 2.93
11/6/2022 5:30:00 PM 14.74 58.532 0.053 7.74 70.62 4.29
11/6/2022 5:45:00 PM 14.71 58.478 0.054 7.72 77.78 5.01
11/6/2022 6:00:00 PM 14.65 58.37 0.054 7.71 136.03 5.27
11/6/2022 6:15:00 PM 14.58 58.244 0.054 7.69 238.61 5.35
11/6/2022 6:30:00 PM 14.49 58.082 0.054 7.69 318.44 5.43
11/6/2022 6:45:00 PM 14.43 57.974 0.054 7.69 303.89 5.56
11/6/2022 7:00:00 PM 14.36 57.848 0.054 7.69 323.85 5.88
11/6/2022 7:15:00 PM 14.28 57.704 0.054 7.69 285.51 6.57
11/6/2022 7:30:00 PM 14.21 57.578 0.054 7.69 295.16 6.7
11/6/2022 7:45:00 PM 14.14 57.452 0.054 7.69 304.59 7.08
11/6/2022 8:00:00 PM 14.07 57.326 0.054 7.69 354.29 7.09
11/6/2022 8:15:00 PM 14.03 57.254 0.053 7.7 337.83 6.78
11/6/2022 8:30:00 PM 14.03 57.254 0.053 7.7 376.85 5.67
11/6/2022 8:45:00 PM 14.01 57.218 0.053 7.69 319.57 5.86
11/6/2022 9:00:00 PM 14 57.2 0.053 7.7 440.35 5.5
11/6/2022 9:15:00 PM 13.99 57.182 0.053 7.69 415.73 5.41
11/6/2022 9:30:00 PM 13.98 57.164 0.053 7.68 337.78 6.06
11/6/2022 9:45:00 PM 14.12 57.416 0.052 7.61 467 5.05
11/6/2022 10:00:00 PM 14.07 57.326 0.052 7.61 479.29 4.82
11/6/2022 10:15:00 PM 14.03 57.254 0.052 7.6 453.86 4.53
11/6/2022 10:30:00 PM 14 57.2 0.052 7.6 505.33 4.7
11/6/2022 10:45:00 PM 13.97 57.146 0.051 7.6 388.21 4.7
11/6/2022 11:00:00 PM 13.95 57.11 0.052 7.54 283.51 4.68
11/6/2022 11:15:00 PM 13.91 57.038 0.053 7.59 218.93 4.39
11/6/2022 11:30:00 PM 13.88 56.984 0.055 7.61 229.75 5.54
11/6/2022 11:45:00 PM 13.84 56.912 0.055 7.61 224.16 5.58
11/7/2022 12:00:00 AM 13.82 56.876 0.054 7.6 489.35 5.48
11/7/2022 12:15:00 AM 13.81 56.858 0.054 7.59 479.22 5.72
11/7/2022 12:30:00 AM 13.79 56.822 0.053 7.59 284.99 4.29
11/7/2022 12:45:00 AM 13.74 56.732 0.053 7.59 247.9 5.21
11/7/2022 1:00:00 AM 13.7 56.66 0.053 7.59 245.65 5.39
11/7/2022 1:15:00 AM 13.64 56.552 0.053 7.6 302.93 5.62
11/7/2022 1:30:00 AM 13.58 56.444 0.053 7.62 317.72 5.75
11/7/2022 1:45:00 AM 13.52 56.336 0.052 7.63 546.11 5.71
11/7/2022 2:00:00 AM 13.48 56.264 0.053 7.63 668.73 5.77
11/7/2022 2:15:00 AM 13.43 56.174 0.052 7.64 586.01 5.34
11/7/2022 2:30:00 AM 13.38 56.084 0.053 7.66 705.37 6.57
11/7/2022 2:45:00 AM 13.35 56.03 0.053 7.66 634.66 7.14
11/7/2022 3:00:00 AM 13.32 55.976 0.053 7.66 688.71 8.04
11/7/2022 3:15:00 AM 13.29 55.922 0.053 7.66 608.85 8.4
11/7/2022 3:30:00 AM 13.24 55.832 0.053 7.66 761.97 8.43
11/7/2022 3:45:00 AM 13.18 55.724 0.052 7.66 617.73 8.37
11/7/2022 4:00:00 AM 13.12 55.616 0.052 7.66 663.96 8.43
11/7/2022 4:15:00 AM 13.05 55.49 0.052 7.66 700.94 8.29
11/7/2022 4:30:00 AM 12.99 55.382 0.051 7.67 756.7 8.02
11/7/2022 4:45:00 AM 12.92 55.256 0.052 7.67 838.57 7.89
11/7/2022 5:00:00 AM 12.84 55.112 0.052 7.67 719.37 7.59
11/7/2022 5:15:00 AM 12.77 54.986 0.052 7.67 571.99 7.6
11/7/2022 5:30:00 AM 12.7 54.86 0.051 7.67 508.07 4.81
11/7/2022 5:45:00 AM 12.64 54.752 0.052 7.68 519.69 5.25
11/7/2022 6:00:00 AM 12.56 54.608 0.051 7.68 441.42 5.86
11/7/2022 6:15:00 AM 12.49 54.482 0.051 7.68 524.53 6.72
11/7/2022 6:30:00 AM 12.41 54.338 0.051 7.67 425 8.2
11/7/2022 6:45:00 AM 12.33 54.194 0.052 7.68 510.65 6.95
11/7/2022 7:00:00 AM 12.24 54.032 0.052 7.68 534.08 7.16
11/7/2022 7:15:00 AM 12.16 53.888 0.052 7.68 548.16 7.84
11/7/2022 7:30:00 AM 12.09 53.762 0.052 7.68 545.72 8.37
11/7/2022 7:45:00 AM 12.01 53.618 0.051 7.67 686.57 8.63
11/7/2022 8:00:00 AM 11.93 53.474 0.05 7.68 665.4 8.04
11/7/2022 8:15:00 AM 11.86 53.348 0.05 7.68 525.13 7.22
11/7/2022 8:30:00 AM 11.81 53.258 0.05 7.68 565.36 7.51
11/7/2022 8:45:00 AM 11.77 53.186 0.05 7.68 778.26 7.23
11/7/2022 9:00:00 AM 11.75 53.15 0.05 7.69 716.25 8.16
11/7/2022 9:15:00 AM 11.73 53.114 0.05 7.69 523.75 8.25
11/7/2022 9:30:00 AM 11.73 53.114 0.05 7.69 620.82 8.18
11/7/2022 9:45:00 AM 11.74 53.132 0.05 7.69 608.64 7.64
11/7/2022 10:00:00 AM 11.77 53.186 0.05 7.7 751.08 8.47
11/7/2022 10:15:00 AM 11.81 53.258 0.051 7.71 897.49 8.55
11/7/2022 10:30:00 AM 11.84 53.312 0.051 7.72 793.49 8.52
11/7/2022 10:45:00 AM 11.87 53.366 0.05 7.72 897.22 8.43
11/7/2022 11:00:00 AM 11.9 53.42 0.051 7.72 753.2 8.43
11/7/2022 11:15:00 AM 11.93 53.474 0.051 7.72 659.96 8.44
11/7/2022 11:30:00 AM 11.95 53.51 0.051 7.69 536.62 8.28
11/7/2022 11:45:00 AM 11.97 53.546 0.051 7.73 795.21 8.67
11/7/2022 12:00:00 PM 12 53.6 0.051 7.72 368.13 8.96
11/7/2022 12:15:00 PM 12.01 53.618 0.051 7.72 1415.9 9.14
11/7/2022 12:30:00 PM 12.03 53.654 0.051 7.72 1176.22 9.18
11/7/2022 12:45:00 PM 12.04 53.672 0.051 7.72 1153.4 9.13
11/7/2022 1:00:00 PM 12.05 53.69 0.051 7.73 1630.68 9.12
11/7/2022 1:15:00 PM 12.05 53.69 0.051 7.72 6328.7 9.04
11/7/2022 1:30:00 PM 12.03 53.654 0.051 7.73 6787.05 9.07
11/7/2022 1:45:00 PM 12.01 53.618 0.051 7.73 6139.25 8.96
11/7/2022 2:00:00 PM 11.99 53.582 0.051 7.73 11679.83 8.98
11/7/2022 2:15:00 PM 11.94 53.492 0.051 7.73 6530.44 8.95
11/7/2022 2:30:00 PM 11.91 53.438 0.051 7.72 8900.5 8.99
11/7/2022 2:45:00 PM 11.86 53.348 0.051 7.73 7456.87 9.03
11/7/2022 3:00:00 PM 11.83 53.294 0.051 7.72 4198.38 9.04
11/7/2022 3:15:00 PM 11.8 53.24 0.051 7.72 5491.96 9.06
11/7/2022 3:30:00 PM 11.75 53.15 0.051 7.72 4110.8 9.1
11/7/2022 3:45:00 PM 11.69 53.042 0.051 7.72 7027.78 8.48
11/7/2022 4:00:00 PM 11.62 52.916 0.051 7.73 8362.03 7.64
11/7/2022 4:15:00 PM 11.56 52.808 0.051 7.72 11071.31 7.12
11/7/2022 4:30:00 PM 11.5 52.7 0.05 7.72 11829.44 7.04
11/7/2022 4:45:00 PM 11.43 52.574 0.051 7.72 14780.63 7.13
11/7/2022 5:00:00 PM 11.35 52.43 0.051 7.72 13267.88 6.86
11/7/2022 5:15:00 PM 11.28 52.304 0.051 7.72 9903.15 6.95
11/7/2022 5:30:00 PM 11.21 52.178 0.051 7.72 7422.28 6.81
11/7/2022 5:45:00 PM 11.14 52.052 0.051 7.71 12972.15 6.92
11/7/2022 6:00:00 PM 11.05 51.89 0.051 7.71 9184.98 7.38
11/7/2022 6:15:00 PM 10.95 51.71 0.051 7.7 11543.61 7.68
11/7/2022 6:30:00 PM 10.85 51.53 0.051 7.7 10561.85 8.68
11/7/2022 6:45:00 PM 10.74 51.332 0.051 7.7 9674.44 8.66
11/7/2022 7:00:00 PM 10.65 51.17 0.051 7.7 10196.63 8.56
11/7/2022 7:15:00 PM 10.56 51.008 0.051 7.7 1686.04 8.3
11/7/2022 7:30:00 PM 10.48 50.864 0.051 7.7 1771.76 8.43
11/7/2022 7:45:00 PM 10.42 50.756 0.051 7.69 1854.03 8.41
11/7/2022 8:00:00 PM 10.36 50.648 0.051 7.66 3431.75 8.35
11/7/2022 8:15:00 PM 10.29 50.522 0.051 7.67 2572.15 8.33
11/7/2022 8:30:00 PM 10.23 50.414 0.051 7.67 4814.76 8.25
11/7/2022 8:45:00 PM 10.15 50.27 0.051 7.67 5300.01 8.32
11/7/2022 9:00:00 PM 10.08 50.144 0.051 7.68 5746.76 8.89
11/7/2022 9:15:00 PM 10.01 50.018 0.051 7.68 4452.78 8.94
11/7/2022 9:30:00 PM 9.93 49.874 0.051 7.67 3502.18 8.79
11/7/2022 9:45:00 PM 9.86 49.748 0.051 7.68 2609.39 8.77
11/7/2022 10:00:00 PM 9.79 49.622 0.051 7.68 2484.65 8.38
11/7/2022 10:15:00 PM 9.72 49.496 0.051 7.68 3113.67 8.43
11/7/2022 10:30:00 PM 9.66 49.388 0.051 7.68 5016.53 8.43
11/7/2022 10:45:00 PM 9.6 49.28 0.051 7.69 7087.96 8.43
11/7/2022 11:00:00 PM 9.54 49.172 0.051 7.69 4588.65 8.5
11/7/2022 11:15:00 PM 9.47 49.046 0.051 7.69 3566.33 8.44
11/7/2022 11:30:00 PM 9.41 48.938 0.051 7.69 3693.09 8.63
11/7/2022 11:45:00 PM 9.35 48.83 0.051 7.69 3535.17 8.79
11/8/2022 12:00:00 AM 9.28 48.704 0.051 7.69 4200.1 8.49
11/8/2022 12:15:00 AM 9.2 48.56 0.051 7.69 5613.52 9.12
11/8/2022 12:30:00 AM 9.13 48.434 0.051 7.69 8644.75 8.71
11/8/2022 12:45:00 AM 9.06 48.308 0.051 7.69 8790.09 8.63
11/8/2022 1:00:00 AM 8.99 48.182 0.05 7.69 5802.18 8.52
11/8/2022 1:15:00 AM 8.92 48.056 0.051 7.69 4977.35 9.21
11/8/2022 1:30:00 AM 8.85 47.93 0.051 7.69 2613.84 9.45
11/8/2022 1:45:00 AM 8.78 47.804 0.051 7.69 3068.12 9.52
11/8/2022 2:00:00 AM 8.71 47.678 0.052 7.68 3106.04 9.44
11/8/2022 2:15:00 AM 8.64 47.552 0.063 7.66 4097.6 9.13
11/8/2022 2:30:00 AM 8.57 47.426 0.068 7.67 6366.28 9.27
11/8/2022 2:45:00 AM 8.5 47.3 0.065 7.69 6398.36 8.66
11/8/2022 3:00:00 AM 8.43 47.174 0.069 7.66 3551.6 8.39
11/8/2022 3:15:00 AM 8.4 47.12 0.072 7.68 3267.51 8.66
11/8/2022 3:30:00 AM 8.36 47.048 0.068 7.69 2183.44 8.72
11/8/2022 3:45:00 AM 8.33 46.994 0.071 7.67 1995.38 8.68
11/8/2022 4:00:00 AM 8.32 46.976 0.087 7.66 2394.01 8.6
11/8/2022 4:15:00 AM 8.31 46.958 0.086 7.69 2866.43 8.7
11/8/2022 4:30:00 AM 8.29 46.922 0.078 7.71 5779.65 8.83
11/8/2022 4:45:00 AM 8.29 46.922 0.072 7.71 3423.98 8.79
11/8/2022 5:00:00 AM 8.27 46.886 0.067 7.72 1983.73 8.84
11/8/2022 5:15:00 AM 8.23 46.814 0.064 7.72 4821.55 8.81
11/8/2022 5:30:00 AM 8.17 46.706 0.062 7.72 5503.37 8.95
11/8/2022 5:45:00 AM 8.11 46.598 0.061 7.72 19067.95 8.92
11/8/2022 6:00:00 AM 8.06 46.508 0.06 7.71 19214 8.9
11/8/2022 6:15:00 AM 8.01 46.418 0.058 7.71 14425.51 8.99
11/8/2022 6:30:00 AM 7.97 46.346 0.057 7.71 8545.76 8.91
11/8/2022 6:45:00 AM 7.95 46.31 0.056 7.72 9434.02 8.98
11/8/2022 7:00:00 AM 7.94 46.292 0.056 7.72 11600.88 9.18
11/8/2022 7:15:00 AM 7.92 46.256 0.055 7.72 14542.14 9.03
11/8/2022 7:30:00 AM 7.93 46.274 0.055 7.73 8811.43 9
11/8/2022 7:45:00 AM 7.94 46.292 0.055 7.73 9962.21 9.04
11/8/2022 8:00:00 AM 7.92 46.256 0.054 7.72 4887.52 9.07
11/8/2022 8:15:00 AM 7.87 46.166 0.054 7.73 7931.79 9.12
11/8/2022 8:30:00 AM 7.84 46.112 0.054 7.72 8938.49 9.23
11/8/2022 8:45:00 AM 7.82 46.076 0.054 7.73 7067.1 9.74
11/8/2022 9:00:00 AM 7.82 46.076 0.054 7.73 1891.98 9.51
11/8/2022 9:15:00 AM 7.8 46.04 0.053 7.74 878.17 9.26
11/8/2022 9:30:00 AM 7.8 46.04 0.053 7.74 2294.92 9.21
11/8/2022 9:45:00 AM 7.8 46.04 0.053 7.75 2622.27 9.22
11/8/2022 10:00:00 AM 7.81 46.058 0.053 7.75 2185.44 9.23
11/8/2022 10:15:00 AM 7.82 46.076 0.053 7.75 1639.79 9.23
11/8/2022 10:30:00 AM 7.83 46.094 0.053 7.75 1524.3 9.33
11/8/2022 10:45:00 AM 7.85 46.13 0.053 7.76 1373.48 9.33
11/8/2022 11:00:00 AM 7.86 46.148 0.053 7.76 1022.65 9.33
11/8/2022 11:15:00 AM 7.88 46.184 0.053 7.76 1150.75 9.3
11/8/2022 11:30:00 AM 7.92 46.256 0.053 7.76 1574.8 9.32
11/8/2022 11:45:00 AM 7.95 46.31 0.053 7.76 2681.8 9.28
11/8/2022 12:00:00 PM 7.98 46.364 0.053 7.76 4383.14 9.29
11/8/2022 12:15:00 PM 8.01 46.418 0.053 7.76 2729.11 9.3
11/8/2022 12:30:00 PM 8.03 46.454 0.052 7.76 1906.67 9.26
11/8/2022 12:45:00 PM 8.03 46.454 0.052 7.76 1297.79 9.23
11/8/2022 1:00:00 PM 8.04 46.472 0.052 7.76 1344.61 9.21
11/8/2022 1:15:00 PM 8.05 46.49 0.052 7.76 999.55 9.19
11/8/2022 1:30:00 PM 8.06 46.508 0.052 7.76 709.12 9.18
11/8/2022 1:45:00 PM 8.06 46.508 0.052 7.76 346.97 9.14
11/8/2022 2:00:00 PM 8.06 46.508 0.052 7.76 151.68 9.23
11/8/2022 2:15:00 PM 8.05 46.49 0.052 7.76 103.55 9.45
11/8/2022 2:30:00 PM 8.05 46.49 0.052 7.77 98.23 9.19
11/8/2022 2:45:00 PM 8.05 46.49 0.052 7.77 197.12 9.23
11/8/2022 3:00:00 PM 8.05 46.49 0.052 7.76 513.19 9.63
11/8/2022 3:15:00 PM 8.05 46.49 0.052 7.76 997.84 9.68
11/8/2022 3:30:00 PM 8.05 46.49 0.052 7.76 527.68 9.68
11/8/2022 3:45:00 PM 8.05 46.49 0.052 7.75 476.81 9.31
11/8/2022 4:00:00 PM 8.05 46.49 0.052 7.75 580.54 9.86
11/8/2022 4:15:00 PM 8.05 46.49 0.052 7.75 2404.15 9.82
11/8/2022 4:30:00 PM 8.03 46.454 0.052 7.75 2533.58 9.99
11/8/2022 4:45:00 PM 8 46.4 0.052 7.75 283.64 9.87
11/8/2022 5:00:00 PM 7.98 46.364 0.052 7.75 1259.2 9.71
11/8/2022 5:15:00 PM 7.96 46.328 0.052 7.74 604.65 9.79
11/8/2022 5:30:00 PM 7.93 46.274 0.052 7.74 414.42 9.88
11/8/2022 5:45:00 PM 7.9 46.22 0.052 7.74 404.09 10.07
11/8/2022 6:00:00 PM 7.85 46.13 0.052 7.73 451.08 10.16
11/8/2022 6:15:00 PM 7.79 46.022 0.052 7.72 748.71 10.16
11/8/2022 6:30:00 PM 7.72 45.896 0.051 7.71 472.99 10.2
11/8/2022 6:45:00 PM 7.66 45.788 0.051 7.71 354.91 10.24
11/8/2022 7:00:00 PM 7.6 45.68 0.051 7.71 407.07 10.15
11/8/2022 7:15:00 PM 7.53 45.554 0.051 7.7 522.28 10.07
11/8/2022 7:30:00 PM 7.46 45.428 0.051 7.71 450.76 10.11
11/8/2022 7:45:00 PM 7.39 45.302 0.051 7.71 312.19 10.17
11/8/2022 8:00:00 PM 7.32 45.176 0.051 7.71 325.31 10.13
11/8/2022 8:15:00 PM 7.26 45.068 0.051 7.71 304.52 10.18
11/8/2022 8:30:00 PM 7.2 44.96 0.051 7.71 285.36 10.37
11/8/2022 8:45:00 PM 7.15 44.87 0.051 7.71 1165.17 10.37
11/8/2022 9:00:00 PM 7.09 44.762 0.051 7.71 1361.44 10.41
11/8/2022 9:15:00 PM 7.03 44.654 0.051 7.71 1486.16 10.41
11/8/2022 9:30:00 PM 6.97 44.546 0.052 7.71 1372.04 10.51
11/8/2022 9:45:00 PM 6.9 44.42 0.052 7.72 1374.65 10.68
11/8/2022 10:00:00 PM 6.86 44.348 0.052 7.71 1384.23 10.78
11/8/2022 10:15:00 PM 6.8 44.24 0.052 7.72 1701.23 10.86
11/8/2022 10:30:00 PM 6.75 44.15 0.052 7.71 1998.89 10.91
11/8/2022 10:45:00 PM 6.69 44.042 0.052 7.71 200.1 10.95
11/8/2022 11:00:00 PM 6.64 43.952 0.052 7.71 192.13 10.98
11/8/2022 11:15:00 PM 6.58 43.844 0.052 7.71 214.66 11.02
11/8/2022 11:30:00 PM 6.53 43.754 0.052 7.71 2578.48 11.05
11/8/2022 11:45:00 PM 6.46 43.628 0.052 7.72 3229.92 11.08
11/9/2022 12:00:00 AM 6.39 43.502 0.051 7.71 3623.83 11.1
11/9/2022 12:15:00 AM 6.33 43.394 0.051 7.72 3410.78 11.12
11/9/2022 12:30:00 AM 6.26 43.268 0.051 7.71 3388.92 11.13
11/9/2022 12:45:00 AM 6.2 43.16 0.051 7.71 3020.61 11.16
11/9/2022 1:00:00 AM 6.14 43.052 0.051 7.72 3072.06 11.19
11/9/2022 1:15:00 AM 6.09 42.962 0.051 7.71 2900.8 11.22
11/9/2022 1:30:00 AM 6.04 42.872 0.051 7.72 1533.94 11.23
11/9/2022 1:45:00 AM 5.99 42.782 0.051 7.72 1486.8 11.26
11/9/2022 2:00:00 AM 5.94 42.692 0.051 7.72 947.97 11.27
11/9/2022 2:15:00 AM 5.88 42.584 0.051 7.71 244.43 11.29
11/9/2022 2:30:00 AM 5.82 42.476 0.051 7.72 368.83 11.31
11/9/2022 2:45:00 AM 5.77 42.386 0.051 7.71 991.94 11.3
11/9/2022 3:00:00 AM 5.72 42.296 0.051 7.72 1023.06 11.3
11/9/2022 3:15:00 AM 5.67 42.206 0.051 7.71 709.37 11.33
11/9/2022 3:30:00 AM 5.61 42.098 0.051 7.71 542.36 11.34
11/9/2022 3:45:00 AM 5.56 42.008 0.051 7.72 504.64 11.36
11/9/2022 4:00:00 AM 5.51 41.918 0.051 7.71 555.85 11.37
11/9/2022 4:15:00 AM 5.45 41.81 0.051 7.71 519.35 11.36
11/9/2022 4:30:00 AM -99999.99 -179968 -99999.99 -99999.99 -99999.99 -99999.99
11/9/2022 4:45:00 AM -99999.99 -179968 -99999.99 -99999.99 -99999.99 -99999.99
11/9/2022 5:00:00 AM -99999.99 -179968 -99999.99 -99999.99 -99999.99 -99999.99
11/9/2022 5:15:00 AM -99999.99 -179968 -99999.99 -99999.99 -99999.99 -99999.99
11/9/2022 5:30:00 AM -99999.99 -179968 -99999.99 -99999.99 -99999.99 -99999.99
11/9/2022 5:45:00 AM -99999.99 -179968 -99999.99 -99999.99 -99999.99 -99999.99
11/9/2022 6:00:00 AM -99999.99 -179968 -99999.99 -99999.99 -99999.99 -99999.99
11/9/2022 6:15:00 AM -99999.99 -179968 -99999.99 -99999.99 -99999.99 -99999.99
11/9/2022 6:30:00 AM -99999.99 -179968 -99999.99 -99999.99 -99999.99 -99999.99
11/9/2022 6:45:00 AM -99999.99 -179968 -99999.99 -99999.99 -99999.99 -99999.99
11/9/2022 7:00:00 AM -99999.99 -179968 -99999.99 -99999.99 -99999.99 -99999.99
11/9/2022 7:15:00 AM -99999.99 -179968 -99999.99 -99999.99 -99999.99 -99999.99
11/9/2022 7:30:00 AM -99999.99 -179968 -99999.99 -99999.99 -99999.99 -99999.99
11/9/2022 7:45:00 AM -99999.99 -179968 -99999.99 -99999.99 -99999.99 -99999.99
11/9/2022 8:00:00 AM -99999.99 -179968 -99999.99 -99999.99 -99999.99 -99999.99
11/9/2022 8:15:00 AM -99999.99 -179968 -99999.99 -99999.99 -99999.99 -99999.99
11/9/2022 8:30:00 AM -99999.99 -179968 -99999.99 -99999.99 -99999.99 -99999.99
11/9/2022 8:45:00 AM 4.61 40.298 0.051 7.69 541.72 11.85
11/9/2022 9:00:00 AM 4.61 40.298 0.051 7.7 559.81 11.79
11/9/2022 9:15:00 AM 4.63 40.334 0.051 7.72 605.33 11.77
11/9/2022 9:30:00 AM 4.65 40.37 0.051 7.73 526.53 11.73
11/9/2022 9:45:00 AM 4.69 40.442 0.051 7.74 508.95 11.7
11/9/2022 10:00:00 AM 4.74 40.532 0.051 7.74 478.21 11.7
11/9/2022 10:15:00 AM 4.81 40.658 0.051 7.75 457.76 11.69
11/9/2022 10:30:00 AM 4.89 40.802 0.051 7.76 571.85 11.67
11/9/2022 10:45:00 AM 4.96 40.928 0.051 7.76 511.5 11.62
11/9/2022 11:00:00 AM 5.01 41.018 0.051 7.76 775.87 11.6
11/9/2022 11:15:00 AM 5.08 41.144 0.051 7.77 426.66 11.59
11/9/2022 11:30:00 AM 5.15 41.27 0.051 7.77 581.96 11.56
11/9/2022 11:45:00 AM 5.24 41.432 0.051 7.77 491.08 11.55
11/9/2022 12:00:00 PM 5.31 41.558 0.051 7.78 499.91 11.52
11/9/2022 12:15:00 PM 5.38 41.684 0.051 7.78 397 11.48
11/9/2022 12:30:00 PM 5.47 41.846 0.051 7.78 429.27 11.43
11/9/2022 12:45:00 PM 5.56 42.008 0.051 7.78 535.37 11.41
11/9/2022 1:00:00 PM 5.65 42.17 0.051 7.78 387.54 11.38
11/9/2022 1:15:00 PM 5.73 42.314 0.051 7.79 331.61 11.33
11/9/2022 1:30:00 PM 5.84 42.512 0.051 7.79 343.33 11.29
11/9/2022 1:45:00 PM 5.95 42.71 0.051 7.79 358.72 11.26
11/9/2022 2:00:00 PM 6.03 42.854 0.051 7.79 358.69 11.22
11/9/2022 2:15:00 PM 6.09 42.962 0.051 7.79 377.29 11.2
11/9/2022 2:30:00 PM 6.16 43.088 0.051 7.79 397.11 11.17
11/9/2022 2:45:00 PM 6.24 43.232 0.051 7.79 399.39 11.16
11/9/2022 3:00:00 PM 6.28 43.304 0.051 7.78 425.5 11.09
11/9/2022 3:15:00 PM 6.31 43.358 0.051 7.78 444.25 11.04
11/9/2022 3:30:00 PM 6.33 43.394 0.051 7.77 434.92 10.99
11/9/2022 3:45:00 PM 6.34 43.412 0.051 7.77 409.18 10.98
11/9/2022 4:00:00 PM 6.35 43.43 0.051 7.77 440.07 10.95
11/9/2022 4:15:00 PM 6.36 43.448 0.051 7.77 546.69 10.89
11/9/2022 4:30:00 PM 6.36 43.448 0.051 7.77 557.6 10.93
11/9/2022 4:45:00 PM 6.35 43.43 0.051 7.76 519.68 10.92
11/9/2022 5:00:00 PM 6.34 43.412 0.051 7.76 493.93 10.95
11/9/2022 5:15:00 PM 6.32 43.376 0.051 7.76 509.13 10.98
11/9/2022 5:30:00 PM 6.29 43.322 0.051 7.76 435.14 11.01
11/9/2022 5:45:00 PM 6.26 43.268 0.051 7.75 447.85 11
11/9/2022 6:00:00 PM 6.22 43.196 0.051 7.75 320.54 10.97
11/9/2022 6:15:00 PM 6.19 43.142 0.051 7.75 337.83 10.9
11/9/2022 6:30:00 PM 6.16 43.088 0.051 7.75 349.46 10.84
11/9/2022 6:45:00 PM 6.12 43.016 0.051 7.74 286.17 10.8
11/9/2022 7:00:00 PM 6.09 42.962 0.051 7.74 356.8 10.72
11/9/2022 7:15:00 PM 6.06 42.908 0.051 7.74 342.2 10.75
11/9/2022 7:30:00 PM 6.03 42.854 0.051 7.75 350.7 10.74
11/9/2022 7:45:00 PM 6 42.8 0.051 7.74 343.62 10.83
11/9/2022 8:00:00 PM 5.97 42.746 0.051 7.74 348.2 10.87
11/9/2022 8:15:00 PM 5.94 42.692 0.051 7.74 359.57 10.88
11/9/2022 8:30:00 PM 5.9 42.62 0.051 7.74 344.51 10.89
11/9/2022 8:45:00 PM 5.87 42.566 0.051 7.74 341.42 10.92
11/9/2022 9:00:00 PM 5.84 42.512 0.051 7.74 366.48 10.92
11/9/2022 9:15:00 PM 5.81 42.458 0.051 7.73 386.42 11
11/9/2022 9:30:00 PM 5.78 42.404 0.051 7.74 398.62 11.02
11/9/2022 9:45:00 PM 5.75 42.35 0.051 7.73 438.04 11.04
11/9/2022 10:00:00 PM 5.72 42.296 0.051 7.73 301.98 10.96
11/9/2022 10:15:00 PM 5.69 42.242 0.051 7.73 289.98 10.91
11/9/2022 10:30:00 PM 5.66 42.188 0.051 7.73 316.08 10.88
11/9/2022 10:45:00 PM 5.64 42.152 0.051 7.73 308.4 10.8
11/9/2022 11:00:00 PM 5.61 42.098 0.051 7.73 535.15 10.77
11/9/2022 11:15:00 PM 5.59 42.062 0.051 7.72 336.94 10.83
11/9/2022 11:30:00 PM 5.56 42.008 0.051 7.72 318.05 10.91
11/9/2022 11:45:00 PM 5.53 41.954 0.051 7.72 368.7 10.91
11/10/2022 12:00:00 AM 5.51 41.918 0.051 7.72 443.65 10.99
11/10/2022 12:15:00 AM 5.49 41.882 0.051 7.72 480.84 11.02
11/10/2022 12:30:00 AM 5.47 41.846 0.051 7.72 373.63 11.03
11/10/2022 12:45:00 AM 5.45 41.81 0.051 7.72 487.59 11.05
11/10/2022 1:00:00 AM 5.43 41.774 0.051 7.72 429.26 11.03
11/10/2022 1:15:00 AM 5.42 41.756 0.051 7.72 407.29 11.03
11/10/2022 1:30:00 AM 5.4 41.72 0.051 7.72 346.64 11.03
11/10/2022 1:45:00 AM 5.38 41.684 0.051 7.72 318.69 11.03
11/10/2022 2:00:00 AM 5.36 41.648 0.051 7.72 307.85 11.1
11/10/2022 2:15:00 AM 5.34 41.612 0.051 7.71 287.75 11.1
11/10/2022 2:30:00 AM 5.31 41.558 0.051 7.71 281.53 11.11
11/10/2022 2:45:00 AM 5.3 41.54 0.051 7.71 279.4 11.04
11/10/2022 3:00:00 AM 5.28 41.504 0.051 7.71 260.48 11.03
11/10/2022 3:15:00 AM 5.26 41.468 0.051 7.71 237.93 10.98
11/10/2022 3:30:00 AM 5.24 41.432 0.051 7.71 223.85 10.96
11/10/2022 3:45:00 AM 5.23 41.414 0.051 7.71 225.47 10.94
11/10/2022 4:00:00 AM 5.21 41.378 0.051 7.71 220.33 10.92
11/10/2022 4:15:00 AM 5.2 41.36 0.051 7.71 223.09 10.85
11/10/2022 4:30:00 AM 5.19 41.342 0.051 7.72 227.2 10.88
11/10/2022 4:45:00 AM 5.16 41.288 0.051 7.71 228.13 10.89
11/10/2022 5:00:00 AM 5.14 41.252 0.051 7.71 212.6 10.95
11/10/2022 5:15:00 AM 5.12 41.216 0.051 7.71 218.53 10.94
11/10/2022 5:30:00 AM 5.1 41.18 0.051 7.71 207.02 10.96
11/10/2022 5:45:00 AM 5.08 41.144 0.051 7.71 202.73 10.95
11/10/2022 6:00:00 AM 5.06 41.108 0.051 7.71 207.09 11.07
11/10/2022 6:15:00 AM 5.04 41.072 0.051 7.71 202.36 11.05
11/10/2022 6:30:00 AM 5.02 41.036 0.051 7.71 207.46 11.14